<?xml version="1.0" encoding="UTF-8" standalone="no" ?>
<gpx xmlns="http://www.topografix.com/GPX/1/1" xmlns:xsi="http://www.w3.org/2001/XMLSchema-instance" xsi:schemaLocation="http://www.topografix.com/GPX/1/1 http://www.topografix.com/GPX/1/1/gpx.xsd" version="1.1" creator="VisuGPX - https://www.visugpx.com">
  <metadata>
    <name>VTT SAINT SALVY -TARN</name>
    <desc><![CDATA[VTT DANS LE SIDOBRE ET A COTE]]></desc>
  </metadata>
  <trk>
    <name><![CDATA[2015-09-13T07_2]]></name>
    <trkseg>
      <trkpt lat="43.56845" lon="2.30943">
        <ele>216.43396</ele>
        <time>2015-09-13T07:27:30Z</time>
      </trkpt>
      <trkpt lat="43.56859" lon="2.309">
        <ele>215.9532471</ele>
        <time>2015-09-13T07:27:39Z</time>
      </trkpt>
      <trkpt lat="43.56868" lon="2.30878">
        <ele>213.5500488</ele>
        <time>2015-09-13T07:27:44Z</time>
      </trkpt>
      <trkpt lat="43.56885" lon="2.30879">
        <ele>212.1080322</ele>
        <time>2015-09-13T07:27:48Z</time>
      </trkpt>
      <trkpt lat="43.56897" lon="2.30878">
        <ele>211.1467285</ele>
        <time>2015-09-13T07:27:50Z</time>
      </trkpt>
      <trkpt lat="43.56912" lon="2.30876">
        <ele>210.1854248</ele>
        <time>2015-09-13T07:27:52Z</time>
      </trkpt>
      <trkpt lat="43.5695" lon="2.30889">
        <ele>208.2628174</ele>
        <time>2015-09-13T07:27:57Z</time>
      </trkpt>
      <trkpt lat="43.56992" lon="2.30914">
        <ele>206.3400879</ele>
        <time>2015-09-13T07:28:03Z</time>
      </trkpt>
      <trkpt lat="43.57025" lon="2.30944">
        <ele>204.8980713</ele>
        <time>2015-09-13T07:28:09Z</time>
      </trkpt>
      <trkpt lat="43.57042" lon="2.30966">
        <ele>203.4561768</ele>
        <time>2015-09-13T07:28:13Z</time>
      </trkpt>
      <trkpt lat="43.57062" lon="2.31008">
        <ele>204.8980713</ele>
        <time>2015-09-13T07:28:19Z</time>
      </trkpt>
      <trkpt lat="43.57069" lon="2.31031">
        <ele>204.4174805</ele>
        <time>2015-09-13T07:28:22Z</time>
      </trkpt>
      <trkpt lat="43.57077" lon="2.31059">
        <ele>200.0916748</ele>
        <time>2015-09-13T07:28:26Z</time>
      </trkpt>
      <trkpt lat="43.57081" lon="2.31072">
        <ele>199.130127</ele>
        <time>2015-09-13T07:28:28Z</time>
      </trkpt>
      <trkpt lat="43.57084" lon="2.31085">
        <ele>199.6108398</ele>
        <time>2015-09-13T07:28:30Z</time>
      </trkpt>
      <trkpt lat="43.571" lon="2.31102">
        <ele>200.0916748</ele>
        <time>2015-09-13T07:28:34Z</time>
      </trkpt>
      <trkpt lat="43.57119" lon="2.31103">
        <ele>203.4561768</ele>
        <time>2015-09-13T07:28:38Z</time>
      </trkpt>
      <trkpt lat="43.5713" lon="2.31099">
        <ele>205.8594971</ele>
        <time>2015-09-13T07:28:40Z</time>
      </trkpt>
      <trkpt lat="43.57143" lon="2.31092">
        <ele>205.8594971</ele>
        <time>2015-09-13T07:28:42Z</time>
      </trkpt>
      <trkpt lat="43.57177" lon="2.31088">
        <ele>206.8206787</ele>
        <time>2015-09-13T07:28:47Z</time>
      </trkpt>
      <trkpt lat="43.572" lon="2.31078">
        <ele>206.8206787</ele>
        <time>2015-09-13T07:28:51Z</time>
      </trkpt>
      <trkpt lat="43.57245" lon="2.31078">
        <ele>207.7821045</ele>
        <time>2015-09-13T07:29:00Z</time>
      </trkpt>
      <trkpt lat="43.57255" lon="2.31077">
        <ele>207.3013916</ele>
        <time>2015-09-13T07:29:02Z</time>
      </trkpt>
      <trkpt lat="43.57273" lon="2.31069">
        <ele>208.7434082</ele>
        <time>2015-09-13T07:29:06Z</time>
      </trkpt>
      <trkpt lat="43.57282" lon="2.3106">
        <ele>210.1854248</ele>
        <time>2015-09-13T07:29:09Z</time>
      </trkpt>
      <trkpt lat="43.57298" lon="2.31045">
        <ele>212.1080322</ele>
        <time>2015-09-13T07:29:15Z</time>
      </trkpt>
      <trkpt lat="43.57313" lon="2.3104">
        <ele>213.5500488</ele>
        <time>2015-09-13T07:29:20Z</time>
      </trkpt>
      <trkpt lat="43.57331" lon="2.31045">
        <ele>215.9532471</ele>
        <time>2015-09-13T07:29:26Z</time>
      </trkpt>
      <trkpt lat="43.57357" lon="2.31054">
        <ele>216.9146729</ele>
        <time>2015-09-13T07:29:34Z</time>
      </trkpt>
      <trkpt lat="43.57386" lon="2.3107">
        <ele>217.8759766</ele>
        <time>2015-09-13T07:29:43Z</time>
      </trkpt>
      <trkpt lat="43.57412" lon="2.31089">
        <ele>218.3565674</ele>
        <time>2015-09-13T07:29:51Z</time>
      </trkpt>
      <trkpt lat="43.57438" lon="2.31113">
        <ele>218.3565674</ele>
        <time>2015-09-13T07:29:59Z</time>
      </trkpt>
      <trkpt lat="43.57465" lon="2.31136">
        <ele>218.3565674</ele>
        <time>2015-09-13T07:30:07Z</time>
      </trkpt>
      <trkpt lat="43.57492" lon="2.31147">
        <ele>219.798584</ele>
        <time>2015-09-13T07:30:15Z</time>
      </trkpt>
      <trkpt lat="43.57494" lon="2.31146">
        <ele>220.7598877</ele>
        <time>2015-09-13T07:30:18Z</time>
      </trkpt>
      <trkpt lat="43.57495" lon="2.31142">
        <ele>225.0859375</ele>
        <time>2015-09-13T07:30:33Z</time>
      </trkpt>
      <trkpt lat="43.57506" lon="2.31151">
        <ele>222.6824951</ele>
        <time>2015-09-13T07:30:39Z</time>
      </trkpt>
      <trkpt lat="43.57521" lon="2.31162">
        <ele>223.163208</ele>
        <time>2015-09-13T07:30:45Z</time>
      </trkpt>
      <trkpt lat="43.57533" lon="2.3118">
        <ele>224.1245117</ele>
        <time>2015-09-13T07:30:50Z</time>
      </trkpt>
      <trkpt lat="43.57543" lon="2.31212">
        <ele>223.163208</ele>
        <time>2015-09-13T07:30:56Z</time>
      </trkpt>
      <trkpt lat="43.57546" lon="2.31216">
        <ele>222.6824951</ele>
        <time>2015-09-13T07:30:57Z</time>
      </trkpt>
      <trkpt lat="43.5757" lon="2.31229">
        <ele>223.163208</ele>
        <time>2015-09-13T07:31:02Z</time>
      </trkpt>
      <trkpt lat="43.57575" lon="2.31228">
        <ele>223.163208</ele>
        <time>2015-09-13T07:31:03Z</time>
      </trkpt>
      <trkpt lat="43.57625" lon="2.31219">
        <ele>225.0859375</ele>
        <time>2015-09-13T07:31:14Z</time>
      </trkpt>
      <trkpt lat="43.57643" lon="2.31218">
        <ele>225.5665283</ele>
        <time>2015-09-13T07:31:20Z</time>
      </trkpt>
      <trkpt lat="43.57648" lon="2.31219">
        <ele>225.5665283</ele>
        <time>2015-09-13T07:31:24Z</time>
      </trkpt>
      <trkpt lat="43.57649" lon="2.31221">
        <ele>226.0471191</ele>
        <time>2015-09-13T07:31:30Z</time>
      </trkpt>
      <trkpt lat="43.57649" lon="2.31225">
        <ele>225.5665283</ele>
        <time>2015-09-13T07:31:35Z</time>
      </trkpt>
      <trkpt lat="43.57644" lon="2.3123">
        <ele>226.0471191</ele>
        <time>2015-09-13T07:31:41Z</time>
      </trkpt>
      <trkpt lat="43.57643" lon="2.31231">
        <ele>225.5665283</ele>
        <time>2015-09-13T07:31:45Z</time>
      </trkpt>
      <trkpt lat="43.57638" lon="2.31244">
        <ele>227.4891357</ele>
        <time>2015-09-13T07:31:51Z</time>
      </trkpt>
      <trkpt lat="43.57636" lon="2.31246">
        <ele>227.9697266</ele>
        <time>2015-09-13T07:31:52Z</time>
      </trkpt>
      <trkpt lat="43.57628" lon="2.31266">
        <ele>229.4117432</ele>
        <time>2015-09-13T07:31:58Z</time>
      </trkpt>
      <trkpt lat="43.57619" lon="2.31298">
        <ele>228.4504395</ele>
        <time>2015-09-13T07:32:05Z</time>
      </trkpt>
      <trkpt lat="43.57612" lon="2.31329">
        <ele>227.9697266</ele>
        <time>2015-09-13T07:32:11Z</time>
      </trkpt>
      <trkpt lat="43.57606" lon="2.31379">
        <ele>227.4891357</ele>
        <time>2015-09-13T07:32:19Z</time>
      </trkpt>
      <trkpt lat="43.57602" lon="2.31399">
        <ele>227.4891357</ele>
        <time>2015-09-13T07:32:22Z</time>
      </trkpt>
      <trkpt lat="43.57592" lon="2.31443">
        <ele>228.9311523</ele>
        <time>2015-09-13T07:32:30Z</time>
      </trkpt>
      <trkpt lat="43.57585" lon="2.31476">
        <ele>227.9697266</ele>
        <time>2015-09-13T07:32:37Z</time>
      </trkpt>
      <trkpt lat="43.57577" lon="2.315">
        <ele>229.892334</ele>
        <time>2015-09-13T07:32:43Z</time>
      </trkpt>
      <trkpt lat="43.57566" lon="2.31536">
        <ele>231.8149414</ele>
        <time>2015-09-13T07:32:52Z</time>
      </trkpt>
      <trkpt lat="43.57557" lon="2.31562">
        <ele>233.2570801</ele>
        <time>2015-09-13T07:32:59Z</time>
      </trkpt>
      <trkpt lat="43.57548" lon="2.31585">
        <ele>236.1409912</ele>
        <time>2015-09-13T07:33:05Z</time>
      </trkpt>
      <trkpt lat="43.57539" lon="2.31608">
        <ele>236.6217041</ele>
        <time>2015-09-13T07:33:11Z</time>
      </trkpt>
      <trkpt lat="43.57523" lon="2.3164">
        <ele>239.0249023</ele>
        <time>2015-09-13T07:33:20Z</time>
      </trkpt>
      <trkpt lat="43.57507" lon="2.31664">
        <ele>239.9862061</ele>
        <time>2015-09-13T07:33:28Z</time>
      </trkpt>
      <trkpt lat="43.57495" lon="2.31672">
        <ele>239.5054932</ele>
        <time>2015-09-13T07:33:34Z</time>
      </trkpt>
      <trkpt lat="43.57482" lon="2.31688">
        <ele>237.5828857</ele>
        <time>2015-09-13T07:33:39Z</time>
      </trkpt>
      <trkpt lat="43.57461" lon="2.31702">
        <ele>238.5443115</ele>
        <time>2015-09-13T07:33:44Z</time>
      </trkpt>
      <trkpt lat="43.57455" lon="2.31705">
        <ele>239.5054932</ele>
        <time>2015-09-13T07:33:45Z</time>
      </trkpt>
      <trkpt lat="43.57446" lon="2.31711">
        <ele>238.5443115</ele>
        <time>2015-09-13T07:33:48Z</time>
      </trkpt>
      <trkpt lat="43.5744" lon="2.31726">
        <ele>238.5443115</ele>
        <time>2015-09-13T07:33:53Z</time>
      </trkpt>
      <trkpt lat="43.57443" lon="2.31732">
        <ele>235.1796875</ele>
        <time>2015-09-13T07:33:55Z</time>
      </trkpt>
      <trkpt lat="43.57442" lon="2.31759">
        <ele>229.4117432</ele>
        <time>2015-09-13T07:34:01Z</time>
      </trkpt>
      <trkpt lat="43.57439" lon="2.31784">
        <ele>221.7211914</ele>
        <time>2015-09-13T07:34:08Z</time>
      </trkpt>
      <trkpt lat="43.57437" lon="2.31786">
        <ele>220.2791748</ele>
        <time>2015-09-13T07:34:12Z</time>
      </trkpt>
      <trkpt lat="43.57438" lon="2.31788">
        <ele>220.2791748</ele>
        <time>2015-09-13T07:34:14Z</time>
      </trkpt>
      <trkpt lat="43.57438" lon="2.31803">
        <ele>218.3565674</ele>
        <time>2015-09-13T07:34:18Z</time>
      </trkpt>
      <trkpt lat="43.5744" lon="2.31831">
        <ele>215.4726563</ele>
        <time>2015-09-13T07:34:23Z</time>
      </trkpt>
      <trkpt lat="43.57445" lon="2.31849">
        <ele>214.5112305</ele>
        <time>2015-09-13T07:34:26Z</time>
      </trkpt>
      <trkpt lat="43.57465" lon="2.31898">
        <ele>211.6274414</ele>
        <time>2015-09-13T07:34:33Z</time>
      </trkpt>
      <trkpt lat="43.57485" lon="2.31947">
        <ele>211.1467285</ele>
        <time>2015-09-13T07:34:39Z</time>
      </trkpt>
      <trkpt lat="43.57504" lon="2.32006">
        <ele>212.1080322</ele>
        <time>2015-09-13T07:34:46Z</time>
      </trkpt>
      <trkpt lat="43.57516" lon="2.32063">
        <ele>213.0693359</ele>
        <time>2015-09-13T07:34:54Z</time>
      </trkpt>
      <trkpt lat="43.57516" lon="2.3207">
        <ele>213.0693359</ele>
        <time>2015-09-13T07:34:55Z</time>
      </trkpt>
      <trkpt lat="43.57515" lon="2.32119">
        <ele>215.4726563</ele>
        <time>2015-09-13T07:35:02Z</time>
      </trkpt>
      <trkpt lat="43.57516" lon="2.32161">
        <ele>214.9919434</ele>
        <time>2015-09-13T07:35:08Z</time>
      </trkpt>
      <trkpt lat="43.57523" lon="2.3221">
        <ele>214.9919434</ele>
        <time>2015-09-13T07:35:15Z</time>
      </trkpt>
      <trkpt lat="43.57535" lon="2.32265">
        <ele>214.5112305</ele>
        <time>2015-09-13T07:35:23Z</time>
      </trkpt>
      <trkpt lat="43.57545" lon="2.32309">
        <ele>215.4726563</ele>
        <time>2015-09-13T07:35:30Z</time>
      </trkpt>
      <trkpt lat="43.57555" lon="2.32352">
        <ele>214.9919434</ele>
        <time>2015-09-13T07:35:37Z</time>
      </trkpt>
      <trkpt lat="43.57563" lon="2.32382">
        <ele>215.4726563</ele>
        <time>2015-09-13T07:35:42Z</time>
      </trkpt>
      <trkpt lat="43.57563" lon="2.32393">
        <ele>217.3953857</ele>
        <time>2015-09-13T07:35:44Z</time>
      </trkpt>
      <trkpt lat="43.5757" lon="2.32428">
        <ele>218.8372803</ele>
        <time>2015-09-13T07:35:50Z</time>
      </trkpt>
      <trkpt lat="43.57582" lon="2.32488">
        <ele>220.2791748</ele>
        <time>2015-09-13T07:35:59Z</time>
      </trkpt>
      <trkpt lat="43.57593" lon="2.32557">
        <ele>222.6824951</ele>
        <time>2015-09-13T07:36:09Z</time>
      </trkpt>
      <trkpt lat="43.57603" lon="2.32613">
        <ele>224.6052246</ele>
        <time>2015-09-13T07:36:18Z</time>
      </trkpt>
      <trkpt lat="43.57608" lon="2.32666">
        <ele>227.0085449</ele>
        <time>2015-09-13T07:36:27Z</time>
      </trkpt>
      <trkpt lat="43.57612" lon="2.32718">
        <ele>226.0471191</ele>
        <time>2015-09-13T07:36:35Z</time>
      </trkpt>
      <trkpt lat="43.57614" lon="2.3276">
        <ele>226.527832</ele>
        <time>2015-09-13T07:36:41Z</time>
      </trkpt>
      <trkpt lat="43.57619" lon="2.32812">
        <ele>224.6052246</ele>
        <time>2015-09-13T07:36:49Z</time>
      </trkpt>
      <trkpt lat="43.57623" lon="2.32875">
        <ele>223.163208</ele>
        <time>2015-09-13T07:36:59Z</time>
      </trkpt>
      <trkpt lat="43.57627" lon="2.32929">
        <ele>221.2406006</ele>
        <time>2015-09-13T07:37:06Z</time>
      </trkpt>
      <trkpt lat="43.57633" lon="2.32996">
        <ele>218.8372803</ele>
        <time>2015-09-13T07:37:14Z</time>
      </trkpt>
      <trkpt lat="43.57633" lon="2.33034">
        <ele>219.3179932</ele>
        <time>2015-09-13T07:37:19Z</time>
      </trkpt>
      <trkpt lat="43.57637" lon="2.33079">
        <ele>219.3179932</ele>
        <time>2015-09-13T07:37:25Z</time>
      </trkpt>
      <trkpt lat="43.57637" lon="2.3313">
        <ele>220.2791748</ele>
        <time>2015-09-13T07:37:32Z</time>
      </trkpt>
      <trkpt lat="43.57632" lon="2.33182">
        <ele>220.2791748</ele>
        <time>2015-09-13T07:37:39Z</time>
      </trkpt>
      <trkpt lat="43.57627" lon="2.33243">
        <ele>220.7598877</ele>
        <time>2015-09-13T07:37:47Z</time>
      </trkpt>
      <trkpt lat="43.57627" lon="2.33287">
        <ele>220.7598877</ele>
        <time>2015-09-13T07:37:53Z</time>
      </trkpt>
      <trkpt lat="43.57629" lon="2.33334">
        <ele>219.3179932</ele>
        <time>2015-09-13T07:38:00Z</time>
      </trkpt>
      <trkpt lat="43.57629" lon="2.3334">
        <ele>219.3179932</ele>
        <time>2015-09-13T07:38:01Z</time>
      </trkpt>
      <trkpt lat="43.57629" lon="2.33374">
        <ele>219.798584</ele>
        <time>2015-09-13T07:38:07Z</time>
      </trkpt>
      <trkpt lat="43.57627" lon="2.33404">
        <ele>223.6437988</ele>
        <time>2015-09-13T07:38:13Z</time>
      </trkpt>
      <trkpt lat="43.57626" lon="2.33439">
        <ele>227.4891357</ele>
        <time>2015-09-13T07:38:20Z</time>
      </trkpt>
      <trkpt lat="43.5762" lon="2.33472">
        <ele>227.4891357</ele>
        <time>2015-09-13T07:38:26Z</time>
      </trkpt>
      <trkpt lat="43.57618" lon="2.33498">
        <ele>226.0471191</ele>
        <time>2015-09-13T07:38:31Z</time>
      </trkpt>
      <trkpt lat="43.5762" lon="2.33535">
        <ele>223.163208</ele>
        <time>2015-09-13T07:38:38Z</time>
      </trkpt>
      <trkpt lat="43.57622" lon="2.33576">
        <ele>223.6437988</ele>
        <time>2015-09-13T07:38:45Z</time>
      </trkpt>
      <trkpt lat="43.57621" lon="2.33618">
        <ele>223.163208</ele>
        <time>2015-09-13T07:38:52Z</time>
      </trkpt>
      <trkpt lat="43.57619" lon="2.33666">
        <ele>224.1245117</ele>
        <time>2015-09-13T07:39:00Z</time>
      </trkpt>
      <trkpt lat="43.57616" lon="2.33715">
        <ele>226.0471191</ele>
        <time>2015-09-13T07:39:08Z</time>
      </trkpt>
      <trkpt lat="43.57616" lon="2.33721">
        <ele>226.527832</ele>
        <time>2015-09-13T07:39:09Z</time>
      </trkpt>
      <trkpt lat="43.57604" lon="2.33776">
        <ele>229.4117432</ele>
        <time>2015-09-13T07:39:19Z</time>
      </trkpt>
      <trkpt lat="43.57591" lon="2.33813">
        <ele>230.3730469</ele>
        <time>2015-09-13T07:39:26Z</time>
      </trkpt>
      <trkpt lat="43.57571" lon="2.33866">
        <ele>231.8149414</ele>
        <time>2015-09-13T07:39:35Z</time>
      </trkpt>
      <trkpt lat="43.5755" lon="2.33918">
        <ele>233.2570801</ele>
        <time>2015-09-13T07:39:44Z</time>
      </trkpt>
      <trkpt lat="43.57538" lon="2.33943">
        <ele>235.6602783</ele>
        <time>2015-09-13T07:39:49Z</time>
      </trkpt>
      <trkpt lat="43.57512" lon="2.33999">
        <ele>236.6217041</ele>
        <time>2015-09-13T07:40:00Z</time>
      </trkpt>
      <trkpt lat="43.57494" lon="2.3405">
        <ele>236.6217041</ele>
        <time>2015-09-13T07:40:10Z</time>
      </trkpt>
      <trkpt lat="43.57491" lon="2.34084">
        <ele>238.0635986</ele>
        <time>2015-09-13T07:40:17Z</time>
      </trkpt>
      <trkpt lat="43.57487" lon="2.3412">
        <ele>237.5828857</ele>
        <time>2015-09-13T07:40:24Z</time>
      </trkpt>
      <trkpt lat="43.57482" lon="2.34161">
        <ele>237.1022949</ele>
        <time>2015-09-13T07:40:32Z</time>
      </trkpt>
      <trkpt lat="43.57483" lon="2.34197">
        <ele>236.6217041</ele>
        <time>2015-09-13T07:40:39Z</time>
      </trkpt>
      <trkpt lat="43.57486" lon="2.3424">
        <ele>235.1796875</ele>
        <time>2015-09-13T07:40:47Z</time>
      </trkpt>
      <trkpt lat="43.57489" lon="2.34275">
        <ele>234.2183838</ele>
        <time>2015-09-13T07:40:54Z</time>
      </trkpt>
      <trkpt lat="43.57492" lon="2.3432">
        <ele>234.6990967</ele>
        <time>2015-09-13T07:41:02Z</time>
      </trkpt>
      <trkpt lat="43.57493" lon="2.34352">
        <ele>233.7376709</ele>
        <time>2015-09-13T07:41:08Z</time>
      </trkpt>
      <trkpt lat="43.57484" lon="2.34398">
        <ele>235.1796875</ele>
        <time>2015-09-13T07:41:16Z</time>
      </trkpt>
      <trkpt lat="43.57478" lon="2.34422">
        <ele>235.6602783</ele>
        <time>2015-09-13T07:41:20Z</time>
      </trkpt>
      <trkpt lat="43.57476" lon="2.34475">
        <ele>236.1409912</ele>
        <time>2015-09-13T07:41:28Z</time>
      </trkpt>
      <trkpt lat="43.5748" lon="2.34497">
        <ele>236.1409912</ele>
        <time>2015-09-13T07:41:32Z</time>
      </trkpt>
      <trkpt lat="43.5749" lon="2.34498">
        <ele>237.1022949</ele>
        <time>2015-09-13T07:41:35Z</time>
      </trkpt>
      <trkpt lat="43.57507" lon="2.34487">
        <ele>239.5054932</ele>
        <time>2015-09-13T07:41:40Z</time>
      </trkpt>
      <trkpt lat="43.57518" lon="2.34485">
        <ele>240.467041</ele>
        <time>2015-09-13T07:41:43Z</time>
      </trkpt>
      <trkpt lat="43.57541" lon="2.34488">
        <ele>242.8702393</ele>
        <time>2015-09-13T07:41:50Z</time>
      </trkpt>
      <trkpt lat="43.57558" lon="2.34489">
        <ele>245.7541504</ele>
        <time>2015-09-13T07:41:56Z</time>
      </trkpt>
      <trkpt lat="43.57567" lon="2.34488">
        <ele>248.6381836</ele>
        <time>2015-09-13T07:42:01Z</time>
      </trkpt>
      <trkpt lat="43.57581" lon="2.34482">
        <ele>250.560791</ele>
        <time>2015-09-13T07:42:07Z</time>
      </trkpt>
      <trkpt lat="43.57591" lon="2.34476">
        <ele>251.5220947</ele>
        <time>2015-09-13T07:42:13Z</time>
      </trkpt>
      <trkpt lat="43.57603" lon="2.3447">
        <ele>252.4833984</ele>
        <time>2015-09-13T07:42:19Z</time>
      </trkpt>
      <trkpt lat="43.57611" lon="2.34469">
        <ele>256.8093262</ele>
        <time>2015-09-13T07:42:25Z</time>
      </trkpt>
      <trkpt lat="43.57625" lon="2.34467">
        <ele>258.2513428</ele>
        <time>2015-09-13T07:42:32Z</time>
      </trkpt>
      <trkpt lat="43.57639" lon="2.34466">
        <ele>257.770752</ele>
        <time>2015-09-13T07:42:39Z</time>
      </trkpt>
      <trkpt lat="43.57656" lon="2.34469">
        <ele>258.2513428</ele>
        <time>2015-09-13T07:42:45Z</time>
      </trkpt>
      <trkpt lat="43.57671" lon="2.34472">
        <ele>257.2900391</ele>
        <time>2015-09-13T07:42:51Z</time>
      </trkpt>
      <trkpt lat="43.57692" lon="2.34476">
        <ele>255.3673096</ele>
        <time>2015-09-13T07:42:59Z</time>
      </trkpt>
      <trkpt lat="43.57708" lon="2.34476">
        <ele>253.925415</ele>
        <time>2015-09-13T07:43:05Z</time>
      </trkpt>
      <trkpt lat="43.57717" lon="2.34481">
        <ele>256.8093262</ele>
        <time>2015-09-13T07:43:10Z</time>
      </trkpt>
      <trkpt lat="43.57713" lon="2.34492">
        <ele>258.7319336</ele>
        <time>2015-09-13T07:43:15Z</time>
      </trkpt>
      <trkpt lat="43.57711" lon="2.34493">
        <ele>259.2126465</ele>
        <time>2015-09-13T07:43:16Z</time>
      </trkpt>
      <trkpt lat="43.57699" lon="2.34496">
        <ele>263.0578613</ele>
        <time>2015-09-13T07:43:21Z</time>
      </trkpt>
      <trkpt lat="43.57682" lon="2.34501">
        <ele>263.5385742</ele>
        <time>2015-09-13T07:43:28Z</time>
      </trkpt>
      <trkpt lat="43.57672" lon="2.34507">
        <ele>265.4613037</ele>
        <time>2015-09-13T07:43:33Z</time>
      </trkpt>
      <trkpt lat="43.57669" lon="2.3452">
        <ele>264.9805908</ele>
        <time>2015-09-13T07:43:40Z</time>
      </trkpt>
      <trkpt lat="43.57671" lon="2.34535">
        <ele>262.0965576</ele>
        <time>2015-09-13T07:43:48Z</time>
      </trkpt>
      <trkpt lat="43.57674" lon="2.34548">
        <ele>258.7319336</ele>
        <time>2015-09-13T07:43:55Z</time>
      </trkpt>
      <trkpt lat="43.57678" lon="2.34565">
        <ele>260.654541</ele>
        <time>2015-09-13T07:44:04Z</time>
      </trkpt>
      <trkpt lat="43.5768" lon="2.34583">
        <ele>261.6159668</ele>
        <time>2015-09-13T07:44:13Z</time>
      </trkpt>
      <trkpt lat="43.57682" lon="2.34598">
        <ele>263.0578613</ele>
        <time>2015-09-13T07:44:20Z</time>
      </trkpt>
      <trkpt lat="43.57683" lon="2.34611">
        <ele>264.0192871</ele>
        <time>2015-09-13T07:44:26Z</time>
      </trkpt>
      <trkpt lat="43.57686" lon="2.34627">
        <ele>267.3839111</ele>
        <time>2015-09-13T07:44:34Z</time>
      </trkpt>
      <trkpt lat="43.5769" lon="2.34641">
        <ele>266.4224854</ele>
        <time>2015-09-13T07:44:42Z</time>
      </trkpt>
      <trkpt lat="43.57693" lon="2.34656">
        <ele>266.9031982</ele>
        <time>2015-09-13T07:44:50Z</time>
      </trkpt>
      <trkpt lat="43.57695" lon="2.34674">
        <ele>269.3065186</ele>
        <time>2015-09-13T07:44:59Z</time>
      </trkpt>
      <trkpt lat="43.57698" lon="2.34695">
        <ele>272.1904297</ele>
        <time>2015-09-13T07:45:09Z</time>
      </trkpt>
      <trkpt lat="43.57699" lon="2.34712">
        <ele>276.0356445</ele>
        <time>2015-09-13T07:45:17Z</time>
      </trkpt>
      <trkpt lat="43.57702" lon="2.34724">
        <ele>276.5163574</ele>
        <time>2015-09-13T07:45:23Z</time>
      </trkpt>
      <trkpt lat="43.57706" lon="2.34742">
        <ele>277.4776611</ele>
        <time>2015-09-13T07:45:32Z</time>
      </trkpt>
      <trkpt lat="43.57708" lon="2.34759">
        <ele>278.9196777</ele>
        <time>2015-09-13T07:45:40Z</time>
      </trkpt>
      <trkpt lat="43.57711" lon="2.34773">
        <ele>280.8424072</ele>
        <time>2015-09-13T07:45:48Z</time>
      </trkpt>
      <trkpt lat="43.57718" lon="2.34787">
        <ele>283.2456055</ele>
        <time>2015-09-13T07:45:56Z</time>
      </trkpt>
      <trkpt lat="43.57726" lon="2.34803">
        <ele>286.1295166</ele>
        <time>2015-09-13T07:46:06Z</time>
      </trkpt>
      <trkpt lat="43.57733" lon="2.34818">
        <ele>288.0522461</ele>
        <time>2015-09-13T07:46:15Z</time>
      </trkpt>
      <trkpt lat="43.57738" lon="2.34828">
        <ele>289.4941406</ele>
        <time>2015-09-13T07:46:23Z</time>
      </trkpt>
      <trkpt lat="43.57743" lon="2.34834">
        <ele>290.9361572</ele>
        <time>2015-09-13T07:46:28Z</time>
      </trkpt>
      <trkpt lat="43.57751" lon="2.34844">
        <ele>290.9361572</ele>
        <time>2015-09-13T07:46:36Z</time>
      </trkpt>
      <trkpt lat="43.57756" lon="2.34858">
        <ele>294.3007813</ele>
        <time>2015-09-13T07:46:44Z</time>
      </trkpt>
      <trkpt lat="43.57763" lon="2.34869">
        <ele>295.7426758</ele>
        <time>2015-09-13T07:46:52Z</time>
      </trkpt>
      <trkpt lat="43.57768" lon="2.34884">
        <ele>298.626709</ele>
        <time>2015-09-13T07:47:01Z</time>
      </trkpt>
      <trkpt lat="43.57771" lon="2.34892">
        <ele>299.5880127</ele>
        <time>2015-09-13T07:47:06Z</time>
      </trkpt>
      <trkpt lat="43.57774" lon="2.34902">
        <ele>301.991333</ele>
        <time>2015-09-13T07:47:13Z</time>
      </trkpt>
      <trkpt lat="43.57779" lon="2.34916">
        <ele>304.8752441</ele>
        <time>2015-09-13T07:47:21Z</time>
      </trkpt>
      <trkpt lat="43.57786" lon="2.34929">
        <ele>306.7978516</ele>
        <time>2015-09-13T07:47:29Z</time>
      </trkpt>
      <trkpt lat="43.57792" lon="2.3494">
        <ele>308.2398682</ele>
        <time>2015-09-13T07:47:36Z</time>
      </trkpt>
      <trkpt lat="43.57801" lon="2.34954">
        <ele>306.7978516</ele>
        <time>2015-09-13T07:47:45Z</time>
      </trkpt>
      <trkpt lat="43.57813" lon="2.34971">
        <ele>305.355957</ele>
        <time>2015-09-13T07:47:54Z</time>
      </trkpt>
      <trkpt lat="43.57821" lon="2.34987">
        <ele>307.2785645</ele>
        <time>2015-09-13T07:48:01Z</time>
      </trkpt>
      <trkpt lat="43.57831" lon="2.35003">
        <ele>307.7592773</ele>
        <time>2015-09-13T07:48:09Z</time>
      </trkpt>
      <trkpt lat="43.57839" lon="2.35021">
        <ele>309.6818848</ele>
        <time>2015-09-13T07:48:17Z</time>
      </trkpt>
      <trkpt lat="43.57841" lon="2.35028">
        <ele>312.0852051</ele>
        <time>2015-09-13T07:48:21Z</time>
      </trkpt>
      <trkpt lat="43.57843" lon="2.35041">
        <ele>317.8530273</ele>
        <time>2015-09-13T07:48:27Z</time>
      </trkpt>
      <trkpt lat="43.57846" lon="2.35052">
        <ele>327.4661865</ele>
        <time>2015-09-13T07:48:33Z</time>
      </trkpt>
      <trkpt lat="43.57846" lon="2.35054">
        <ele>326.9855957</ele>
        <time>2015-09-13T07:48:35Z</time>
      </trkpt>
      <trkpt lat="43.5785" lon="2.35061">
        <ele>326.9855957</ele>
        <time>2015-09-13T07:48:41Z</time>
      </trkpt>
      <trkpt lat="43.57857" lon="2.35062">
        <ele>315.9304199</ele>
        <time>2015-09-13T07:49:09Z</time>
      </trkpt>
      <trkpt lat="43.57858" lon="2.35063">
        <ele>315.9304199</ele>
        <time>2015-09-13T07:49:10Z</time>
      </trkpt>
      <trkpt lat="43.57861" lon="2.35063">
        <ele>318.8143311</ele>
        <time>2015-09-13T07:49:12Z</time>
      </trkpt>
      <trkpt lat="43.5787" lon="2.35065">
        <ele>318.8143311</ele>
        <time>2015-09-13T07:49:18Z</time>
      </trkpt>
      <trkpt lat="43.57867" lon="2.35064">
        <ele>324.1015625</ele>
        <time>2015-09-13T07:49:39Z</time>
      </trkpt>
      <trkpt lat="43.57871" lon="2.35064">
        <ele>318.8143311</ele>
        <time>2015-09-13T07:50:12Z</time>
      </trkpt>
      <trkpt lat="43.57882" lon="2.35067">
        <ele>297.1846924</ele>
        <time>2015-09-13T07:50:27Z</time>
      </trkpt>
      <trkpt lat="43.57882" lon="2.35066">
        <ele>290.4555664</ele>
        <time>2015-09-13T07:50:33Z</time>
      </trkpt>
      <trkpt lat="43.57881" lon="2.35062">
        <ele>290.4555664</ele>
        <time>2015-09-13T07:50:38Z</time>
      </trkpt>
      <trkpt lat="43.5787" lon="2.35069">
        <ele>314.4884033</ele>
        <time>2015-09-13T07:51:18Z</time>
      </trkpt>
      <trkpt lat="43.57887" lon="2.35075">
        <ele>316.4110107</ele>
        <time>2015-09-13T07:51:27Z</time>
      </trkpt>
      <trkpt lat="43.57904" lon="2.35077">
        <ele>318.8143311</ele>
        <time>2015-09-13T07:51:35Z</time>
      </trkpt>
      <trkpt lat="43.57919" lon="2.35077">
        <ele>319.2950439</ele>
        <time>2015-09-13T07:51:41Z</time>
      </trkpt>
      <trkpt lat="43.5793" lon="2.3508">
        <ele>321.2177734</ele>
        <time>2015-09-13T07:51:47Z</time>
      </trkpt>
      <trkpt lat="43.57945" lon="2.3508">
        <ele>319.2950439</ele>
        <time>2015-09-13T07:51:53Z</time>
      </trkpt>
      <trkpt lat="43.57959" lon="2.35077">
        <ele>317.8530273</ele>
        <time>2015-09-13T07:51:58Z</time>
      </trkpt>
      <trkpt lat="43.57976" lon="2.35073">
        <ele>314.0078125</ele>
        <time>2015-09-13T07:52:04Z</time>
      </trkpt>
      <trkpt lat="43.57984" lon="2.35068">
        <ele>314.9691162</ele>
        <time>2015-09-13T07:52:09Z</time>
      </trkpt>
      <trkpt lat="43.57994" lon="2.35064">
        <ele>316.8917236</ele>
        <time>2015-09-13T07:52:15Z</time>
      </trkpt>
      <trkpt lat="43.58008" lon="2.35059">
        <ele>319.7756348</ele>
        <time>2015-09-13T07:52:23Z</time>
      </trkpt>
      <trkpt lat="43.58008" lon="2.35059">
        <ele>321.2177734</ele>
        <time>2015-09-13T07:52:30Z</time>
      </trkpt>
      <trkpt lat="43.5801" lon="2.35058">
        <ele>324.5822754</ele>
        <time>2015-09-13T07:53:13Z</time>
      </trkpt>
      <trkpt lat="43.58028" lon="2.35051">
        <ele>326.5048828</ele>
        <time>2015-09-13T07:53:22Z</time>
      </trkpt>
      <trkpt lat="43.58048" lon="2.35042">
        <ele>326.0241699</ele>
        <time>2015-09-13T07:53:30Z</time>
      </trkpt>
      <trkpt lat="43.58071" lon="2.35032">
        <ele>324.1015625</ele>
        <time>2015-09-13T07:53:38Z</time>
      </trkpt>
      <trkpt lat="43.58093" lon="2.35024">
        <ele>322.659668</ele>
        <time>2015-09-13T07:53:45Z</time>
      </trkpt>
      <trkpt lat="43.58111" lon="2.35015">
        <ele>324.5822754</ele>
        <time>2015-09-13T07:53:53Z</time>
      </trkpt>
      <trkpt lat="43.58124" lon="2.35012">
        <ele>323.6209717</ele>
        <time>2015-09-13T07:53:58Z</time>
      </trkpt>
      <trkpt lat="43.58139" lon="2.35004">
        <ele>321.2177734</ele>
        <time>2015-09-13T07:54:03Z</time>
      </trkpt>
      <trkpt lat="43.58162" lon="2.34997">
        <ele>318.3336182</ele>
        <time>2015-09-13T07:54:09Z</time>
      </trkpt>
      <trkpt lat="43.58177" lon="2.35004">
        <ele>315.9304199</ele>
        <time>2015-09-13T07:54:13Z</time>
      </trkpt>
      <trkpt lat="43.58189" lon="2.35012">
        <ele>314.4884033</ele>
        <time>2015-09-13T07:54:17Z</time>
      </trkpt>
      <trkpt lat="43.58204" lon="2.35003">
        <ele>313.0465088</ele>
        <time>2015-09-13T07:54:22Z</time>
      </trkpt>
      <trkpt lat="43.58219" lon="2.34979">
        <ele>313.0465088</ele>
        <time>2015-09-13T07:54:28Z</time>
      </trkpt>
      <trkpt lat="43.58233" lon="2.34955">
        <ele>314.4884033</ele>
        <time>2015-09-13T07:54:33Z</time>
      </trkpt>
      <trkpt lat="43.5824" lon="2.34947">
        <ele>314.9691162</ele>
        <time>2015-09-13T07:54:35Z</time>
      </trkpt>
      <trkpt lat="43.58249" lon="2.34936">
        <ele>315.4498291</ele>
        <time>2015-09-13T07:54:38Z</time>
      </trkpt>
      <trkpt lat="43.58258" lon="2.34913">
        <ele>315.9304199</ele>
        <time>2015-09-13T07:54:43Z</time>
      </trkpt>
      <trkpt lat="43.5827" lon="2.34889">
        <ele>317.8530273</ele>
        <time>2015-09-13T07:54:49Z</time>
      </trkpt>
      <trkpt lat="43.58283" lon="2.34863">
        <ele>317.3724365</ele>
        <time>2015-09-13T07:54:56Z</time>
      </trkpt>
      <trkpt lat="43.58297" lon="2.34841">
        <ele>317.8530273</ele>
        <time>2015-09-13T07:55:02Z</time>
      </trkpt>
      <trkpt lat="43.58307" lon="2.34829">
        <ele>319.7756348</ele>
        <time>2015-09-13T07:55:07Z</time>
      </trkpt>
      <trkpt lat="43.58321" lon="2.34811">
        <ele>320.7370605</ele>
        <time>2015-09-13T07:55:13Z</time>
      </trkpt>
      <trkpt lat="43.58342" lon="2.34786">
        <ele>319.7756348</ele>
        <time>2015-09-13T07:55:20Z</time>
      </trkpt>
      <trkpt lat="43.58363" lon="2.34756">
        <ele>318.8143311</ele>
        <time>2015-09-13T07:55:28Z</time>
      </trkpt>
      <trkpt lat="43.58381" lon="2.3473">
        <ele>314.4884033</ele>
        <time>2015-09-13T07:55:35Z</time>
      </trkpt>
      <trkpt lat="43.58398" lon="2.34703">
        <ele>310.1624756</ele>
        <time>2015-09-13T07:55:42Z</time>
      </trkpt>
      <trkpt lat="43.58415" lon="2.34678">
        <ele>307.2785645</ele>
        <time>2015-09-13T07:55:49Z</time>
      </trkpt>
      <trkpt lat="43.58429" lon="2.34661">
        <ele>307.7592773</ele>
        <time>2015-09-13T07:55:54Z</time>
      </trkpt>
      <trkpt lat="43.58441" lon="2.34644">
        <ele>311.6044922</ele>
        <time>2015-09-13T07:55:59Z</time>
      </trkpt>
      <trkpt lat="43.58451" lon="2.34624">
        <ele>315.4498291</ele>
        <time>2015-09-13T07:56:05Z</time>
      </trkpt>
      <trkpt lat="43.58458" lon="2.34604">
        <ele>321.6983643</ele>
        <time>2015-09-13T07:56:10Z</time>
      </trkpt>
      <trkpt lat="43.58464" lon="2.34583">
        <ele>326.9855957</ele>
        <time>2015-09-13T07:56:16Z</time>
      </trkpt>
      <trkpt lat="43.58469" lon="2.34559">
        <ele>326.0241699</ele>
        <time>2015-09-13T07:56:23Z</time>
      </trkpt>
      <trkpt lat="43.58476" lon="2.34542">
        <ele>327.4661865</ele>
        <time>2015-09-13T07:56:29Z</time>
      </trkpt>
      <trkpt lat="43.58485" lon="2.34526">
        <ele>334.1954346</ele>
        <time>2015-09-13T07:56:35Z</time>
      </trkpt>
      <trkpt lat="43.58493" lon="2.34511">
        <ele>334.6761475</ele>
        <time>2015-09-13T07:56:40Z</time>
      </trkpt>
      <trkpt lat="43.58505" lon="2.34492">
        <ele>331.3115234</ele>
        <time>2015-09-13T07:56:48Z</time>
      </trkpt>
      <trkpt lat="43.58513" lon="2.34484">
        <ele>333.2341309</ele>
        <time>2015-09-13T07:56:54Z</time>
      </trkpt>
      <trkpt lat="43.58523" lon="2.3448">
        <ele>335.6373291</ele>
        <time>2015-09-13T07:57:00Z</time>
      </trkpt>
      <trkpt lat="43.58535" lon="2.34475">
        <ele>338.5214844</ele>
        <time>2015-09-13T07:57:07Z</time>
      </trkpt>
      <trkpt lat="43.58537" lon="2.34474">
        <ele>339.482666</ele>
        <time>2015-09-13T07:57:08Z</time>
      </trkpt>
      <trkpt lat="43.58548" lon="2.34468">
        <ele>339.0020752</ele>
        <time>2015-09-13T07:57:15Z</time>
      </trkpt>
      <trkpt lat="43.5856" lon="2.34461">
        <ele>335.6373291</ele>
        <time>2015-09-13T07:57:21Z</time>
      </trkpt>
      <trkpt lat="43.58573" lon="2.34456">
        <ele>335.1567383</ele>
        <time>2015-09-13T07:57:27Z</time>
      </trkpt>
      <trkpt lat="43.58588" lon="2.34455">
        <ele>335.1567383</ele>
        <time>2015-09-13T07:57:33Z</time>
      </trkpt>
      <trkpt lat="43.58611" lon="2.34451">
        <ele>339.0020752</ele>
        <time>2015-09-13T07:57:41Z</time>
      </trkpt>
      <trkpt lat="43.58627" lon="2.34447">
        <ele>340.9246826</ele>
        <time>2015-09-13T07:57:49Z</time>
      </trkpt>
      <trkpt lat="43.58639" lon="2.34443">
        <ele>342.3666992</ele>
        <time>2015-09-13T07:57:55Z</time>
      </trkpt>
      <trkpt lat="43.58655" lon="2.34441">
        <ele>342.84729</ele>
        <time>2015-09-13T07:58:02Z</time>
      </trkpt>
      <trkpt lat="43.58668" lon="2.34441">
        <ele>342.3666992</ele>
        <time>2015-09-13T07:58:09Z</time>
      </trkpt>
      <trkpt lat="43.5867" lon="2.34442">
        <ele>342.3666992</ele>
        <time>2015-09-13T07:58:10Z</time>
      </trkpt>
      <trkpt lat="43.5868" lon="2.34442">
        <ele>339.9633789</ele>
        <time>2015-09-13T07:58:16Z</time>
      </trkpt>
      <trkpt lat="43.58681" lon="2.34444">
        <ele>340.4440918</ele>
        <time>2015-09-13T07:58:18Z</time>
      </trkpt>
      <trkpt lat="43.58685" lon="2.34452">
        <ele>341.4052734</ele>
        <time>2015-09-13T07:58:23Z</time>
      </trkpt>
      <trkpt lat="43.58693" lon="2.34463">
        <ele>343.8085938</ele>
        <time>2015-09-13T07:58:28Z</time>
      </trkpt>
      <trkpt lat="43.58696" lon="2.34464">
        <ele>346.692627</ele>
        <time>2015-09-13T07:58:31Z</time>
      </trkpt>
      <trkpt lat="43.58705" lon="2.34455">
        <ele>347.6539307</ele>
        <time>2015-09-13T07:58:37Z</time>
      </trkpt>
      <trkpt lat="43.58713" lon="2.34452">
        <ele>349.5765381</ele>
        <time>2015-09-13T07:58:44Z</time>
      </trkpt>
      <trkpt lat="43.58717" lon="2.34452">
        <ele>348.6152344</ele>
        <time>2015-09-13T07:58:46Z</time>
      </trkpt>
      <trkpt lat="43.58731" lon="2.34449">
        <ele>351.9798584</ele>
        <time>2015-09-13T07:58:52Z</time>
      </trkpt>
      <trkpt lat="43.58733" lon="2.34449">
        <ele>352.4605713</ele>
        <time>2015-09-13T07:58:53Z</time>
      </trkpt>
      <trkpt lat="43.58741" lon="2.34446">
        <ele>351.9798584</ele>
        <time>2015-09-13T07:58:56Z</time>
      </trkpt>
      <trkpt lat="43.58754" lon="2.34436">
        <ele>349.0958252</ele>
        <time>2015-09-13T07:59:03Z</time>
      </trkpt>
      <trkpt lat="43.58757" lon="2.34431">
        <ele>350.057251</ele>
        <time>2015-09-13T07:59:05Z</time>
      </trkpt>
      <trkpt lat="43.58762" lon="2.34426">
        <ele>352.4605713</ele>
        <time>2015-09-13T07:59:08Z</time>
      </trkpt>
      <trkpt lat="43.58778" lon="2.34422">
        <ele>351.4991455</ele>
        <time>2015-09-13T07:59:14Z</time>
      </trkpt>
      <trkpt lat="43.58781" lon="2.34419">
        <ele>351.0184326</ele>
        <time>2015-09-13T07:59:17Z</time>
      </trkpt>
      <trkpt lat="43.58792" lon="2.34416">
        <ele>352.4605713</ele>
        <time>2015-09-13T07:59:22Z</time>
      </trkpt>
      <trkpt lat="43.58803" lon="2.34418">
        <ele>355.3444824</ele>
        <time>2015-09-13T07:59:27Z</time>
      </trkpt>
      <trkpt lat="43.58809" lon="2.34423">
        <ele>356.786377</ele>
        <time>2015-09-13T07:59:31Z</time>
      </trkpt>
      <trkpt lat="43.58818" lon="2.3443">
        <ele>364.4769287</ele>
        <time>2015-09-13T07:59:37Z</time>
      </trkpt>
      <trkpt lat="43.58822" lon="2.34434">
        <ele>368.3222656</ele>
        <time>2015-09-13T07:59:41Z</time>
      </trkpt>
      <trkpt lat="43.58823" lon="2.34436">
        <ele>371.2062988</ele>
        <time>2015-09-13T07:59:43Z</time>
      </trkpt>
      <trkpt lat="43.58834" lon="2.34444">
        <ele>369.2836914</ele>
        <time>2015-09-13T07:59:49Z</time>
      </trkpt>
      <trkpt lat="43.58837" lon="2.34446">
        <ele>369.2836914</ele>
        <time>2015-09-13T07:59:52Z</time>
      </trkpt>
      <trkpt lat="43.58841" lon="2.34444">
        <ele>367.8415527</ele>
        <time>2015-09-13T07:59:56Z</time>
      </trkpt>
      <trkpt lat="43.58837" lon="2.34437">
        <ele>367.3609619</ele>
        <time>2015-09-13T08:00:01Z</time>
      </trkpt>
      <trkpt lat="43.58847" lon="2.34428">
        <ele>364.9576416</ele>
        <time>2015-09-13T08:00:07Z</time>
      </trkpt>
      <trkpt lat="43.5885" lon="2.34424">
        <ele>363.5157471</ele>
        <time>2015-09-13T08:00:09Z</time>
      </trkpt>
      <trkpt lat="43.5887" lon="2.34412">
        <ele>362.5543213</ele>
        <time>2015-09-13T08:00:17Z</time>
      </trkpt>
      <trkpt lat="43.58881" lon="2.34402">
        <ele>363.9963379</ele>
        <time>2015-09-13T08:00:22Z</time>
      </trkpt>
      <trkpt lat="43.58893" lon="2.34394">
        <ele>365.4383545</ele>
        <time>2015-09-13T08:00:28Z</time>
      </trkpt>
      <trkpt lat="43.589" lon="2.34388">
        <ele>362.5543213</ele>
        <time>2015-09-13T08:00:31Z</time>
      </trkpt>
      <trkpt lat="43.58924" lon="2.34375">
        <ele>357.7478027</ele>
        <time>2015-09-13T08:00:39Z</time>
      </trkpt>
      <trkpt lat="43.5894" lon="2.34359">
        <ele>356.786377</ele>
        <time>2015-09-13T08:00:45Z</time>
      </trkpt>
      <trkpt lat="43.5896" lon="2.34342">
        <ele>357.7478027</ele>
        <time>2015-09-13T08:00:51Z</time>
      </trkpt>
      <trkpt lat="43.58971" lon="2.34324">
        <ele>360.151123</ele>
        <time>2015-09-13T08:00:57Z</time>
      </trkpt>
      <trkpt lat="43.58981" lon="2.34307">
        <ele>363.0350342</ele>
        <time>2015-09-13T08:01:03Z</time>
      </trkpt>
      <trkpt lat="43.58993" lon="2.34295">
        <ele>367.3609619</ele>
        <time>2015-09-13T08:01:09Z</time>
      </trkpt>
      <trkpt lat="43.58999" lon="2.34282">
        <ele>367.8415527</ele>
        <time>2015-09-13T08:01:15Z</time>
      </trkpt>
      <trkpt lat="43.5901" lon="2.34257">
        <ele>365.4383545</ele>
        <time>2015-09-13T08:01:21Z</time>
      </trkpt>
      <trkpt lat="43.5902" lon="2.34245">
        <ele>363.5157471</ele>
        <time>2015-09-13T08:01:25Z</time>
      </trkpt>
      <trkpt lat="43.59027" lon="2.34241">
        <ele>364.4769287</ele>
        <time>2015-09-13T08:01:30Z</time>
      </trkpt>
      <trkpt lat="43.59036" lon="2.34238">
        <ele>367.8415527</ele>
        <time>2015-09-13T08:01:44Z</time>
      </trkpt>
      <trkpt lat="43.59043" lon="2.34226">
        <ele>364.9576416</ele>
        <time>2015-09-13T08:01:48Z</time>
      </trkpt>
      <trkpt lat="43.5904" lon="2.34224">
        <ele>362.5543213</ele>
        <time>2015-09-13T08:01:56Z</time>
      </trkpt>
      <trkpt lat="43.59038" lon="2.34227">
        <ele>363.5157471</ele>
        <time>2015-09-13T08:02:02Z</time>
      </trkpt>
      <trkpt lat="43.59036" lon="2.34229">
        <ele>363.5157471</ele>
        <time>2015-09-13T08:02:07Z</time>
      </trkpt>
      <trkpt lat="43.59036" lon="2.34231">
        <ele>364.4769287</ele>
        <time>2015-09-13T08:02:11Z</time>
      </trkpt>
      <trkpt lat="43.59032" lon="2.34235">
        <ele>363.0350342</ele>
        <time>2015-09-13T08:02:14Z</time>
      </trkpt>
      <trkpt lat="43.59028" lon="2.34235">
        <ele>362.5543213</ele>
        <time>2015-09-13T08:02:19Z</time>
      </trkpt>
      <trkpt lat="43.59028" lon="2.34232">
        <ele>366.3995361</ele>
        <time>2015-09-13T08:02:23Z</time>
      </trkpt>
      <trkpt lat="43.59023" lon="2.34222">
        <ele>366.880249</ele>
        <time>2015-09-13T08:02:29Z</time>
      </trkpt>
      <trkpt lat="43.59018" lon="2.34209">
        <ele>365.4383545</ele>
        <time>2015-09-13T08:02:34Z</time>
      </trkpt>
      <trkpt lat="43.59015" lon="2.34205">
        <ele>364.4769287</ele>
        <time>2015-09-13T08:02:35Z</time>
      </trkpt>
      <trkpt lat="43.59002" lon="2.34183">
        <ele>360.6317139</ele>
        <time>2015-09-13T08:02:40Z</time>
      </trkpt>
      <trkpt lat="43.58995" lon="2.34165">
        <ele>361.5931396</ele>
        <time>2015-09-13T08:02:43Z</time>
      </trkpt>
      <trkpt lat="43.58992" lon="2.3415">
        <ele>362.0737305</ele>
        <time>2015-09-13T08:02:46Z</time>
      </trkpt>
      <trkpt lat="43.58976" lon="2.34125">
        <ele>357.2670898</ele>
        <time>2015-09-13T08:02:51Z</time>
      </trkpt>
      <trkpt lat="43.58968" lon="2.3411">
        <ele>353.9025879</ele>
        <time>2015-09-13T08:02:54Z</time>
      </trkpt>
      <trkpt lat="43.58949" lon="2.34076">
        <ele>346.2120361</ele>
        <time>2015-09-13T08:03:01Z</time>
      </trkpt>
      <trkpt lat="43.58944" lon="2.34067">
        <ele>347.1732178</ele>
        <time>2015-09-13T08:03:03Z</time>
      </trkpt>
      <trkpt lat="43.58939" lon="2.34058">
        <ele>344.2894287</ele>
        <time>2015-09-13T08:03:05Z</time>
      </trkpt>
      <trkpt lat="43.58933" lon="2.34022">
        <ele>339.0020752</ele>
        <time>2015-09-13T08:03:10Z</time>
      </trkpt>
      <trkpt lat="43.5893" lon="2.33997">
        <ele>336.1181641</ele>
        <time>2015-09-13T08:03:13Z</time>
      </trkpt>
      <trkpt lat="43.58926" lon="2.33965">
        <ele>334.1954346</ele>
        <time>2015-09-13T08:03:17Z</time>
      </trkpt>
      <trkpt lat="43.58922" lon="2.33948">
        <ele>334.1954346</ele>
        <time>2015-09-13T08:03:19Z</time>
      </trkpt>
      <trkpt lat="43.58922" lon="2.3392">
        <ele>334.1954346</ele>
        <time>2015-09-13T08:03:23Z</time>
      </trkpt>
      <trkpt lat="43.58923" lon="2.33904">
        <ele>335.1567383</ele>
        <time>2015-09-13T08:03:26Z</time>
      </trkpt>
      <trkpt lat="43.58925" lon="2.33893">
        <ele>332.2728271</ele>
        <time>2015-09-13T08:03:28Z</time>
      </trkpt>
      <trkpt lat="43.58932" lon="2.33859">
        <ele>328.9083252</ele>
        <time>2015-09-13T08:03:33Z</time>
      </trkpt>
      <trkpt lat="43.58932" lon="2.33846">
        <ele>330.3502197</ele>
        <time>2015-09-13T08:03:35Z</time>
      </trkpt>
      <trkpt lat="43.58934" lon="2.33827">
        <ele>325.0629883</ele>
        <time>2015-09-13T08:03:38Z</time>
      </trkpt>
      <trkpt lat="43.58932" lon="2.33803">
        <ele>324.1015625</ele>
        <time>2015-09-13T08:03:42Z</time>
      </trkpt>
      <trkpt lat="43.58935" lon="2.33788">
        <ele>323.6209717</ele>
        <time>2015-09-13T08:03:44Z</time>
      </trkpt>
      <trkpt lat="43.58935" lon="2.33772">
        <ele>324.5822754</ele>
        <time>2015-09-13T08:03:47Z</time>
      </trkpt>
      <trkpt lat="43.58931" lon="2.33743">
        <ele>326.5048828</ele>
        <time>2015-09-13T08:03:52Z</time>
      </trkpt>
      <trkpt lat="43.58931" lon="2.33722">
        <ele>331.3115234</ele>
        <time>2015-09-13T08:03:58Z</time>
      </trkpt>
      <trkpt lat="43.5893" lon="2.33719">
        <ele>332.75354</ele>
        <time>2015-09-13T08:03:59Z</time>
      </trkpt>
      <trkpt lat="43.58925" lon="2.33693">
        <ele>335.1567383</ele>
        <time>2015-09-13T08:04:07Z</time>
      </trkpt>
      <trkpt lat="43.58926" lon="2.33685">
        <ele>334.6761475</ele>
        <time>2015-09-13T08:04:11Z</time>
      </trkpt>
      <trkpt lat="43.58924" lon="2.3368">
        <ele>338.5214844</ele>
        <time>2015-09-13T08:04:22Z</time>
      </trkpt>
      <trkpt lat="43.5892" lon="2.33678">
        <ele>342.84729</ele>
        <time>2015-09-13T08:04:29Z</time>
      </trkpt>
      <trkpt lat="43.58917" lon="2.33677">
        <ele>341.4052734</ele>
        <time>2015-09-13T08:04:36Z</time>
      </trkpt>
      <trkpt lat="43.5891" lon="2.33676">
        <ele>339.9633789</ele>
        <time>2015-09-13T08:04:45Z</time>
      </trkpt>
      <trkpt lat="43.58912" lon="2.33676">
        <ele>340.4440918</ele>
        <time>2015-09-13T08:04:50Z</time>
      </trkpt>
      <trkpt lat="43.58916" lon="2.33677">
        <ele>339.0020752</ele>
        <time>2015-09-13T08:04:55Z</time>
      </trkpt>
      <trkpt lat="43.58915" lon="2.33677">
        <ele>338.0407715</ele>
        <time>2015-09-13T08:05:03Z</time>
      </trkpt>
      <trkpt lat="43.59094" lon="2.33891">
        <ele>350.057251</ele>
        <time>2015-09-13T08:08:36Z</time>
      </trkpt>
      <trkpt lat="43.59111" lon="2.33905">
        <ele>351.4991455</ele>
        <time>2015-09-13T08:08:43Z</time>
      </trkpt>
      <trkpt lat="43.59118" lon="2.3392">
        <ele>352.9411621</ele>
        <time>2015-09-13T08:08:50Z</time>
      </trkpt>
      <trkpt lat="43.59127" lon="2.3394">
        <ele>352.4605713</ele>
        <time>2015-09-13T08:08:57Z</time>
      </trkpt>
      <trkpt lat="43.59135" lon="2.33955">
        <ele>348.6152344</ele>
        <time>2015-09-13T08:09:02Z</time>
      </trkpt>
      <trkpt lat="43.59141" lon="2.33966">
        <ele>344.7700195</ele>
        <time>2015-09-13T08:09:08Z</time>
      </trkpt>
      <trkpt lat="43.59145" lon="2.33982">
        <ele>349.5765381</ele>
        <time>2015-09-13T08:09:13Z</time>
      </trkpt>
      <trkpt lat="43.59141" lon="2.34012">
        <ele>355.3444824</ele>
        <time>2015-09-13T08:09:19Z</time>
      </trkpt>
      <trkpt lat="43.5914" lon="2.34039">
        <ele>359.6704102</ele>
        <time>2015-09-13T08:09:24Z</time>
      </trkpt>
      <trkpt lat="43.59139" lon="2.34068">
        <ele>365.9189453</ele>
        <time>2015-09-13T08:09:30Z</time>
      </trkpt>
      <trkpt lat="43.59143" lon="2.34094">
        <ele>368.8029785</ele>
        <time>2015-09-13T08:09:35Z</time>
      </trkpt>
      <trkpt lat="43.59145" lon="2.34122">
        <ele>363.0350342</ele>
        <time>2015-09-13T08:09:40Z</time>
      </trkpt>
      <trkpt lat="43.59142" lon="2.34154">
        <ele>360.6317139</ele>
        <time>2015-09-13T08:09:46Z</time>
      </trkpt>
      <trkpt lat="43.59136" lon="2.34166">
        <ele>362.0737305</ele>
        <time>2015-09-13T08:09:48Z</time>
      </trkpt>
      <trkpt lat="43.59131" lon="2.34198">
        <ele>360.6317139</ele>
        <time>2015-09-13T08:09:54Z</time>
      </trkpt>
      <trkpt lat="43.59117" lon="2.34223">
        <ele>359.1896973</ele>
        <time>2015-09-13T08:10:01Z</time>
      </trkpt>
      <trkpt lat="43.59111" lon="2.34251">
        <ele>356.3057861</ele>
        <time>2015-09-13T08:10:06Z</time>
      </trkpt>
      <trkpt lat="43.59109" lon="2.34264">
        <ele>352.9411621</ele>
        <time>2015-09-13T08:10:08Z</time>
      </trkpt>
      <trkpt lat="43.59098" lon="2.34291">
        <ele>354.8637695</ele>
        <time>2015-09-13T08:10:13Z</time>
      </trkpt>
      <trkpt lat="43.59085" lon="2.34312">
        <ele>356.786377</ele>
        <time>2015-09-13T08:10:18Z</time>
      </trkpt>
      <trkpt lat="43.59072" lon="2.34334">
        <ele>359.1896973</ele>
        <time>2015-09-13T08:10:23Z</time>
      </trkpt>
      <trkpt lat="43.59064" lon="2.34352">
        <ele>356.786377</ele>
        <time>2015-09-13T08:10:27Z</time>
      </trkpt>
      <trkpt lat="43.59057" lon="2.34368">
        <ele>357.2670898</ele>
        <time>2015-09-13T08:10:30Z</time>
      </trkpt>
      <trkpt lat="43.59052" lon="2.34376">
        <ele>357.2670898</ele>
        <time>2015-09-13T08:10:32Z</time>
      </trkpt>
      <trkpt lat="43.5904" lon="2.34392">
        <ele>351.4991455</ele>
        <time>2015-09-13T08:10:36Z</time>
      </trkpt>
      <trkpt lat="43.59033" lon="2.34414">
        <ele>351.0184326</ele>
        <time>2015-09-13T08:10:40Z</time>
      </trkpt>
      <trkpt lat="43.59027" lon="2.34469">
        <ele>358.2283936</ele>
        <time>2015-09-13T08:10:49Z</time>
      </trkpt>
      <trkpt lat="43.59026" lon="2.34496">
        <ele>360.6317139</ele>
        <time>2015-09-13T08:10:54Z</time>
      </trkpt>
      <trkpt lat="43.5903" lon="2.34524">
        <ele>360.151123</ele>
        <time>2015-09-13T08:10:59Z</time>
      </trkpt>
      <trkpt lat="43.59044" lon="2.3454">
        <ele>357.7478027</ele>
        <time>2015-09-13T08:11:04Z</time>
      </trkpt>
      <trkpt lat="43.59048" lon="2.34543">
        <ele>356.786377</ele>
        <time>2015-09-13T08:11:05Z</time>
      </trkpt>
      <trkpt lat="43.59064" lon="2.34564">
        <ele>356.3057861</ele>
        <time>2015-09-13T08:11:10Z</time>
      </trkpt>
      <trkpt lat="43.59075" lon="2.34593">
        <ele>358.2283936</ele>
        <time>2015-09-13T08:11:17Z</time>
      </trkpt>
      <trkpt lat="43.59088" lon="2.34619">
        <ele>357.2670898</ele>
        <time>2015-09-13T08:11:23Z</time>
      </trkpt>
      <trkpt lat="43.591" lon="2.34638">
        <ele>360.151123</ele>
        <time>2015-09-13T08:11:28Z</time>
      </trkpt>
      <trkpt lat="43.59114" lon="2.34666">
        <ele>361.1124268</ele>
        <time>2015-09-13T08:11:34Z</time>
      </trkpt>
      <trkpt lat="43.59121" lon="2.3468">
        <ele>358.7089844</ele>
        <time>2015-09-13T08:11:37Z</time>
      </trkpt>
      <trkpt lat="43.59136" lon="2.34706">
        <ele>356.3057861</ele>
        <time>2015-09-13T08:11:43Z</time>
      </trkpt>
      <trkpt lat="43.5914" lon="2.34716">
        <ele>356.786377</ele>
        <time>2015-09-13T08:11:48Z</time>
      </trkpt>
      <trkpt lat="43.59154" lon="2.34726">
        <ele>350.5378418</ele>
        <time>2015-09-13T08:11:54Z</time>
      </trkpt>
      <trkpt lat="43.59169" lon="2.34732">
        <ele>347.6539307</ele>
        <time>2015-09-13T08:11:59Z</time>
      </trkpt>
      <trkpt lat="43.59194" lon="2.34737">
        <ele>348.6152344</ele>
        <time>2015-09-13T08:12:05Z</time>
      </trkpt>
      <trkpt lat="43.59214" lon="2.34736">
        <ele>349.5765381</ele>
        <time>2015-09-13T08:12:11Z</time>
      </trkpt>
      <trkpt lat="43.59222" lon="2.34734">
        <ele>347.1732178</ele>
        <time>2015-09-13T08:12:16Z</time>
      </trkpt>
      <trkpt lat="43.5922" lon="2.3474">
        <ele>351.9798584</ele>
        <time>2015-09-13T08:12:40Z</time>
      </trkpt>
      <trkpt lat="43.59223" lon="2.3474">
        <ele>351.4991455</ele>
        <time>2015-09-13T08:12:45Z</time>
      </trkpt>
      <trkpt lat="43.59223" lon="2.34742">
        <ele>353.9025879</ele>
        <time>2015-09-13T08:12:52Z</time>
      </trkpt>
      <trkpt lat="43.59228" lon="2.34737">
        <ele>351.4991455</ele>
        <time>2015-09-13T08:13:00Z</time>
      </trkpt>
      <trkpt lat="43.59237" lon="2.3473">
        <ele>351.0184326</ele>
        <time>2015-09-13T08:13:06Z</time>
      </trkpt>
      <trkpt lat="43.59249" lon="2.34722">
        <ele>351.4991455</ele>
        <time>2015-09-13T08:13:12Z</time>
      </trkpt>
      <trkpt lat="43.5926" lon="2.34716">
        <ele>351.9798584</ele>
        <time>2015-09-13T08:13:16Z</time>
      </trkpt>
      <trkpt lat="43.59282" lon="2.34706">
        <ele>353.421875</ele>
        <time>2015-09-13T08:13:24Z</time>
      </trkpt>
      <trkpt lat="43.59303" lon="2.34697">
        <ele>353.9025879</ele>
        <time>2015-09-13T08:13:31Z</time>
      </trkpt>
      <trkpt lat="43.59324" lon="2.34693">
        <ele>357.2670898</ele>
        <time>2015-09-13T08:13:39Z</time>
      </trkpt>
      <trkpt lat="43.59342" lon="2.3469">
        <ele>359.6704102</ele>
        <time>2015-09-13T08:13:45Z</time>
      </trkpt>
      <trkpt lat="43.59363" lon="2.34678">
        <ele>361.5931396</ele>
        <time>2015-09-13T08:13:53Z</time>
      </trkpt>
      <trkpt lat="43.59385" lon="2.34665">
        <ele>363.5157471</ele>
        <time>2015-09-13T08:14:01Z</time>
      </trkpt>
      <trkpt lat="43.594" lon="2.34655">
        <ele>365.4383545</ele>
        <time>2015-09-13T08:14:07Z</time>
      </trkpt>
      <trkpt lat="43.59416" lon="2.34642">
        <ele>364.9576416</ele>
        <time>2015-09-13T08:14:14Z</time>
      </trkpt>
      <trkpt lat="43.59433" lon="2.34627">
        <ele>364.4769287</ele>
        <time>2015-09-13T08:14:21Z</time>
      </trkpt>
      <trkpt lat="43.59445" lon="2.34611">
        <ele>366.3995361</ele>
        <time>2015-09-13T08:14:28Z</time>
      </trkpt>
      <trkpt lat="43.59457" lon="2.34597">
        <ele>366.3995361</ele>
        <time>2015-09-13T08:14:34Z</time>
      </trkpt>
      <trkpt lat="43.59474" lon="2.34578">
        <ele>366.3995361</ele>
        <time>2015-09-13T08:14:43Z</time>
      </trkpt>
      <trkpt lat="43.5949" lon="2.34561">
        <ele>366.880249</ele>
        <time>2015-09-13T08:14:51Z</time>
      </trkpt>
      <trkpt lat="43.59507" lon="2.34546">
        <ele>368.3222656</ele>
        <time>2015-09-13T08:14:59Z</time>
      </trkpt>
      <trkpt lat="43.59523" lon="2.34535">
        <ele>370.244873</ele>
        <time>2015-09-13T08:15:06Z</time>
      </trkpt>
      <trkpt lat="43.5954" lon="2.34531">
        <ele>373.1289063</ele>
        <time>2015-09-13T08:15:13Z</time>
      </trkpt>
      <trkpt lat="43.59552" lon="2.34529">
        <ele>378.4161377</ele>
        <time>2015-09-13T08:15:19Z</time>
      </trkpt>
      <trkpt lat="43.59567" lon="2.34535">
        <ele>381.3000488</ele>
        <time>2015-09-13T08:15:26Z</time>
      </trkpt>
      <trkpt lat="43.59577" lon="2.34537">
        <ele>384.6647949</ele>
        <time>2015-09-13T08:15:31Z</time>
      </trkpt>
      <trkpt lat="43.5959" lon="2.34539">
        <ele>384.6647949</ele>
        <time>2015-09-13T08:15:36Z</time>
      </trkpt>
      <trkpt lat="43.59603" lon="2.34545">
        <ele>384.6647949</ele>
        <time>2015-09-13T08:15:41Z</time>
      </trkpt>
      <trkpt lat="43.59617" lon="2.34548">
        <ele>381.7806396</ele>
        <time>2015-09-13T08:15:46Z</time>
      </trkpt>
      <trkpt lat="43.59632" lon="2.34554">
        <ele>380.819458</ele>
        <time>2015-09-13T08:15:53Z</time>
      </trkpt>
      <trkpt lat="43.59643" lon="2.34561">
        <ele>381.3000488</ele>
        <time>2015-09-13T08:15:59Z</time>
      </trkpt>
      <trkpt lat="43.59657" lon="2.34565">
        <ele>378.4161377</ele>
        <time>2015-09-13T08:16:06Z</time>
      </trkpt>
      <trkpt lat="43.59677" lon="2.34574">
        <ele>378.8968506</ele>
        <time>2015-09-13T08:16:12Z</time>
      </trkpt>
      <trkpt lat="43.59693" lon="2.3459">
        <ele>380.3387451</ele>
        <time>2015-09-13T08:16:18Z</time>
      </trkpt>
      <trkpt lat="43.59702" lon="2.34611">
        <ele>381.7806396</ele>
        <time>2015-09-13T08:16:24Z</time>
      </trkpt>
      <trkpt lat="43.59709" lon="2.34642">
        <ele>382.7420654</ele>
        <time>2015-09-13T08:16:32Z</time>
      </trkpt>
      <trkpt lat="43.59713" lon="2.34672">
        <ele>384.6647949</ele>
        <time>2015-09-13T08:16:40Z</time>
      </trkpt>
      <trkpt lat="43.59715" lon="2.34707">
        <ele>386.5874023</ele>
        <time>2015-09-13T08:16:49Z</time>
      </trkpt>
      <trkpt lat="43.59718" lon="2.3474">
        <ele>387.0679932</ele>
        <time>2015-09-13T08:16:58Z</time>
      </trkpt>
      <trkpt lat="43.59728" lon="2.3476">
        <ele>386.5874023</ele>
        <time>2015-09-13T08:17:04Z</time>
      </trkpt>
      <trkpt lat="43.59751" lon="2.34781">
        <ele>385.6259766</ele>
        <time>2015-09-13T08:17:11Z</time>
      </trkpt>
      <trkpt lat="43.59769" lon="2.34797">
        <ele>383.7032471</ele>
        <time>2015-09-13T08:17:17Z</time>
      </trkpt>
      <trkpt lat="43.59791" lon="2.34815">
        <ele>386.1066895</ele>
        <time>2015-09-13T08:17:24Z</time>
      </trkpt>
      <trkpt lat="43.59812" lon="2.3483">
        <ele>387.0679932</ele>
        <time>2015-09-13T08:17:31Z</time>
      </trkpt>
      <trkpt lat="43.59825" lon="2.34834">
        <ele>388.9906006</ele>
        <time>2015-09-13T08:17:36Z</time>
      </trkpt>
      <trkpt lat="43.59842" lon="2.34828">
        <ele>390.4326172</ele>
        <time>2015-09-13T08:17:43Z</time>
      </trkpt>
      <trkpt lat="43.59858" lon="2.34814">
        <ele>392.3553467</ele>
        <time>2015-09-13T08:17:52Z</time>
      </trkpt>
      <trkpt lat="43.59873" lon="2.34803">
        <ele>392.8359375</ele>
        <time>2015-09-13T08:18:00Z</time>
      </trkpt>
      <trkpt lat="43.59881" lon="2.34794">
        <ele>393.3165283</ele>
        <time>2015-09-13T08:18:06Z</time>
      </trkpt>
      <trkpt lat="43.59892" lon="2.34783">
        <ele>395.7198486</ele>
        <time>2015-09-13T08:18:13Z</time>
      </trkpt>
      <trkpt lat="43.599" lon="2.34778">
        <ele>401.9685059</ele>
        <time>2015-09-13T08:18:19Z</time>
      </trkpt>
      <trkpt lat="43.59916" lon="2.34774">
        <ele>405.8137207</ele>
        <time>2015-09-13T08:18:27Z</time>
      </trkpt>
      <trkpt lat="43.59926" lon="2.34777">
        <ele>408.6976318</ele>
        <time>2015-09-13T08:18:33Z</time>
      </trkpt>
      <trkpt lat="43.59939" lon="2.34779">
        <ele>411.581665</ele>
        <time>2015-09-13T08:18:39Z</time>
      </trkpt>
      <trkpt lat="43.5995" lon="2.34781">
        <ele>412.5428467</ele>
        <time>2015-09-13T08:18:46Z</time>
      </trkpt>
      <trkpt lat="43.59953" lon="2.34784">
        <ele>410.6202393</ele>
        <time>2015-09-13T08:18:49Z</time>
      </trkpt>
      <trkpt lat="43.59956" lon="2.34789">
        <ele>409.6590576</ele>
        <time>2015-09-13T08:18:52Z</time>
      </trkpt>
      <trkpt lat="43.59976" lon="2.348">
        <ele>410.6202393</ele>
        <time>2015-09-13T08:18:59Z</time>
      </trkpt>
      <trkpt lat="43.59986" lon="2.34809">
        <ele>409.6590576</ele>
        <time>2015-09-13T08:19:03Z</time>
      </trkpt>
      <trkpt lat="43.60002" lon="2.34822">
        <ele>407.7363281</ele>
        <time>2015-09-13T08:19:09Z</time>
      </trkpt>
      <trkpt lat="43.60018" lon="2.34836">
        <ele>407.7363281</ele>
        <time>2015-09-13T08:19:15Z</time>
      </trkpt>
      <trkpt lat="43.60036" lon="2.34853">
        <ele>407.2556152</ele>
        <time>2015-09-13T08:19:22Z</time>
      </trkpt>
      <trkpt lat="43.60052" lon="2.34866">
        <ele>407.2556152</ele>
        <time>2015-09-13T08:19:29Z</time>
      </trkpt>
      <trkpt lat="43.60071" lon="2.34866">
        <ele>404.8522949</ele>
        <time>2015-09-13T08:19:35Z</time>
      </trkpt>
      <trkpt lat="43.6009" lon="2.34869">
        <ele>404.3717041</ele>
        <time>2015-09-13T08:19:41Z</time>
      </trkpt>
      <trkpt lat="43.60105" lon="2.34871">
        <ele>410.1396484</ele>
        <time>2015-09-13T08:19:47Z</time>
      </trkpt>
      <trkpt lat="43.60117" lon="2.34872">
        <ele>410.6202393</ele>
        <time>2015-09-13T08:19:52Z</time>
      </trkpt>
      <trkpt lat="43.60139" lon="2.34868">
        <ele>409.6590576</ele>
        <time>2015-09-13T08:19:58Z</time>
      </trkpt>
      <trkpt lat="43.60151" lon="2.34858">
        <ele>410.6202393</ele>
        <time>2015-09-13T08:20:03Z</time>
      </trkpt>
      <trkpt lat="43.60163" lon="2.34846">
        <ele>408.217041</ele>
        <time>2015-09-13T08:20:08Z</time>
      </trkpt>
      <trkpt lat="43.60178" lon="2.34831">
        <ele>408.6976318</ele>
        <time>2015-09-13T08:20:15Z</time>
      </trkpt>
      <trkpt lat="43.60189" lon="2.34824">
        <ele>411.581665</ele>
        <time>2015-09-13T08:20:20Z</time>
      </trkpt>
      <trkpt lat="43.60199" lon="2.34826">
        <ele>412.5428467</ele>
        <time>2015-09-13T08:20:25Z</time>
      </trkpt>
      <trkpt lat="43.60212" lon="2.34837">
        <ele>419.2722168</ele>
        <time>2015-09-13T08:20:31Z</time>
      </trkpt>
      <trkpt lat="43.6022" lon="2.34847">
        <ele>421.1948242</ele>
        <time>2015-09-13T08:20:36Z</time>
      </trkpt>
      <trkpt lat="43.60228" lon="2.34861">
        <ele>424.0787354</ele>
        <time>2015-09-13T08:20:43Z</time>
      </trkpt>
      <trkpt lat="43.60231" lon="2.34875">
        <ele>426.4820557</ele>
        <time>2015-09-13T08:20:48Z</time>
      </trkpt>
      <trkpt lat="43.60234" lon="2.34891">
        <ele>428.4046631</ele>
        <time>2015-09-13T08:20:54Z</time>
      </trkpt>
      <trkpt lat="43.60237" lon="2.34912">
        <ele>428.4046631</ele>
        <time>2015-09-13T08:21:02Z</time>
      </trkpt>
      <trkpt lat="43.60243" lon="2.34926">
        <ele>429.8465576</ele>
        <time>2015-09-13T08:21:07Z</time>
      </trkpt>
      <trkpt lat="43.60249" lon="2.34944">
        <ele>429.8465576</ele>
        <time>2015-09-13T08:21:14Z</time>
      </trkpt>
      <trkpt lat="43.60254" lon="2.34958">
        <ele>430.8079834</ele>
        <time>2015-09-13T08:21:20Z</time>
      </trkpt>
      <trkpt lat="43.60263" lon="2.34967">
        <ele>430.3272705</ele>
        <time>2015-09-13T08:21:26Z</time>
      </trkpt>
      <trkpt lat="43.60275" lon="2.34972">
        <ele>430.8079834</ele>
        <time>2015-09-13T08:21:32Z</time>
      </trkpt>
      <trkpt lat="43.60291" lon="2.34966">
        <ele>430.8079834</ele>
        <time>2015-09-13T08:21:40Z</time>
      </trkpt>
      <trkpt lat="43.603" lon="2.34956">
        <ele>433.2113037</ele>
        <time>2015-09-13T08:21:46Z</time>
      </trkpt>
      <trkpt lat="43.60308" lon="2.34938">
        <ele>430.8079834</ele>
        <time>2015-09-13T08:21:54Z</time>
      </trkpt>
      <trkpt lat="43.60309" lon="2.34936">
        <ele>430.3272705</ele>
        <time>2015-09-13T08:21:55Z</time>
      </trkpt>
      <trkpt lat="43.60314" lon="2.34927">
        <ele>430.3272705</ele>
        <time>2015-09-13T08:22:01Z</time>
      </trkpt>
      <trkpt lat="43.60322" lon="2.34922">
        <ele>441.8631592</ele>
        <time>2015-09-13T08:22:09Z</time>
      </trkpt>
      <trkpt lat="43.60323" lon="2.34921">
        <ele>442.8244629</ele>
        <time>2015-09-13T08:22:10Z</time>
      </trkpt>
      <trkpt lat="43.60331" lon="2.34917">
        <ele>443.3050537</ele>
        <time>2015-09-13T08:22:15Z</time>
      </trkpt>
      <trkpt lat="43.60338" lon="2.3492">
        <ele>443.3050537</ele>
        <time>2015-09-13T08:22:20Z</time>
      </trkpt>
      <trkpt lat="43.60339" lon="2.34918">
        <ele>442.8244629</ele>
        <time>2015-09-13T08:22:22Z</time>
      </trkpt>
      <trkpt lat="43.60353" lon="2.34908">
        <ele>436.0952148</ele>
        <time>2015-09-13T08:22:29Z</time>
      </trkpt>
      <trkpt lat="43.60362" lon="2.34896">
        <ele>433.2113037</ele>
        <time>2015-09-13T08:22:35Z</time>
      </trkpt>
      <trkpt lat="43.60361" lon="2.34873">
        <ele>435.1339111</ele>
        <time>2015-09-13T08:22:44Z</time>
      </trkpt>
      <trkpt lat="43.60363" lon="2.34855">
        <ele>440.9018555</ele>
        <time>2015-09-13T08:22:50Z</time>
      </trkpt>
      <trkpt lat="43.60371" lon="2.34846">
        <ele>449.5537109</ele>
        <time>2015-09-13T08:22:57Z</time>
      </trkpt>
      <trkpt lat="43.60372" lon="2.34845">
        <ele>450.9956055</ele>
        <time>2015-09-13T08:22:58Z</time>
      </trkpt>
      <trkpt lat="43.60378" lon="2.34835">
        <ele>451.9570313</ele>
        <time>2015-09-13T08:23:03Z</time>
      </trkpt>
      <trkpt lat="43.60385" lon="2.34831">
        <ele>450.9956055</ele>
        <time>2015-09-13T08:23:06Z</time>
      </trkpt>
      <trkpt lat="43.60391" lon="2.34839">
        <ele>450.0344238</ele>
        <time>2015-09-13T08:23:11Z</time>
      </trkpt>
      <trkpt lat="43.60391" lon="2.3485">
        <ele>449.072998</ele>
        <time>2015-09-13T08:23:16Z</time>
      </trkpt>
      <trkpt lat="43.60389" lon="2.34868">
        <ele>453.3989258</ele>
        <time>2015-09-13T08:23:23Z</time>
      </trkpt>
      <trkpt lat="43.60388" lon="2.34886">
        <ele>454.8408203</ele>
        <time>2015-09-13T08:23:29Z</time>
      </trkpt>
      <trkpt lat="43.6039" lon="2.34908">
        <ele>452.9182129</ele>
        <time>2015-09-13T08:23:37Z</time>
      </trkpt>
      <trkpt lat="43.60393" lon="2.34929">
        <ele>453.8796387</ele>
        <time>2015-09-13T08:23:45Z</time>
      </trkpt>
      <trkpt lat="43.60398" lon="2.34943">
        <ele>452.4376221</ele>
        <time>2015-09-13T08:23:52Z</time>
      </trkpt>
      <trkpt lat="43.60403" lon="2.34934">
        <ele>453.8796387</ele>
        <time>2015-09-13T08:23:58Z</time>
      </trkpt>
      <trkpt lat="43.60406" lon="2.34929">
        <ele>452.9182129</ele>
        <time>2015-09-13T08:24:00Z</time>
      </trkpt>
      <trkpt lat="43.60413" lon="2.34911">
        <ele>449.072998</ele>
        <time>2015-09-13T08:24:08Z</time>
      </trkpt>
      <trkpt lat="43.60421" lon="2.34897">
        <ele>446.6696777</ele>
        <time>2015-09-13T08:24:15Z</time>
      </trkpt>
      <trkpt lat="43.60428" lon="2.3488">
        <ele>445.708374</ele>
        <time>2015-09-13T08:24:22Z</time>
      </trkpt>
      <trkpt lat="43.60435" lon="2.34868">
        <ele>445.708374</ele>
        <time>2015-09-13T08:24:28Z</time>
      </trkpt>
      <trkpt lat="43.60439" lon="2.34858">
        <ele>449.072998</ele>
        <time>2015-09-13T08:24:33Z</time>
      </trkpt>
      <trkpt lat="43.60442" lon="2.34857">
        <ele>457.7249756</ele>
        <time>2015-09-13T08:24:38Z</time>
      </trkpt>
      <trkpt lat="43.60439" lon="2.3487">
        <ele>457.7249756</ele>
        <time>2015-09-13T08:24:45Z</time>
      </trkpt>
      <trkpt lat="43.60437" lon="2.34884">
        <ele>460.1281738</ele>
        <time>2015-09-13T08:24:52Z</time>
      </trkpt>
      <trkpt lat="43.60436" lon="2.34899">
        <ele>463.012085</ele>
        <time>2015-09-13T08:24:58Z</time>
      </trkpt>
      <trkpt lat="43.60438" lon="2.34916">
        <ele>464.4541016</ele>
        <time>2015-09-13T08:25:05Z</time>
      </trkpt>
      <trkpt lat="43.60439" lon="2.34936">
        <ele>465.8961182</ele>
        <time>2015-09-13T08:25:12Z</time>
      </trkpt>
      <trkpt lat="43.60441" lon="2.34955">
        <ele>472.6253662</ele>
        <time>2015-09-13T08:25:18Z</time>
      </trkpt>
      <trkpt lat="43.60452" lon="2.34957">
        <ele>471.1833496</ele>
        <time>2015-09-13T08:25:23Z</time>
      </trkpt>
      <trkpt lat="43.60458" lon="2.34948">
        <ele>468.2993164</ele>
        <time>2015-09-13T08:25:27Z</time>
      </trkpt>
      <trkpt lat="43.60464" lon="2.34931">
        <ele>468.7800293</ele>
        <time>2015-09-13T08:25:34Z</time>
      </trkpt>
      <trkpt lat="43.60464" lon="2.34925">
        <ele>470.2219238</ele>
        <time>2015-09-13T08:25:38Z</time>
      </trkpt>
      <trkpt lat="43.60472" lon="2.34915">
        <ele>465.8961182</ele>
        <time>2015-09-13T08:25:44Z</time>
      </trkpt>
      <trkpt lat="43.6049" lon="2.34903">
        <ele>460.6087646</ele>
        <time>2015-09-13T08:25:52Z</time>
      </trkpt>
      <trkpt lat="43.60497" lon="2.34894">
        <ele>461.5701904</ele>
        <time>2015-09-13T08:25:58Z</time>
      </trkpt>
      <trkpt lat="43.60511" lon="2.34882">
        <ele>463.4927979</ele>
        <time>2015-09-13T08:26:05Z</time>
      </trkpt>
      <trkpt lat="43.60517" lon="2.3487">
        <ele>468.7800293</ele>
        <time>2015-09-13T08:26:11Z</time>
      </trkpt>
      <trkpt lat="43.60518" lon="2.3487">
        <ele>470.2219238</ele>
        <time>2015-09-13T08:26:13Z</time>
      </trkpt>
      <trkpt lat="43.60519" lon="2.34881">
        <ele>475.5092773</ele>
        <time>2015-09-13T08:26:19Z</time>
      </trkpt>
      <trkpt lat="43.60514" lon="2.34901">
        <ele>476.9512939</ele>
        <time>2015-09-13T08:26:26Z</time>
      </trkpt>
      <trkpt lat="43.60513" lon="2.34918">
        <ele>475.9898682</ele>
        <time>2015-09-13T08:26:32Z</time>
      </trkpt>
      <trkpt lat="43.60514" lon="2.34934">
        <ele>478.3931885</ele>
        <time>2015-09-13T08:26:38Z</time>
      </trkpt>
      <trkpt lat="43.60514" lon="2.3495">
        <ele>480.315918</ele>
        <time>2015-09-13T08:26:44Z</time>
      </trkpt>
      <trkpt lat="43.60516" lon="2.3497">
        <ele>481.2772217</ele>
        <time>2015-09-13T08:26:52Z</time>
      </trkpt>
      <trkpt lat="43.60518" lon="2.34986">
        <ele>480.7966309</ele>
        <time>2015-09-13T08:26:59Z</time>
      </trkpt>
      <trkpt lat="43.60518" lon="2.35005">
        <ele>483.1998291</ele>
        <time>2015-09-13T08:27:05Z</time>
      </trkpt>
      <trkpt lat="43.60516" lon="2.35027">
        <ele>486.0837402</ele>
        <time>2015-09-13T08:27:11Z</time>
      </trkpt>
      <trkpt lat="43.60513" lon="2.35045">
        <ele>484.6418457</ele>
        <time>2015-09-13T08:27:17Z</time>
      </trkpt>
      <trkpt lat="43.60508" lon="2.35072">
        <ele>486.0837402</ele>
        <time>2015-09-13T08:27:25Z</time>
      </trkpt>
      <trkpt lat="43.60501" lon="2.35091">
        <ele>485.1224365</ele>
        <time>2015-09-13T08:27:31Z</time>
      </trkpt>
      <trkpt lat="43.60494" lon="2.35115">
        <ele>484.6418457</ele>
        <time>2015-09-13T08:27:38Z</time>
      </trkpt>
      <trkpt lat="43.60487" lon="2.35134">
        <ele>485.6030273</ele>
        <time>2015-09-13T08:27:44Z</time>
      </trkpt>
      <trkpt lat="43.60483" lon="2.35153">
        <ele>482.2385254</ele>
        <time>2015-09-13T08:27:50Z</time>
      </trkpt>
      <trkpt lat="43.60479" lon="2.35174">
        <ele>482.7192383</ele>
        <time>2015-09-13T08:27:56Z</time>
      </trkpt>
      <trkpt lat="43.60476" lon="2.35191">
        <ele>485.1224365</ele>
        <time>2015-09-13T08:28:01Z</time>
      </trkpt>
      <trkpt lat="43.60477" lon="2.35212">
        <ele>487.0450439</ele>
        <time>2015-09-13T08:28:07Z</time>
      </trkpt>
      <trkpt lat="43.60479" lon="2.35238">
        <ele>489.4483643</ele>
        <time>2015-09-13T08:28:16Z</time>
      </trkpt>
      <trkpt lat="43.60478" lon="2.35254">
        <ele>490.8903809</ele>
        <time>2015-09-13T08:28:21Z</time>
      </trkpt>
      <trkpt lat="43.60477" lon="2.3527">
        <ele>492.3323975</ele>
        <time>2015-09-13T08:28:28Z</time>
      </trkpt>
      <trkpt lat="43.60474" lon="2.35284">
        <ele>496.1777344</ele>
        <time>2015-09-13T08:28:34Z</time>
      </trkpt>
      <trkpt lat="43.60473" lon="2.3529">
        <ele>499.5422363</ele>
        <time>2015-09-13T08:28:38Z</time>
      </trkpt>
      <trkpt lat="43.60474" lon="2.35308">
        <ele>499.5422363</ele>
        <time>2015-09-13T08:28:45Z</time>
      </trkpt>
      <trkpt lat="43.60476" lon="2.3532">
        <ele>500.50354</ele>
        <time>2015-09-13T08:28:51Z</time>
      </trkpt>
      <trkpt lat="43.60476" lon="2.35331">
        <ele>502.9067383</ele>
        <time>2015-09-13T08:28:57Z</time>
      </trkpt>
      <trkpt lat="43.60478" lon="2.35335">
        <ele>503.3874512</ele>
        <time>2015-09-13T08:28:59Z</time>
      </trkpt>
      <trkpt lat="43.60483" lon="2.35348">
        <ele>502.4261475</ele>
        <time>2015-09-13T08:29:05Z</time>
      </trkpt>
      <trkpt lat="43.60483" lon="2.35362">
        <ele>507.2327881</ele>
        <time>2015-09-13T08:29:12Z</time>
      </trkpt>
      <trkpt lat="43.60484" lon="2.35375">
        <ele>511.5587158</ele>
        <time>2015-09-13T08:29:20Z</time>
      </trkpt>
      <trkpt lat="43.60485" lon="2.35388">
        <ele>508.6746826</ele>
        <time>2015-09-13T08:29:27Z</time>
      </trkpt>
      <trkpt lat="43.60488" lon="2.354">
        <ele>505.7908936</ele>
        <time>2015-09-13T08:29:32Z</time>
      </trkpt>
      <trkpt lat="43.60491" lon="2.35405">
        <ele>506.2714844</ele>
        <time>2015-09-13T08:29:34Z</time>
      </trkpt>
      <trkpt lat="43.60493" lon="2.35426">
        <ele>508.6746826</ele>
        <time>2015-09-13T08:29:42Z</time>
      </trkpt>
      <trkpt lat="43.60497" lon="2.35442">
        <ele>504.8294678</ele>
        <time>2015-09-13T08:29:48Z</time>
      </trkpt>
      <trkpt lat="43.60499" lon="2.35457">
        <ele>503.3874512</ele>
        <time>2015-09-13T08:29:53Z</time>
      </trkpt>
      <trkpt lat="43.60502" lon="2.35478">
        <ele>504.8294678</ele>
        <time>2015-09-13T08:29:59Z</time>
      </trkpt>
      <trkpt lat="43.60509" lon="2.35499">
        <ele>509.1553955</ele>
        <time>2015-09-13T08:30:05Z</time>
      </trkpt>
      <trkpt lat="43.6051" lon="2.3552">
        <ele>507.713501</ele>
        <time>2015-09-13T08:30:11Z</time>
      </trkpt>
      <trkpt lat="43.60512" lon="2.35539">
        <ele>509.1553955</ele>
        <time>2015-09-13T08:30:18Z</time>
      </trkpt>
      <trkpt lat="43.60512" lon="2.35561">
        <ele>515.4040527</ele>
        <time>2015-09-13T08:30:25Z</time>
      </trkpt>
      <trkpt lat="43.60517" lon="2.35584">
        <ele>517.3266602</ele>
        <time>2015-09-13T08:30:31Z</time>
      </trkpt>
      <trkpt lat="43.60519" lon="2.35602">
        <ele>515.8846436</ele>
        <time>2015-09-13T08:30:35Z</time>
      </trkpt>
      <trkpt lat="43.60526" lon="2.35626">
        <ele>513.9620361</ele>
        <time>2015-09-13T08:30:40Z</time>
      </trkpt>
      <trkpt lat="43.60534" lon="2.3565">
        <ele>513.0007324</ele>
        <time>2015-09-13T08:30:45Z</time>
      </trkpt>
      <trkpt lat="43.60539" lon="2.35676">
        <ele>509.1553955</ele>
        <time>2015-09-13T08:30:50Z</time>
      </trkpt>
      <trkpt lat="43.60544" lon="2.35712">
        <ele>503.8681641</ele>
        <time>2015-09-13T08:30:57Z</time>
      </trkpt>
      <trkpt lat="43.60548" lon="2.35743">
        <ele>500.0229492</ele>
        <time>2015-09-13T08:31:03Z</time>
      </trkpt>
      <trkpt lat="43.60554" lon="2.35775">
        <ele>496.1777344</ele>
        <time>2015-09-13T08:31:09Z</time>
      </trkpt>
      <trkpt lat="43.60563" lon="2.35809">
        <ele>493.774292</ele>
        <time>2015-09-13T08:31:16Z</time>
      </trkpt>
      <trkpt lat="43.60571" lon="2.3583">
        <ele>492.3323975</ele>
        <time>2015-09-13T08:31:21Z</time>
      </trkpt>
      <trkpt lat="43.60577" lon="2.35853">
        <ele>492.8129883</ele>
        <time>2015-09-13T08:31:27Z</time>
      </trkpt>
      <trkpt lat="43.60585" lon="2.35876">
        <ele>495.6968994</ele>
        <time>2015-09-13T08:31:33Z</time>
      </trkpt>
      <trkpt lat="43.60598" lon="2.35902">
        <ele>496.1777344</ele>
        <time>2015-09-13T08:31:40Z</time>
      </trkpt>
      <trkpt lat="43.60606" lon="2.3592">
        <ele>501.9455566</ele>
        <time>2015-09-13T08:31:45Z</time>
      </trkpt>
      <trkpt lat="43.60611" lon="2.35943">
        <ele>509.1553955</ele>
        <time>2015-09-13T08:31:51Z</time>
      </trkpt>
      <trkpt lat="43.6062" lon="2.35967">
        <ele>508.6746826</ele>
        <time>2015-09-13T08:31:59Z</time>
      </trkpt>
      <trkpt lat="43.6062" lon="2.35991">
        <ele>511.5587158</ele>
        <time>2015-09-13T08:32:07Z</time>
      </trkpt>
      <trkpt lat="43.6062" lon="2.36008">
        <ele>510.59729</ele>
        <time>2015-09-13T08:32:13Z</time>
      </trkpt>
      <trkpt lat="43.60624" lon="2.36017">
        <ele>506.2714844</ele>
        <time>2015-09-13T08:32:17Z</time>
      </trkpt>
      <trkpt lat="43.60641" lon="2.36025">
        <ele>501.4648438</ele>
        <time>2015-09-13T08:32:25Z</time>
      </trkpt>
      <trkpt lat="43.60644" lon="2.36027">
        <ele>503.3874512</ele>
        <time>2015-09-13T08:32:27Z</time>
      </trkpt>
      <trkpt lat="43.60659" lon="2.36031">
        <ele>502.4261475</ele>
        <time>2015-09-13T08:32:34Z</time>
      </trkpt>
      <trkpt lat="43.60672" lon="2.36032">
        <ele>502.9067383</ele>
        <time>2015-09-13T08:32:40Z</time>
      </trkpt>
      <trkpt lat="43.60685" lon="2.36026">
        <ele>500.9841309</ele>
        <time>2015-09-13T08:32:46Z</time>
      </trkpt>
      <trkpt lat="43.60701" lon="2.36018">
        <ele>501.4648438</ele>
        <time>2015-09-13T08:32:53Z</time>
      </trkpt>
      <trkpt lat="43.60712" lon="2.36013">
        <ele>500.50354</ele>
        <time>2015-09-13T08:32:58Z</time>
      </trkpt>
      <trkpt lat="43.60725" lon="2.36011">
        <ele>500.50354</ele>
        <time>2015-09-13T08:33:03Z</time>
      </trkpt>
      <trkpt lat="43.60733" lon="2.36008">
        <ele>503.3874512</ele>
        <time>2015-09-13T08:33:08Z</time>
      </trkpt>
      <trkpt lat="43.60745" lon="2.36007">
        <ele>509.6361084</ele>
        <time>2015-09-13T08:33:14Z</time>
      </trkpt>
      <trkpt lat="43.60756" lon="2.3601">
        <ele>512.0394287</ele>
        <time>2015-09-13T08:33:20Z</time>
      </trkpt>
      <trkpt lat="43.60767" lon="2.3601">
        <ele>509.6361084</ele>
        <time>2015-09-13T08:33:27Z</time>
      </trkpt>
      <trkpt lat="43.60777" lon="2.36009">
        <ele>511.0780029</ele>
        <time>2015-09-13T08:33:32Z</time>
      </trkpt>
      <trkpt lat="43.60783" lon="2.3601">
        <ele>511.0780029</ele>
        <time>2015-09-13T08:33:36Z</time>
      </trkpt>
      <trkpt lat="43.60798" lon="2.36014">
        <ele>510.1166992</ele>
        <time>2015-09-13T08:33:43Z</time>
      </trkpt>
      <trkpt lat="43.60806" lon="2.36021">
        <ele>511.5587158</ele>
        <time>2015-09-13T08:33:49Z</time>
      </trkpt>
      <trkpt lat="43.60813" lon="2.36031">
        <ele>515.8846436</ele>
        <time>2015-09-13T08:33:55Z</time>
      </trkpt>
      <trkpt lat="43.60817" lon="2.36042">
        <ele>525.4978027</ele>
        <time>2015-09-13T08:34:02Z</time>
      </trkpt>
      <trkpt lat="43.60824" lon="2.36052">
        <ele>530.3044434</ele>
        <time>2015-09-13T08:34:09Z</time>
      </trkpt>
      <trkpt lat="43.60828" lon="2.36062">
        <ele>528.8625488</ele>
        <time>2015-09-13T08:34:15Z</time>
      </trkpt>
      <trkpt lat="43.6083" lon="2.3607">
        <ele>537.0336914</ele>
        <time>2015-09-13T08:34:20Z</time>
      </trkpt>
      <trkpt lat="43.60836" lon="2.36072">
        <ele>537.0336914</ele>
        <time>2015-09-13T08:34:26Z</time>
      </trkpt>
      <trkpt lat="43.60839" lon="2.36074">
        <ele>536.5531006</ele>
        <time>2015-09-13T08:34:39Z</time>
      </trkpt>
      <trkpt lat="43.60848" lon="2.36085">
        <ele>537.0336914</ele>
        <time>2015-09-13T08:34:45Z</time>
      </trkpt>
      <trkpt lat="43.60858" lon="2.36093">
        <ele>537.0336914</ele>
        <time>2015-09-13T08:34:52Z</time>
      </trkpt>
      <trkpt lat="43.60869" lon="2.36099">
        <ele>537.5142822</ele>
        <time>2015-09-13T08:34:59Z</time>
      </trkpt>
      <trkpt lat="43.60874" lon="2.36102">
        <ele>535.1109619</ele>
        <time>2015-09-13T08:35:02Z</time>
      </trkpt>
      <trkpt lat="43.6088" lon="2.36106">
        <ele>535.5915527</ele>
        <time>2015-09-13T08:35:06Z</time>
      </trkpt>
      <trkpt lat="43.60888" lon="2.3611">
        <ele>537.5142822</ele>
        <time>2015-09-13T08:35:11Z</time>
      </trkpt>
      <trkpt lat="43.60897" lon="2.36115">
        <ele>536.5531006</ele>
        <time>2015-09-13T08:35:17Z</time>
      </trkpt>
      <trkpt lat="43.60911" lon="2.36118">
        <ele>537.5142822</ele>
        <time>2015-09-13T08:35:24Z</time>
      </trkpt>
      <trkpt lat="43.60931" lon="2.36122">
        <ele>531.2657471</ele>
        <time>2015-09-13T08:35:30Z</time>
      </trkpt>
      <trkpt lat="43.60948" lon="2.36127">
        <ele>528.3818359</ele>
        <time>2015-09-13T08:35:35Z</time>
      </trkpt>
      <trkpt lat="43.60961" lon="2.36137">
        <ele>527.901001</ele>
        <time>2015-09-13T08:35:39Z</time>
      </trkpt>
      <trkpt lat="43.60975" lon="2.36159">
        <ele>525.9783936</ele>
        <time>2015-09-13T08:35:43Z</time>
      </trkpt>
      <trkpt lat="43.6098" lon="2.3617">
        <ele>523.5751953</ele>
        <time>2015-09-13T08:35:45Z</time>
      </trkpt>
      <trkpt lat="43.60991" lon="2.36206">
        <ele>524.536499</ele>
        <time>2015-09-13T08:35:51Z</time>
      </trkpt>
      <trkpt lat="43.60996" lon="2.36262">
        <ele>528.8625488</ele>
        <time>2015-09-13T08:36:00Z</time>
      </trkpt>
      <trkpt lat="43.60998" lon="2.36286">
        <ele>531.2657471</ele>
        <time>2015-09-13T08:36:06Z</time>
      </trkpt>
      <trkpt lat="43.60999" lon="2.36307">
        <ele>535.5915527</ele>
        <time>2015-09-13T08:36:11Z</time>
      </trkpt>
      <trkpt lat="43.61001" lon="2.3633">
        <ele>542.3209229</ele>
        <time>2015-09-13T08:36:17Z</time>
      </trkpt>
      <trkpt lat="43.61001" lon="2.36351">
        <ele>550.0114746</ele>
        <time>2015-09-13T08:36:23Z</time>
      </trkpt>
      <trkpt lat="43.61007" lon="2.36373">
        <ele>545.6855469</ele>
        <time>2015-09-13T08:36:31Z</time>
      </trkpt>
      <trkpt lat="43.61011" lon="2.36396">
        <ele>543.2821045</ele>
        <time>2015-09-13T08:36:39Z</time>
      </trkpt>
      <trkpt lat="43.61012" lon="2.36417">
        <ele>545.204834</ele>
        <time>2015-09-13T08:36:46Z</time>
      </trkpt>
      <trkpt lat="43.61013" lon="2.36441">
        <ele>548.0888672</ele>
        <time>2015-09-13T08:36:53Z</time>
      </trkpt>
      <trkpt lat="43.61013" lon="2.36456">
        <ele>548.5693359</ele>
        <time>2015-09-13T08:36:58Z</time>
      </trkpt>
      <trkpt lat="43.61015" lon="2.36471">
        <ele>548.5693359</ele>
        <time>2015-09-13T08:37:03Z</time>
      </trkpt>
      <trkpt lat="43.61018" lon="2.36492">
        <ele>543.2821045</ele>
        <time>2015-09-13T08:37:11Z</time>
      </trkpt>
      <trkpt lat="43.61019" lon="2.36502">
        <ele>540.8789063</ele>
        <time>2015-09-13T08:37:17Z</time>
      </trkpt>
      <trkpt lat="43.61021" lon="2.36508">
        <ele>539.4368896</ele>
        <time>2015-09-13T08:37:21Z</time>
      </trkpt>
      <trkpt lat="43.61028" lon="2.36521">
        <ele>539.4368896</ele>
        <time>2015-09-13T08:37:25Z</time>
      </trkpt>
      <trkpt lat="43.61039" lon="2.36543">
        <ele>538.9562988</ele>
        <time>2015-09-13T08:37:32Z</time>
      </trkpt>
      <trkpt lat="43.61043" lon="2.36572">
        <ele>537.9949951</ele>
        <time>2015-09-13T08:37:40Z</time>
      </trkpt>
      <trkpt lat="43.6104" lon="2.36605">
        <ele>542.3209229</ele>
        <time>2015-09-13T08:37:48Z</time>
      </trkpt>
      <trkpt lat="43.61039" lon="2.36625">
        <ele>542.8015137</ele>
        <time>2015-09-13T08:37:53Z</time>
      </trkpt>
      <trkpt lat="43.61039" lon="2.36647">
        <ele>541.3594971</ele>
        <time>2015-09-13T08:37:59Z</time>
      </trkpt>
      <trkpt lat="43.61038" lon="2.36672">
        <ele>537.0336914</ele>
        <time>2015-09-13T08:38:06Z</time>
      </trkpt>
      <trkpt lat="43.6104" lon="2.36701">
        <ele>537.5142822</ele>
        <time>2015-09-13T08:38:14Z</time>
      </trkpt>
      <trkpt lat="43.6104" lon="2.3672">
        <ele>540.3983154</ele>
        <time>2015-09-13T08:38:21Z</time>
      </trkpt>
      <trkpt lat="43.6104" lon="2.36735">
        <ele>541.3594971</ele>
        <time>2015-09-13T08:38:27Z</time>
      </trkpt>
      <trkpt lat="43.61036" lon="2.36739">
        <ele>544.7242432</ele>
        <time>2015-09-13T08:38:32Z</time>
      </trkpt>
      <trkpt lat="43.61033" lon="2.36741">
        <ele>548.5693359</ele>
        <time>2015-09-13T08:38:40Z</time>
      </trkpt>
      <trkpt lat="43.61033" lon="2.3674">
        <ele>551.4533691</ele>
        <time>2015-09-13T08:38:43Z</time>
      </trkpt>
      <trkpt lat="43.61024" lon="2.36734">
        <ele>555.298584</ele>
        <time>2015-09-13T08:38:50Z</time>
      </trkpt>
      <trkpt lat="43.61018" lon="2.3674">
        <ele>553.3759766</ele>
        <time>2015-09-13T08:38:56Z</time>
      </trkpt>
      <trkpt lat="43.61016" lon="2.36746">
        <ele>555.7792969</ele>
        <time>2015-09-13T08:39:03Z</time>
      </trkpt>
      <trkpt lat="43.61011" lon="2.36746">
        <ele>550.9726563</ele>
        <time>2015-09-13T08:39:11Z</time>
      </trkpt>
      <trkpt lat="43.61011" lon="2.36748">
        <ele>557.2214355</ele>
        <time>2015-09-13T08:39:16Z</time>
      </trkpt>
      <trkpt lat="43.61008" lon="2.36752">
        <ele>553.3759766</ele>
        <time>2015-09-13T08:39:20Z</time>
      </trkpt>
      <trkpt lat="43.60998" lon="2.36753">
        <ele>558.6633301</ele>
        <time>2015-09-13T08:39:27Z</time>
      </trkpt>
      <trkpt lat="43.60997" lon="2.36753">
        <ele>558.6633301</ele>
        <time>2015-09-13T08:39:28Z</time>
      </trkpt>
      <trkpt lat="43.60992" lon="2.36756">
        <ele>560.1052246</ele>
        <time>2015-09-13T08:39:35Z</time>
      </trkpt>
      <trkpt lat="43.60988" lon="2.36755">
        <ele>560.5859375</ele>
        <time>2015-09-13T08:39:42Z</time>
      </trkpt>
      <trkpt lat="43.60983" lon="2.36752">
        <ele>561.5473633</ele>
        <time>2015-09-13T08:39:48Z</time>
      </trkpt>
      <trkpt lat="43.60975" lon="2.36757">
        <ele>565.873291</ele>
        <time>2015-09-13T08:39:55Z</time>
      </trkpt>
      <trkpt lat="43.60971" lon="2.36759">
        <ele>563.4699707</ele>
        <time>2015-09-13T08:40:00Z</time>
      </trkpt>
      <trkpt lat="43.60967" lon="2.36764">
        <ele>565.873291</ele>
        <time>2015-09-13T08:40:08Z</time>
      </trkpt>
      <trkpt lat="43.60965" lon="2.36769">
        <ele>570.6796875</ele>
        <time>2015-09-13T08:40:13Z</time>
      </trkpt>
      <trkpt lat="43.60959" lon="2.36768">
        <ele>570.6796875</ele>
        <time>2015-09-13T08:40:19Z</time>
      </trkpt>
      <trkpt lat="43.60956" lon="2.3677">
        <ele>573.5639648</ele>
        <time>2015-09-13T08:40:21Z</time>
      </trkpt>
      <trkpt lat="43.6095" lon="2.36773">
        <ele>574.5251465</ele>
        <time>2015-09-13T08:40:26Z</time>
      </trkpt>
      <trkpt lat="43.60944" lon="2.36772">
        <ele>575.4863281</ele>
        <time>2015-09-13T08:40:30Z</time>
      </trkpt>
      <trkpt lat="43.60932" lon="2.36779">
        <ele>575.967041</ele>
        <time>2015-09-13T08:40:35Z</time>
      </trkpt>
      <trkpt lat="43.60922" lon="2.36789">
        <ele>573.083252</ele>
        <time>2015-09-13T08:40:40Z</time>
      </trkpt>
      <trkpt lat="43.60908" lon="2.36795">
        <ele>572.6025391</ele>
        <time>2015-09-13T08:40:45Z</time>
      </trkpt>
      <trkpt lat="43.60902" lon="2.36808">
        <ele>569.237793</ele>
        <time>2015-09-13T08:40:49Z</time>
      </trkpt>
      <trkpt lat="43.609" lon="2.36829">
        <ele>564.9118652</ele>
        <time>2015-09-13T08:40:55Z</time>
      </trkpt>
      <trkpt lat="43.60905" lon="2.36846">
        <ele>563.9504395</ele>
        <time>2015-09-13T08:41:01Z</time>
      </trkpt>
      <trkpt lat="43.60906" lon="2.36867">
        <ele>566.8344727</ele>
        <time>2015-09-13T08:41:09Z</time>
      </trkpt>
      <trkpt lat="43.60902" lon="2.36883">
        <ele>564.9118652</ele>
        <time>2015-09-13T08:41:15Z</time>
      </trkpt>
      <trkpt lat="43.60901" lon="2.36899">
        <ele>562.9892578</ele>
        <time>2015-09-13T08:41:20Z</time>
      </trkpt>
      <trkpt lat="43.60899" lon="2.36924">
        <ele>564.4311523</ele>
        <time>2015-09-13T08:41:26Z</time>
      </trkpt>
      <trkpt lat="43.60896" lon="2.36958">
        <ele>565.873291</ele>
        <time>2015-09-13T08:41:32Z</time>
      </trkpt>
      <trkpt lat="43.609" lon="2.36972">
        <ele>565.3925781</ele>
        <time>2015-09-13T08:41:35Z</time>
      </trkpt>
      <trkpt lat="43.60896" lon="2.36993">
        <ele>560.5859375</ele>
        <time>2015-09-13T08:41:40Z</time>
      </trkpt>
      <trkpt lat="43.60891" lon="2.37017">
        <ele>558.6633301</ele>
        <time>2015-09-13T08:41:44Z</time>
      </trkpt>
      <trkpt lat="43.6089" lon="2.37042">
        <ele>554.8178711</ele>
        <time>2015-09-13T08:41:48Z</time>
      </trkpt>
      <trkpt lat="43.60895" lon="2.37078">
        <ele>556.7407227</ele>
        <time>2015-09-13T08:41:55Z</time>
      </trkpt>
      <trkpt lat="43.60904" lon="2.37117">
        <ele>562.9892578</ele>
        <time>2015-09-13T08:42:03Z</time>
      </trkpt>
      <trkpt lat="43.6091" lon="2.37146">
        <ele>561.0666504</ele>
        <time>2015-09-13T08:42:09Z</time>
      </trkpt>
      <trkpt lat="43.60916" lon="2.37172">
        <ele>556.2600098</ele>
        <time>2015-09-13T08:42:15Z</time>
      </trkpt>
      <trkpt lat="43.60919" lon="2.37201">
        <ele>558.1828613</ele>
        <time>2015-09-13T08:42:22Z</time>
      </trkpt>
      <trkpt lat="43.6092" lon="2.37224">
        <ele>562.0280762</ele>
        <time>2015-09-13T08:42:27Z</time>
      </trkpt>
      <trkpt lat="43.60925" lon="2.3726">
        <ele>561.0666504</ele>
        <time>2015-09-13T08:42:34Z</time>
      </trkpt>
      <trkpt lat="43.60926" lon="2.37289">
        <ele>559.144043</ele>
        <time>2015-09-13T08:42:40Z</time>
      </trkpt>
      <trkpt lat="43.60922" lon="2.37327">
        <ele>555.298584</ele>
        <time>2015-09-13T08:42:46Z</time>
      </trkpt>
      <trkpt lat="43.60926" lon="2.37381">
        <ele>552.8952637</ele>
        <time>2015-09-13T08:42:55Z</time>
      </trkpt>
      <trkpt lat="43.60927" lon="2.37414">
        <ele>550.9726563</ele>
        <time>2015-09-13T08:43:01Z</time>
      </trkpt>
      <trkpt lat="43.60925" lon="2.37436">
        <ele>552.8952637</ele>
        <time>2015-09-13T08:43:05Z</time>
      </trkpt>
      <trkpt lat="43.60925" lon="2.37474">
        <ele>554.8178711</ele>
        <time>2015-09-13T08:43:12Z</time>
      </trkpt>
      <trkpt lat="43.60932" lon="2.37502">
        <ele>556.7407227</ele>
        <time>2015-09-13T08:43:18Z</time>
      </trkpt>
      <trkpt lat="43.60933" lon="2.37506">
        <ele>556.7407227</ele>
        <time>2015-09-13T08:43:19Z</time>
      </trkpt>
      <trkpt lat="43.60932" lon="2.37527">
        <ele>554.8178711</ele>
        <time>2015-09-13T08:43:24Z</time>
      </trkpt>
      <trkpt lat="43.6093" lon="2.37536">
        <ele>551.4533691</ele>
        <time>2015-09-13T08:43:26Z</time>
      </trkpt>
      <trkpt lat="43.6092" lon="2.37562">
        <ele>553.8566895</ele>
        <time>2015-09-13T08:43:33Z</time>
      </trkpt>
      <trkpt lat="43.60915" lon="2.37587">
        <ele>557.2214355</ele>
        <time>2015-09-13T08:43:39Z</time>
      </trkpt>
      <trkpt lat="43.60913" lon="2.37608">
        <ele>561.5473633</ele>
        <time>2015-09-13T08:43:46Z</time>
      </trkpt>
      <trkpt lat="43.60912" lon="2.37622">
        <ele>562.9892578</ele>
        <time>2015-09-13T08:43:51Z</time>
      </trkpt>
      <trkpt lat="43.60911" lon="2.37637">
        <ele>571.1604004</ele>
        <time>2015-09-13T08:43:57Z</time>
      </trkpt>
      <trkpt lat="43.60912" lon="2.37652">
        <ele>571.1604004</ele>
        <time>2015-09-13T08:44:03Z</time>
      </trkpt>
      <trkpt lat="43.60914" lon="2.3767">
        <ele>573.5639648</ele>
        <time>2015-09-13T08:44:10Z</time>
      </trkpt>
      <trkpt lat="43.60918" lon="2.37688">
        <ele>572.6025391</ele>
        <time>2015-09-13T08:44:17Z</time>
      </trkpt>
      <trkpt lat="43.60925" lon="2.37702">
        <ele>569.7185059</ele>
        <time>2015-09-13T08:44:23Z</time>
      </trkpt>
      <trkpt lat="43.60933" lon="2.37716">
        <ele>568.2763672</ele>
        <time>2015-09-13T08:44:29Z</time>
      </trkpt>
      <trkpt lat="43.60942" lon="2.37735">
        <ele>568.7570801</ele>
        <time>2015-09-13T08:44:36Z</time>
      </trkpt>
      <trkpt lat="43.60952" lon="2.37761">
        <ele>574.5251465</ele>
        <time>2015-09-13T08:44:45Z</time>
      </trkpt>
      <trkpt lat="43.60958" lon="2.37779">
        <ele>575.4863281</ele>
        <time>2015-09-13T08:44:52Z</time>
      </trkpt>
      <trkpt lat="43.60962" lon="2.37797">
        <ele>572.6025391</ele>
        <time>2015-09-13T08:44:59Z</time>
      </trkpt>
      <trkpt lat="43.60963" lon="2.37811">
        <ele>570.6796875</ele>
        <time>2015-09-13T08:45:05Z</time>
      </trkpt>
      <trkpt lat="43.60966" lon="2.37825">
        <ele>569.237793</ele>
        <time>2015-09-13T08:45:11Z</time>
      </trkpt>
      <trkpt lat="43.60968" lon="2.37834">
        <ele>565.873291</ele>
        <time>2015-09-13T08:45:17Z</time>
      </trkpt>
      <trkpt lat="43.60968" lon="2.37835">
        <ele>565.873291</ele>
        <time>2015-09-13T08:45:18Z</time>
      </trkpt>
      <trkpt lat="43.60971" lon="2.37845">
        <ele>565.3925781</ele>
        <time>2015-09-13T08:45:24Z</time>
      </trkpt>
      <trkpt lat="43.60977" lon="2.37855">
        <ele>568.2763672</ele>
        <time>2015-09-13T08:45:29Z</time>
      </trkpt>
      <trkpt lat="43.60976" lon="2.37875">
        <ele>568.2763672</ele>
        <time>2015-09-13T08:45:37Z</time>
      </trkpt>
      <trkpt lat="43.60975" lon="2.37902">
        <ele>568.2763672</ele>
        <time>2015-09-13T08:45:47Z</time>
      </trkpt>
      <trkpt lat="43.60974" lon="2.37926">
        <ele>571.6408691</ele>
        <time>2015-09-13T08:45:56Z</time>
      </trkpt>
      <trkpt lat="43.60974" lon="2.37944">
        <ele>575.0058594</ele>
        <time>2015-09-13T08:46:04Z</time>
      </trkpt>
      <trkpt lat="43.60978" lon="2.37957">
        <ele>575.0058594</ele>
        <time>2015-09-13T08:46:11Z</time>
      </trkpt>
      <trkpt lat="43.60981" lon="2.37975">
        <ele>576.9284668</ele>
        <time>2015-09-13T08:46:18Z</time>
      </trkpt>
      <trkpt lat="43.60984" lon="2.37988">
        <ele>578.8510742</ele>
        <time>2015-09-13T08:46:24Z</time>
      </trkpt>
      <trkpt lat="43.60986" lon="2.38002">
        <ele>583.1767578</ele>
        <time>2015-09-13T08:46:31Z</time>
      </trkpt>
      <trkpt lat="43.60989" lon="2.38018">
        <ele>584.1381836</ele>
        <time>2015-09-13T08:46:39Z</time>
      </trkpt>
      <trkpt lat="43.60992" lon="2.38027">
        <ele>586.060791</ele>
        <time>2015-09-13T08:46:44Z</time>
      </trkpt>
      <trkpt lat="43.60999" lon="2.38041">
        <ele>587.9833984</ele>
        <time>2015-09-13T08:46:51Z</time>
      </trkpt>
      <trkpt lat="43.61006" lon="2.38055">
        <ele>592.3095703</ele>
        <time>2015-09-13T08:46:59Z</time>
      </trkpt>
      <trkpt lat="43.61014" lon="2.38068">
        <ele>594.2321777</ele>
        <time>2015-09-13T08:47:07Z</time>
      </trkpt>
      <trkpt lat="43.61025" lon="2.38082">
        <ele>596.1547852</ele>
        <time>2015-09-13T08:47:16Z</time>
      </trkpt>
      <trkpt lat="43.61037" lon="2.38095">
        <ele>596.635498</ele>
        <time>2015-09-13T08:47:24Z</time>
      </trkpt>
      <trkpt lat="43.61049" lon="2.38105">
        <ele>597.5966797</ele>
        <time>2015-09-13T08:47:31Z</time>
      </trkpt>
      <trkpt lat="43.61057" lon="2.38116">
        <ele>598.5578613</ele>
        <time>2015-09-13T08:47:37Z</time>
      </trkpt>
      <trkpt lat="43.61065" lon="2.38125">
        <ele>600</ele>
        <time>2015-09-13T08:47:43Z</time>
      </trkpt>
      <trkpt lat="43.61076" lon="2.38137">
        <ele>598.5578613</ele>
        <time>2015-09-13T08:47:50Z</time>
      </trkpt>
      <trkpt lat="43.61084" lon="2.38151">
        <ele>597.5966797</ele>
        <time>2015-09-13T08:47:58Z</time>
      </trkpt>
      <trkpt lat="43.61091" lon="2.3817">
        <ele>600.9611816</ele>
        <time>2015-09-13T08:48:06Z</time>
      </trkpt>
      <trkpt lat="43.611" lon="2.38192">
        <ele>602.8837891</ele>
        <time>2015-09-13T08:48:15Z</time>
      </trkpt>
      <trkpt lat="43.61109" lon="2.38213">
        <ele>605.2873535</ele>
        <time>2015-09-13T08:48:24Z</time>
      </trkpt>
      <trkpt lat="43.61118" lon="2.38225">
        <ele>606.2485352</ele>
        <time>2015-09-13T08:48:30Z</time>
      </trkpt>
      <trkpt lat="43.61129" lon="2.38237">
        <ele>603.364502</ele>
        <time>2015-09-13T08:48:37Z</time>
      </trkpt>
      <trkpt lat="43.61137" lon="2.38255">
        <ele>603.364502</ele>
        <time>2015-09-13T08:48:44Z</time>
      </trkpt>
      <trkpt lat="43.61144" lon="2.38274">
        <ele>606.2485352</ele>
        <time>2015-09-13T08:48:51Z</time>
      </trkpt>
      <trkpt lat="43.61151" lon="2.38296">
        <ele>607.6906738</ele>
        <time>2015-09-13T08:48:57Z</time>
      </trkpt>
      <trkpt lat="43.61162" lon="2.38324">
        <ele>607.6906738</ele>
        <time>2015-09-13T08:49:04Z</time>
      </trkpt>
      <trkpt lat="43.61172" lon="2.38345">
        <ele>597.5966797</ele>
        <time>2015-09-13T08:49:10Z</time>
      </trkpt>
      <trkpt lat="43.61183" lon="2.38366">
        <ele>597.5966797</ele>
        <time>2015-09-13T08:49:16Z</time>
      </trkpt>
      <trkpt lat="43.61197" lon="2.38394">
        <ele>599.5192871</ele>
        <time>2015-09-13T08:49:23Z</time>
      </trkpt>
      <trkpt lat="43.6121" lon="2.38422">
        <ele>600.4807129</ele>
        <time>2015-09-13T08:49:30Z</time>
      </trkpt>
      <trkpt lat="43.61218" lon="2.38452">
        <ele>602.4030762</ele>
        <time>2015-09-13T08:49:37Z</time>
      </trkpt>
      <trkpt lat="43.61217" lon="2.3848">
        <ele>602.8837891</ele>
        <time>2015-09-13T08:49:42Z</time>
      </trkpt>
      <trkpt lat="43.61219" lon="2.38506">
        <ele>601.9226074</ele>
        <time>2015-09-13T08:49:47Z</time>
      </trkpt>
      <trkpt lat="43.61227" lon="2.38535">
        <ele>605.2873535</ele>
        <time>2015-09-13T08:49:53Z</time>
      </trkpt>
      <trkpt lat="43.61238" lon="2.3858">
        <ele>612.0166016</ele>
        <time>2015-09-13T08:50:01Z</time>
      </trkpt>
      <trkpt lat="43.61241" lon="2.38592">
        <ele>611.5358887</ele>
        <time>2015-09-13T08:50:03Z</time>
      </trkpt>
      <trkpt lat="43.6125" lon="2.38615">
        <ele>608.6518555</ele>
        <time>2015-09-13T08:50:07Z</time>
      </trkpt>
      <trkpt lat="43.61268" lon="2.38657">
        <ele>607.2099609</ele>
        <time>2015-09-13T08:50:14Z</time>
      </trkpt>
      <trkpt lat="43.6127" lon="2.38661">
        <ele>606.2485352</ele>
        <time>2015-09-13T08:50:15Z</time>
      </trkpt>
      <trkpt lat="43.61271" lon="2.38684">
        <ele>603.364502</ele>
        <time>2015-09-13T08:50:19Z</time>
      </trkpt>
      <trkpt lat="43.61274" lon="2.38719">
        <ele>601.9226074</ele>
        <time>2015-09-13T08:50:24Z</time>
      </trkpt>
      <trkpt lat="43.61275" lon="2.38723">
        <ele>600.4807129</ele>
        <time>2015-09-13T08:50:25Z</time>
      </trkpt>
      <trkpt lat="43.61276" lon="2.38736">
        <ele>603.8452148</ele>
        <time>2015-09-13T08:50:31Z</time>
      </trkpt>
      <trkpt lat="43.61276" lon="2.38739">
        <ele>604.8066406</ele>
        <time>2015-09-13T08:50:34Z</time>
      </trkpt>
      <trkpt lat="43.61276" lon="2.38741">
        <ele>598.0773926</ele>
        <time>2015-09-13T08:50:39Z</time>
      </trkpt>
      <trkpt lat="43.61276" lon="2.38748">
        <ele>596.1547852</ele>
        <time>2015-09-13T08:50:43Z</time>
      </trkpt>
      <trkpt lat="43.61279" lon="2.38765">
        <ele>597.5966797</ele>
        <time>2015-09-13T08:50:48Z</time>
      </trkpt>
      <trkpt lat="43.61287" lon="2.38784">
        <ele>596.635498</ele>
        <time>2015-09-13T08:50:52Z</time>
      </trkpt>
      <trkpt lat="43.6129" lon="2.38815">
        <ele>597.5966797</ele>
        <time>2015-09-13T08:50:58Z</time>
      </trkpt>
      <trkpt lat="43.61294" lon="2.38841">
        <ele>595.6740723</ele>
        <time>2015-09-13T08:51:03Z</time>
      </trkpt>
      <trkpt lat="43.61294" lon="2.3886">
        <ele>591.3481445</ele>
        <time>2015-09-13T08:51:07Z</time>
      </trkpt>
      <trkpt lat="43.61293" lon="2.38887">
        <ele>584.6188965</ele>
        <time>2015-09-13T08:51:12Z</time>
      </trkpt>
      <trkpt lat="43.61293" lon="2.38918">
        <ele>591.3481445</ele>
        <time>2015-09-13T08:51:18Z</time>
      </trkpt>
      <trkpt lat="43.61295" lon="2.3893">
        <ele>593.7514648</ele>
        <time>2015-09-13T08:51:20Z</time>
      </trkpt>
      <trkpt lat="43.6129" lon="2.38961">
        <ele>594.2321777</ele>
        <time>2015-09-13T08:51:25Z</time>
      </trkpt>
      <trkpt lat="43.61289" lon="2.38966">
        <ele>593.7514648</ele>
        <time>2015-09-13T08:51:26Z</time>
      </trkpt>
      <trkpt lat="43.61278" lon="2.38992">
        <ele>600</ele>
        <time>2015-09-13T08:51:31Z</time>
      </trkpt>
      <trkpt lat="43.61271" lon="2.39023">
        <ele>597.5966797</ele>
        <time>2015-09-13T08:51:36Z</time>
      </trkpt>
      <trkpt lat="43.6127" lon="2.39029">
        <ele>596.1547852</ele>
        <time>2015-09-13T08:51:37Z</time>
      </trkpt>
      <trkpt lat="43.61268" lon="2.3904">
        <ele>597.5966797</ele>
        <time>2015-09-13T08:51:39Z</time>
      </trkpt>
      <trkpt lat="43.61264" lon="2.39078">
        <ele>597.5966797</ele>
        <time>2015-09-13T08:51:45Z</time>
      </trkpt>
      <trkpt lat="43.61263" lon="2.39084">
        <ele>597.5966797</ele>
        <time>2015-09-13T08:51:46Z</time>
      </trkpt>
      <trkpt lat="43.61257" lon="2.39106">
        <ele>594.7126465</ele>
        <time>2015-09-13T08:51:50Z</time>
      </trkpt>
      <trkpt lat="43.61254" lon="2.39135">
        <ele>591.8288574</ele>
        <time>2015-09-13T08:51:56Z</time>
      </trkpt>
      <trkpt lat="43.61252" lon="2.39152">
        <ele>589.4255371</ele>
        <time>2015-09-13T08:52:02Z</time>
      </trkpt>
      <trkpt lat="43.61249" lon="2.39163">
        <ele>586.060791</ele>
        <time>2015-09-13T08:52:07Z</time>
      </trkpt>
      <trkpt lat="43.61245" lon="2.39189">
        <ele>583.1767578</ele>
        <time>2015-09-13T08:52:12Z</time>
      </trkpt>
      <trkpt lat="43.61237" lon="2.39224">
        <ele>582.6962891</ele>
        <time>2015-09-13T08:52:18Z</time>
      </trkpt>
      <trkpt lat="43.6123" lon="2.39248">
        <ele>582.6962891</ele>
        <time>2015-09-13T08:52:22Z</time>
      </trkpt>
      <trkpt lat="43.61226" lon="2.39263">
        <ele>581.2543945</ele>
        <time>2015-09-13T08:52:25Z</time>
      </trkpt>
      <trkpt lat="43.61221" lon="2.39287">
        <ele>582.6962891</ele>
        <time>2015-09-13T08:52:30Z</time>
      </trkpt>
      <trkpt lat="43.61218" lon="2.3929">
        <ele>582.6962891</ele>
        <time>2015-09-13T08:52:31Z</time>
      </trkpt>
      <trkpt lat="43.61203" lon="2.39315">
        <ele>580.2929688</ele>
        <time>2015-09-13T08:52:38Z</time>
      </trkpt>
      <trkpt lat="43.61196" lon="2.39339">
        <ele>587.5026855</ele>
        <time>2015-09-13T08:52:44Z</time>
      </trkpt>
      <trkpt lat="43.61189" lon="2.39359">
        <ele>588.4643555</ele>
        <time>2015-09-13T08:52:50Z</time>
      </trkpt>
      <trkpt lat="43.61187" lon="2.39373">
        <ele>594.2321777</ele>
        <time>2015-09-13T08:52:55Z</time>
      </trkpt>
      <trkpt lat="43.61188" lon="2.39377">
        <ele>592.7902832</ele>
        <time>2015-09-13T08:53:00Z</time>
      </trkpt>
      <trkpt lat="43.61187" lon="2.39379">
        <ele>591.3481445</ele>
        <time>2015-09-13T08:53:01Z</time>
      </trkpt>
      <trkpt lat="43.61185" lon="2.394">
        <ele>592.3095703</ele>
        <time>2015-09-13T08:53:07Z</time>
      </trkpt>
      <trkpt lat="43.61184" lon="2.39403">
        <ele>592.7902832</ele>
        <time>2015-09-13T08:53:08Z</time>
      </trkpt>
      <trkpt lat="43.61176" lon="2.39428">
        <ele>596.635498</ele>
        <time>2015-09-13T08:53:16Z</time>
      </trkpt>
      <trkpt lat="43.61165" lon="2.3945">
        <ele>608.1713867</ele>
        <time>2015-09-13T08:53:22Z</time>
      </trkpt>
      <trkpt lat="43.61159" lon="2.39471">
        <ele>600.9611816</ele>
        <time>2015-09-13T08:53:27Z</time>
      </trkpt>
      <trkpt lat="43.6115" lon="2.39507">
        <ele>591.8288574</ele>
        <time>2015-09-13T08:53:34Z</time>
      </trkpt>
      <trkpt lat="43.61145" lon="2.3953">
        <ele>588.9450684</ele>
        <time>2015-09-13T08:53:38Z</time>
      </trkpt>
      <trkpt lat="43.61132" lon="2.3956">
        <ele>589.90625</ele>
        <time>2015-09-13T08:53:44Z</time>
      </trkpt>
      <trkpt lat="43.61123" lon="2.39569">
        <ele>587.9833984</ele>
        <time>2015-09-13T08:53:49Z</time>
      </trkpt>
      <trkpt lat="43.61117" lon="2.39567">
        <ele>585.0996094</ele>
        <time>2015-09-13T08:53:55Z</time>
      </trkpt>
      <trkpt lat="43.61117" lon="2.39566">
        <ele>587.0219727</ele>
        <time>2015-09-13T08:54:01Z</time>
      </trkpt>
      <trkpt lat="43.61117" lon="2.39566">
        <ele>589.4255371</ele>
        <time>2015-09-13T08:54:10Z</time>
      </trkpt>
      <trkpt lat="43.61113" lon="2.39565">
        <ele>590.8674316</ele>
        <time>2015-09-13T08:54:15Z</time>
      </trkpt>
      <trkpt lat="43.6111" lon="2.39563">
        <ele>591.8288574</ele>
        <time>2015-09-13T08:54:19Z</time>
      </trkpt>
      <trkpt lat="43.61101" lon="2.39541">
        <ele>587.0219727</ele>
        <time>2015-09-13T08:54:25Z</time>
      </trkpt>
      <trkpt lat="43.61096" lon="2.39528">
        <ele>587.5026855</ele>
        <time>2015-09-13T08:54:27Z</time>
      </trkpt>
      <trkpt lat="43.61088" lon="2.39504">
        <ele>584.6188965</ele>
        <time>2015-09-13T08:54:32Z</time>
      </trkpt>
      <trkpt lat="43.61086" lon="2.39498">
        <ele>583.6574707</ele>
        <time>2015-09-13T08:54:33Z</time>
      </trkpt>
      <trkpt lat="43.61087" lon="2.39471">
        <ele>577.8896484</ele>
        <time>2015-09-13T08:54:37Z</time>
      </trkpt>
      <trkpt lat="43.61088" lon="2.39466">
        <ele>576.4477539</ele>
        <time>2015-09-13T08:54:38Z</time>
      </trkpt>
      <trkpt lat="43.61093" lon="2.3945">
        <ele>581.7348633</ele>
        <time>2015-09-13T08:54:41Z</time>
      </trkpt>
      <trkpt lat="43.61092" lon="2.39434">
        <ele>578.3703613</ele>
        <time>2015-09-13T08:54:44Z</time>
      </trkpt>
      <trkpt lat="43.61088" lon="2.39418">
        <ele>574.0444336</ele>
        <time>2015-09-13T08:54:49Z</time>
      </trkpt>
      <trkpt lat="43.61084" lon="2.39411">
        <ele>566.8344727</ele>
        <time>2015-09-13T08:54:55Z</time>
      </trkpt>
      <trkpt lat="43.61081" lon="2.39406">
        <ele>571.1604004</ele>
        <time>2015-09-13T08:55:00Z</time>
      </trkpt>
      <trkpt lat="43.6108" lon="2.39406">
        <ele>574.5251465</ele>
        <time>2015-09-13T08:55:01Z</time>
      </trkpt>
      <trkpt lat="43.61078" lon="2.39396">
        <ele>575.4863281</ele>
        <time>2015-09-13T08:55:06Z</time>
      </trkpt>
      <trkpt lat="43.61077" lon="2.39352">
        <ele>575.967041</ele>
        <time>2015-09-13T08:55:14Z</time>
      </trkpt>
      <trkpt lat="43.6108" lon="2.39338">
        <ele>575.0058594</ele>
        <time>2015-09-13T08:55:18Z</time>
      </trkpt>
      <trkpt lat="43.61083" lon="2.39316">
        <ele>572.6025391</ele>
        <time>2015-09-13T08:55:25Z</time>
      </trkpt>
      <trkpt lat="43.61081" lon="2.39291">
        <ele>571.6408691</ele>
        <time>2015-09-13T08:55:33Z</time>
      </trkpt>
      <trkpt lat="43.61081" lon="2.3927">
        <ele>569.7185059</ele>
        <time>2015-09-13T08:55:40Z</time>
      </trkpt>
      <trkpt lat="43.61077" lon="2.39254">
        <ele>571.6408691</ele>
        <time>2015-09-13T08:55:47Z</time>
      </trkpt>
      <trkpt lat="43.61072" lon="2.39246">
        <ele>570.6796875</ele>
        <time>2015-09-13T08:55:52Z</time>
      </trkpt>
      <trkpt lat="43.61069" lon="2.39242">
        <ele>568.7570801</ele>
        <time>2015-09-13T08:55:57Z</time>
      </trkpt>
      <trkpt lat="43.61065" lon="2.3924">
        <ele>570.6796875</ele>
        <time>2015-09-13T08:56:09Z</time>
      </trkpt>
      <trkpt lat="43.61063" lon="2.39235">
        <ele>568.2763672</ele>
        <time>2015-09-13T08:56:14Z</time>
      </trkpt>
      <trkpt lat="43.6106" lon="2.39233">
        <ele>566.8344727</ele>
        <time>2015-09-13T08:56:17Z</time>
      </trkpt>
      <trkpt lat="43.61048" lon="2.39218">
        <ele>561.5473633</ele>
        <time>2015-09-13T08:56:22Z</time>
      </trkpt>
      <trkpt lat="43.61044" lon="2.39215">
        <ele>559.6247559</ele>
        <time>2015-09-13T08:56:24Z</time>
      </trkpt>
      <trkpt lat="43.61033" lon="2.39206">
        <ele>559.6247559</ele>
        <time>2015-09-13T08:56:30Z</time>
      </trkpt>
      <trkpt lat="43.61028" lon="2.39202">
        <ele>555.7792969</ele>
        <time>2015-09-13T08:56:35Z</time>
      </trkpt>
      <trkpt lat="43.61024" lon="2.39198">
        <ele>552.8952637</ele>
        <time>2015-09-13T08:56:40Z</time>
      </trkpt>
      <trkpt lat="43.61011" lon="2.39184">
        <ele>550.0114746</ele>
        <time>2015-09-13T08:56:44Z</time>
      </trkpt>
      <trkpt lat="43.61007" lon="2.39168">
        <ele>546.6468506</ele>
        <time>2015-09-13T08:56:48Z</time>
      </trkpt>
      <trkpt lat="43.61" lon="2.39146">
        <ele>546.1662598</ele>
        <time>2015-09-13T08:56:54Z</time>
      </trkpt>
      <trkpt lat="43.60984" lon="2.39139">
        <ele>541.3594971</ele>
        <time>2015-09-13T08:56:59Z</time>
      </trkpt>
      <trkpt lat="43.60966" lon="2.39138">
        <ele>536.5531006</ele>
        <time>2015-09-13T08:57:04Z</time>
      </trkpt>
      <trkpt lat="43.60955" lon="2.3915">
        <ele>535.1109619</ele>
        <time>2015-09-13T08:57:09Z</time>
      </trkpt>
      <trkpt lat="43.60949" lon="2.39167">
        <ele>530.3044434</ele>
        <time>2015-09-13T08:57:13Z</time>
      </trkpt>
      <trkpt lat="43.60947" lon="2.39172">
        <ele>530.3044434</ele>
        <time>2015-09-13T08:57:15Z</time>
      </trkpt>
      <trkpt lat="43.60936" lon="2.39188">
        <ele>535.1109619</ele>
        <time>2015-09-13T08:57:22Z</time>
      </trkpt>
      <trkpt lat="43.60923" lon="2.39197">
        <ele>538.9562988</ele>
        <time>2015-09-13T08:57:27Z</time>
      </trkpt>
      <trkpt lat="43.6092" lon="2.39194">
        <ele>538.9562988</ele>
        <time>2015-09-13T08:57:33Z</time>
      </trkpt>
      <trkpt lat="43.60917" lon="2.39199">
        <ele>558.6633301</ele>
        <time>2015-09-13T08:57:52Z</time>
      </trkpt>
      <trkpt lat="43.6091" lon="2.39202">
        <ele>560.5859375</ele>
        <time>2015-09-13T08:57:57Z</time>
      </trkpt>
      <trkpt lat="43.60897" lon="2.39209">
        <ele>559.144043</ele>
        <time>2015-09-13T08:58:02Z</time>
      </trkpt>
      <trkpt lat="43.60882" lon="2.39217">
        <ele>562.0280762</ele>
        <time>2015-09-13T08:58:06Z</time>
      </trkpt>
      <trkpt lat="43.60879" lon="2.39218">
        <ele>562.0280762</ele>
        <time>2015-09-13T08:58:07Z</time>
      </trkpt>
      <trkpt lat="43.60867" lon="2.39236">
        <ele>561.0666504</ele>
        <time>2015-09-13T08:58:12Z</time>
      </trkpt>
      <trkpt lat="43.60852" lon="2.39256">
        <ele>554.8178711</ele>
        <time>2015-09-13T08:58:17Z</time>
      </trkpt>
      <trkpt lat="43.60847" lon="2.39258">
        <ele>553.8566895</ele>
        <time>2015-09-13T08:58:18Z</time>
      </trkpt>
      <trkpt lat="43.60834" lon="2.39262">
        <ele>556.2600098</ele>
        <time>2015-09-13T08:58:21Z</time>
      </trkpt>
      <trkpt lat="43.60824" lon="2.39275">
        <ele>551.934082</ele>
        <time>2015-09-13T08:58:25Z</time>
      </trkpt>
      <trkpt lat="43.6082" lon="2.39285">
        <ele>550.0114746</ele>
        <time>2015-09-13T08:58:27Z</time>
      </trkpt>
      <trkpt lat="43.6081" lon="2.39309">
        <ele>546.1662598</ele>
        <time>2015-09-13T08:58:32Z</time>
      </trkpt>
      <trkpt lat="43.60803" lon="2.39317">
        <ele>545.204834</ele>
        <time>2015-09-13T08:58:34Z</time>
      </trkpt>
      <trkpt lat="43.60792" lon="2.39331">
        <ele>543.2821045</ele>
        <time>2015-09-13T08:58:39Z</time>
      </trkpt>
      <trkpt lat="43.60791" lon="2.39345">
        <ele>540.3983154</ele>
        <time>2015-09-13T08:58:44Z</time>
      </trkpt>
      <trkpt lat="43.60788" lon="2.39345">
        <ele>540.3983154</ele>
        <time>2015-09-13T08:58:46Z</time>
      </trkpt>
      <trkpt lat="43.60781" lon="2.39344">
        <ele>539.9176025</ele>
        <time>2015-09-13T08:58:52Z</time>
      </trkpt>
      <trkpt lat="43.60777" lon="2.39346">
        <ele>535.1109619</ele>
        <time>2015-09-13T08:58:55Z</time>
      </trkpt>
      <trkpt lat="43.60776" lon="2.39358">
        <ele>530.3044434</ele>
        <time>2015-09-13T08:59:00Z</time>
      </trkpt>
      <trkpt lat="43.60776" lon="2.39361">
        <ele>527.901001</ele>
        <time>2015-09-13T08:59:01Z</time>
      </trkpt>
      <trkpt lat="43.6078" lon="2.39372">
        <ele>522.1331787</ele>
        <time>2015-09-13T08:59:06Z</time>
      </trkpt>
      <trkpt lat="43.60779" lon="2.39378">
        <ele>519.2492676</ele>
        <time>2015-09-13T08:59:11Z</time>
      </trkpt>
      <trkpt lat="43.60778" lon="2.39384">
        <ele>529.3431396</ele>
        <time>2015-09-13T08:59:23Z</time>
      </trkpt>
      <trkpt lat="43.60774" lon="2.39386">
        <ele>533.6689453</ele>
        <time>2015-09-13T08:59:28Z</time>
      </trkpt>
      <trkpt lat="43.60771" lon="2.3939">
        <ele>536.5531006</ele>
        <time>2015-09-13T08:59:34Z</time>
      </trkpt>
      <trkpt lat="43.6077" lon="2.3939">
        <ele>535.5915527</ele>
        <time>2015-09-13T08:59:36Z</time>
      </trkpt>
      <trkpt lat="43.60763" lon="2.39395">
        <ele>543.2821045</ele>
        <time>2015-09-13T08:59:44Z</time>
      </trkpt>
      <trkpt lat="43.60765" lon="2.394">
        <ele>536.5531006</ele>
        <time>2015-09-13T08:59:52Z</time>
      </trkpt>
      <trkpt lat="43.60766" lon="2.39413">
        <ele>531.2657471</ele>
        <time>2015-09-13T09:00:10Z</time>
      </trkpt>
      <trkpt lat="43.60764" lon="2.39415">
        <ele>528.3818359</ele>
        <time>2015-09-13T09:00:15Z</time>
      </trkpt>
      <trkpt lat="43.60759" lon="2.39406">
        <ele>520.6912842</ele>
        <time>2015-09-13T09:01:39Z</time>
      </trkpt>
      <trkpt lat="43.60746" lon="2.39394">
        <ele>520.2105713</ele>
        <time>2015-09-13T09:01:47Z</time>
      </trkpt>
      <trkpt lat="43.60735" lon="2.39387">
        <ele>516.8459473</ele>
        <time>2015-09-13T09:01:51Z</time>
      </trkpt>
      <trkpt lat="43.60718" lon="2.39379">
        <ele>514.9233398</ele>
        <time>2015-09-13T09:01:56Z</time>
      </trkpt>
      <trkpt lat="43.60699" lon="2.39363">
        <ele>509.1553955</ele>
        <time>2015-09-13T09:02:00Z</time>
      </trkpt>
      <trkpt lat="43.60684" lon="2.39336">
        <ele>509.1553955</ele>
        <time>2015-09-13T09:02:04Z</time>
      </trkpt>
      <trkpt lat="43.60676" lon="2.39305">
        <ele>507.713501</ele>
        <time>2015-09-13T09:02:08Z</time>
      </trkpt>
      <trkpt lat="43.60676" lon="2.39283">
        <ele>505.3101807</ele>
        <time>2015-09-13T09:02:11Z</time>
      </trkpt>
      <trkpt lat="43.6068" lon="2.39228">
        <ele>496.1777344</ele>
        <time>2015-09-13T09:02:17Z</time>
      </trkpt>
      <trkpt lat="43.60683" lon="2.39209">
        <ele>493.774292</ele>
        <time>2015-09-13T09:02:19Z</time>
      </trkpt>
      <trkpt lat="43.607" lon="2.3916">
        <ele>490.8903809</ele>
        <time>2015-09-13T09:02:24Z</time>
      </trkpt>
      <trkpt lat="43.60704" lon="2.39128">
        <ele>487.0450439</ele>
        <time>2015-09-13T09:02:28Z</time>
      </trkpt>
      <trkpt lat="43.60697" lon="2.39118">
        <ele>488.4871826</ele>
        <time>2015-09-13T09:02:30Z</time>
      </trkpt>
      <trkpt lat="43.60682" lon="2.39104">
        <ele>490.40979</ele>
        <time>2015-09-13T09:02:33Z</time>
      </trkpt>
      <trkpt lat="43.60656" lon="2.39089">
        <ele>492.3323975</ele>
        <time>2015-09-13T09:02:38Z</time>
      </trkpt>
      <trkpt lat="43.6063" lon="2.39091">
        <ele>498.5809326</ele>
        <time>2015-09-13T09:02:45Z</time>
      </trkpt>
      <trkpt lat="43.60608" lon="2.39088">
        <ele>500.0229492</ele>
        <time>2015-09-13T09:02:52Z</time>
      </trkpt>
      <trkpt lat="43.60583" lon="2.39084">
        <ele>499.5422363</ele>
        <time>2015-09-13T09:03:00Z</time>
      </trkpt>
      <trkpt lat="43.60571" lon="2.39082">
        <ele>499.5422363</ele>
        <time>2015-09-13T09:03:06Z</time>
      </trkpt>
      <trkpt lat="43.60557" lon="2.39081">
        <ele>500.50354</ele>
        <time>2015-09-13T09:03:11Z</time>
      </trkpt>
      <trkpt lat="43.60543" lon="2.39081">
        <ele>500.50354</ele>
        <time>2015-09-13T09:03:16Z</time>
      </trkpt>
      <trkpt lat="43.60521" lon="2.39084">
        <ele>501.9455566</ele>
        <time>2015-09-13T09:03:23Z</time>
      </trkpt>
      <trkpt lat="43.60504" lon="2.39084">
        <ele>502.9067383</ele>
        <time>2015-09-13T09:03:30Z</time>
      </trkpt>
      <trkpt lat="43.60499" lon="2.39083">
        <ele>502.4261475</ele>
        <time>2015-09-13T09:03:32Z</time>
      </trkpt>
      <trkpt lat="43.6048" lon="2.39083">
        <ele>502.4261475</ele>
        <time>2015-09-13T09:03:39Z</time>
      </trkpt>
      <trkpt lat="43.60466" lon="2.39084">
        <ele>505.3101807</ele>
        <time>2015-09-13T09:03:43Z</time>
      </trkpt>
      <trkpt lat="43.60448" lon="2.39084">
        <ele>508.6746826</ele>
        <time>2015-09-13T09:03:48Z</time>
      </trkpt>
      <trkpt lat="43.60429" lon="2.39079">
        <ele>510.59729</ele>
        <time>2015-09-13T09:03:52Z</time>
      </trkpt>
      <trkpt lat="43.60408" lon="2.39064">
        <ele>509.6361084</ele>
        <time>2015-09-13T09:03:56Z</time>
      </trkpt>
      <trkpt lat="43.60384" lon="2.39062">
        <ele>508.6746826</ele>
        <time>2015-09-13T09:04:00Z</time>
      </trkpt>
      <trkpt lat="43.60374" lon="2.39056">
        <ele>507.713501</ele>
        <time>2015-09-13T09:04:04Z</time>
      </trkpt>
      <trkpt lat="43.60375" lon="2.39055">
        <ele>507.713501</ele>
        <time>2015-09-13T09:04:06Z</time>
      </trkpt>
      <trkpt lat="43.60387" lon="2.39053">
        <ele>507.713501</ele>
        <time>2015-09-13T09:04:13Z</time>
      </trkpt>
      <trkpt lat="43.6039" lon="2.39052">
        <ele>510.1166992</ele>
        <time>2015-09-13T09:04:15Z</time>
      </trkpt>
      <trkpt lat="43.604" lon="2.39052">
        <ele>510.59729</ele>
        <time>2015-09-13T09:04:22Z</time>
      </trkpt>
      <trkpt lat="43.60413" lon="2.39056">
        <ele>515.4040527</ele>
        <time>2015-09-13T09:04:29Z</time>
      </trkpt>
      <trkpt lat="43.60422" lon="2.39058">
        <ele>517.807251</ele>
        <time>2015-09-13T09:04:35Z</time>
      </trkpt>
      <trkpt lat="43.60428" lon="2.39061">
        <ele>519.2492676</ele>
        <time>2015-09-13T09:04:39Z</time>
      </trkpt>
      <trkpt lat="43.60443" lon="2.39066">
        <ele>521.1719971</ele>
        <time>2015-09-13T09:04:47Z</time>
      </trkpt>
      <trkpt lat="43.60452" lon="2.39068">
        <ele>526.4591064</ele>
        <time>2015-09-13T09:04:52Z</time>
      </trkpt>
      <trkpt lat="43.60461" lon="2.39069">
        <ele>529.3431396</ele>
        <time>2015-09-13T09:04:56Z</time>
      </trkpt>
      <trkpt lat="43.60478" lon="2.39063">
        <ele>525.0172119</ele>
        <time>2015-09-13T09:05:04Z</time>
      </trkpt>
      <trkpt lat="43.60492" lon="2.3905">
        <ele>521.1719971</ele>
        <time>2015-09-13T09:05:11Z</time>
      </trkpt>
      <trkpt lat="43.605" lon="2.39038">
        <ele>528.8625488</ele>
        <time>2015-09-13T09:05:16Z</time>
      </trkpt>
      <trkpt lat="43.6051" lon="2.39024">
        <ele>528.3818359</ele>
        <time>2015-09-13T09:05:23Z</time>
      </trkpt>
      <trkpt lat="43.60518" lon="2.39012">
        <ele>526.9398193</ele>
        <time>2015-09-13T09:05:29Z</time>
      </trkpt>
      <trkpt lat="43.60525" lon="2.39004">
        <ele>527.901001</ele>
        <time>2015-09-13T09:05:34Z</time>
      </trkpt>
      <trkpt lat="43.6053" lon="2.38996">
        <ele>527.901001</ele>
        <time>2015-09-13T09:05:38Z</time>
      </trkpt>
      <trkpt lat="43.60543" lon="2.38976">
        <ele>523.0946045</ele>
        <time>2015-09-13T09:05:47Z</time>
      </trkpt>
      <trkpt lat="43.60553" lon="2.38963">
        <ele>521.6525879</ele>
        <time>2015-09-13T09:05:54Z</time>
      </trkpt>
      <trkpt lat="43.60565" lon="2.38946">
        <ele>523.0946045</ele>
        <time>2015-09-13T09:06:03Z</time>
      </trkpt>
      <trkpt lat="43.60577" lon="2.38929">
        <ele>525.0172119</ele>
        <time>2015-09-13T09:06:12Z</time>
      </trkpt>
      <trkpt lat="43.60585" lon="2.38917">
        <ele>528.8625488</ele>
        <time>2015-09-13T09:06:19Z</time>
      </trkpt>
      <trkpt lat="43.60597" lon="2.38901">
        <ele>535.1109619</ele>
        <time>2015-09-13T09:06:28Z</time>
      </trkpt>
      <trkpt lat="43.60607" lon="2.38889">
        <ele>535.5915527</ele>
        <time>2015-09-13T09:06:35Z</time>
      </trkpt>
      <trkpt lat="43.60616" lon="2.38874">
        <ele>538.475708</ele>
        <time>2015-09-13T09:06:42Z</time>
      </trkpt>
      <trkpt lat="43.60628" lon="2.38859">
        <ele>537.5142822</ele>
        <time>2015-09-13T09:06:50Z</time>
      </trkpt>
      <trkpt lat="43.60637" lon="2.38846">
        <ele>545.6855469</ele>
        <time>2015-09-13T09:06:56Z</time>
      </trkpt>
      <trkpt lat="43.60648" lon="2.38831">
        <ele>546.6468506</ele>
        <time>2015-09-13T09:07:03Z</time>
      </trkpt>
      <trkpt lat="43.60651" lon="2.38826">
        <ele>545.204834</ele>
        <time>2015-09-13T09:07:05Z</time>
      </trkpt>
      <trkpt lat="43.60656" lon="2.38819">
        <ele>546.6468506</ele>
        <time>2015-09-13T09:07:09Z</time>
      </trkpt>
      <trkpt lat="43.60667" lon="2.38803">
        <ele>560.5859375</ele>
        <time>2015-09-13T09:07:16Z</time>
      </trkpt>
      <trkpt lat="43.60676" lon="2.38791">
        <ele>560.5859375</ele>
        <time>2015-09-13T09:07:23Z</time>
      </trkpt>
      <trkpt lat="43.60685" lon="2.38779">
        <ele>550.9726563</ele>
        <time>2015-09-13T09:07:30Z</time>
      </trkpt>
      <trkpt lat="43.60689" lon="2.3877">
        <ele>546.1662598</ele>
        <time>2015-09-13T09:07:35Z</time>
      </trkpt>
      <trkpt lat="43.60699" lon="2.38752">
        <ele>545.6855469</ele>
        <time>2015-09-13T09:07:42Z</time>
      </trkpt>
      <trkpt lat="43.60707" lon="2.38737">
        <ele>539.9176025</ele>
        <time>2015-09-13T09:07:48Z</time>
      </trkpt>
      <trkpt lat="43.60717" lon="2.38724">
        <ele>543.7628174</ele>
        <time>2015-09-13T09:07:54Z</time>
      </trkpt>
      <trkpt lat="43.60729" lon="2.38709">
        <ele>550.0114746</ele>
        <time>2015-09-13T09:08:01Z</time>
      </trkpt>
      <trkpt lat="43.60738" lon="2.38698">
        <ele>553.8566895</ele>
        <time>2015-09-13T09:08:07Z</time>
      </trkpt>
      <trkpt lat="43.60755" lon="2.38683">
        <ele>554.8178711</ele>
        <time>2015-09-13T09:08:15Z</time>
      </trkpt>
      <trkpt lat="43.60761" lon="2.38674">
        <ele>555.298584</ele>
        <time>2015-09-13T09:08:19Z</time>
      </trkpt>
      <trkpt lat="43.60772" lon="2.38659">
        <ele>549.0500488</ele>
        <time>2015-09-13T09:08:26Z</time>
      </trkpt>
      <trkpt lat="43.60781" lon="2.38645">
        <ele>550.0114746</ele>
        <time>2015-09-13T09:08:31Z</time>
      </trkpt>
      <trkpt lat="43.60792" lon="2.38628">
        <ele>564.4311523</ele>
        <time>2015-09-13T09:08:37Z</time>
      </trkpt>
      <trkpt lat="43.60801" lon="2.3861">
        <ele>556.2600098</ele>
        <time>2015-09-13T09:08:43Z</time>
      </trkpt>
      <trkpt lat="43.60807" lon="2.38593">
        <ele>546.6468506</ele>
        <time>2015-09-13T09:08:48Z</time>
      </trkpt>
      <trkpt lat="43.60807" lon="2.38573">
        <ele>551.4533691</ele>
        <time>2015-09-13T09:08:53Z</time>
      </trkpt>
      <trkpt lat="43.60807" lon="2.38555">
        <ele>556.7407227</ele>
        <time>2015-09-13T09:08:58Z</time>
      </trkpt>
      <trkpt lat="43.60804" lon="2.38532">
        <ele>561.0666504</ele>
        <time>2015-09-13T09:09:04Z</time>
      </trkpt>
      <trkpt lat="43.60793" lon="2.38518">
        <ele>565.3925781</ele>
        <time>2015-09-13T09:09:09Z</time>
      </trkpt>
      <trkpt lat="43.60781" lon="2.38509">
        <ele>569.237793</ele>
        <time>2015-09-13T09:09:15Z</time>
      </trkpt>
      <trkpt lat="43.60768" lon="2.385">
        <ele>571.1604004</ele>
        <time>2015-09-13T09:09:21Z</time>
      </trkpt>
      <trkpt lat="43.60761" lon="2.38486">
        <ele>569.7185059</ele>
        <time>2015-09-13T09:09:27Z</time>
      </trkpt>
      <trkpt lat="43.6076" lon="2.38484">
        <ele>568.7570801</ele>
        <time>2015-09-13T09:09:28Z</time>
      </trkpt>
      <trkpt lat="43.60757" lon="2.38472">
        <ele>569.237793</ele>
        <time>2015-09-13T09:09:33Z</time>
      </trkpt>
      <trkpt lat="43.60749" lon="2.38454">
        <ele>575.0058594</ele>
        <time>2015-09-13T09:09:39Z</time>
      </trkpt>
      <trkpt lat="43.60741" lon="2.38432">
        <ele>568.7570801</ele>
        <time>2015-09-13T09:09:44Z</time>
      </trkpt>
      <trkpt lat="43.60733" lon="2.38408">
        <ele>563.9504395</ele>
        <time>2015-09-13T09:09:49Z</time>
      </trkpt>
      <trkpt lat="43.60721" lon="2.38392">
        <ele>561.5473633</ele>
        <time>2015-09-13T09:09:53Z</time>
      </trkpt>
      <trkpt lat="43.60707" lon="2.38378">
        <ele>560.1052246</ele>
        <time>2015-09-13T09:09:57Z</time>
      </trkpt>
      <trkpt lat="43.6069" lon="2.38367">
        <ele>559.144043</ele>
        <time>2015-09-13T09:10:01Z</time>
      </trkpt>
      <trkpt lat="43.60678" lon="2.3836">
        <ele>558.1828613</ele>
        <time>2015-09-13T09:10:04Z</time>
      </trkpt>
      <trkpt lat="43.60662" lon="2.38351">
        <ele>556.7407227</ele>
        <time>2015-09-13T09:10:08Z</time>
      </trkpt>
      <trkpt lat="43.60642" lon="2.38333">
        <ele>557.7021484</ele>
        <time>2015-09-13T09:10:14Z</time>
      </trkpt>
      <trkpt lat="43.60626" lon="2.38309">
        <ele>555.7792969</ele>
        <time>2015-09-13T09:10:19Z</time>
      </trkpt>
      <trkpt lat="43.60597" lon="2.38258">
        <ele>553.3759766</ele>
        <time>2015-09-13T09:10:27Z</time>
      </trkpt>
      <trkpt lat="43.60586" lon="2.38237">
        <ele>551.4533691</ele>
        <time>2015-09-13T09:10:30Z</time>
      </trkpt>
      <trkpt lat="43.60571" lon="2.38202">
        <ele>549.0500488</ele>
        <time>2015-09-13T09:10:35Z</time>
      </trkpt>
      <trkpt lat="43.60562" lon="2.38137">
        <ele>548.5693359</ele>
        <time>2015-09-13T09:10:42Z</time>
      </trkpt>
      <trkpt lat="43.60561" lon="2.38112">
        <ele>546.6468506</ele>
        <time>2015-09-13T09:10:45Z</time>
      </trkpt>
      <trkpt lat="43.60551" lon="2.38095">
        <ele>545.6855469</ele>
        <time>2015-09-13T09:10:49Z</time>
      </trkpt>
      <trkpt lat="43.60542" lon="2.38097">
        <ele>544.7242432</ele>
        <time>2015-09-13T09:10:51Z</time>
      </trkpt>
      <trkpt lat="43.60533" lon="2.38099">
        <ele>544.7242432</ele>
        <time>2015-09-13T09:10:53Z</time>
      </trkpt>
      <trkpt lat="43.60522" lon="2.38091">
        <ele>542.3209229</ele>
        <time>2015-09-13T09:10:56Z</time>
      </trkpt>
      <trkpt lat="43.60518" lon="2.38077">
        <ele>540.3983154</ele>
        <time>2015-09-13T09:10:58Z</time>
      </trkpt>
      <trkpt lat="43.60514" lon="2.38056">
        <ele>536.0723877</ele>
        <time>2015-09-13T09:11:01Z</time>
      </trkpt>
      <trkpt lat="43.60517" lon="2.3802">
        <ele>537.5142822</ele>
        <time>2015-09-13T09:11:05Z</time>
      </trkpt>
      <trkpt lat="43.60515" lon="2.37991">
        <ele>535.1109619</ele>
        <time>2015-09-13T09:11:09Z</time>
      </trkpt>
      <trkpt lat="43.60505" lon="2.37939">
        <ele>530.7851563</ele>
        <time>2015-09-13T09:11:14Z</time>
      </trkpt>
      <trkpt lat="43.60502" lon="2.37926">
        <ele>529.8237305</ele>
        <time>2015-09-13T09:11:15Z</time>
      </trkpt>
      <trkpt lat="43.60495" lon="2.37876">
        <ele>526.4591064</ele>
        <time>2015-09-13T09:11:19Z</time>
      </trkpt>
      <trkpt lat="43.60481" lon="2.37809">
        <ele>516.8459473</ele>
        <time>2015-09-13T09:11:25Z</time>
      </trkpt>
      <trkpt lat="43.6048" lon="2.37799">
        <ele>513.4814453</ele>
        <time>2015-09-13T09:11:26Z</time>
      </trkpt>
      <trkpt lat="43.60477" lon="2.37762">
        <ele>508.1940918</ele>
        <time>2015-09-13T09:11:29Z</time>
      </trkpt>
      <trkpt lat="43.60478" lon="2.3772">
        <ele>505.3101807</ele>
        <time>2015-09-13T09:11:34Z</time>
      </trkpt>
      <trkpt lat="43.60476" lon="2.37705">
        <ele>504.348877</ele>
        <time>2015-09-13T09:11:36Z</time>
      </trkpt>
      <trkpt lat="43.60461" lon="2.37676">
        <ele>504.348877</ele>
        <time>2015-09-13T09:11:40Z</time>
      </trkpt>
      <trkpt lat="43.60447" lon="2.37653">
        <ele>501.9455566</ele>
        <time>2015-09-13T09:11:43Z</time>
      </trkpt>
      <trkpt lat="43.60432" lon="2.37634">
        <ele>505.3101807</ele>
        <time>2015-09-13T09:11:47Z</time>
      </trkpt>
      <trkpt lat="43.60421" lon="2.37618">
        <ele>504.348877</ele>
        <time>2015-09-13T09:11:52Z</time>
      </trkpt>
      <trkpt lat="43.60412" lon="2.37574">
        <ele>514.442627</ele>
        <time>2015-09-13T09:12:01Z</time>
      </trkpt>
      <trkpt lat="43.60404" lon="2.37545">
        <ele>514.9233398</ele>
        <time>2015-09-13T09:12:07Z</time>
      </trkpt>
      <trkpt lat="43.60391" lon="2.37526">
        <ele>515.4040527</ele>
        <time>2015-09-13T09:12:13Z</time>
      </trkpt>
      <trkpt lat="43.60373" lon="2.37516">
        <ele>513.4814453</ele>
        <time>2015-09-13T09:12:19Z</time>
      </trkpt>
      <trkpt lat="43.60355" lon="2.37503">
        <ele>511.0780029</ele>
        <time>2015-09-13T09:12:25Z</time>
      </trkpt>
      <trkpt lat="43.60338" lon="2.37498">
        <ele>511.5587158</ele>
        <time>2015-09-13T09:12:30Z</time>
      </trkpt>
      <trkpt lat="43.60318" lon="2.37493">
        <ele>514.442627</ele>
        <time>2015-09-13T09:12:35Z</time>
      </trkpt>
      <trkpt lat="43.60297" lon="2.37493">
        <ele>515.4040527</ele>
        <time>2015-09-13T09:12:40Z</time>
      </trkpt>
      <trkpt lat="43.60264" lon="2.37499">
        <ele>513.4814453</ele>
        <time>2015-09-13T09:12:48Z</time>
      </trkpt>
      <trkpt lat="43.60243" lon="2.37507">
        <ele>512.0394287</ele>
        <time>2015-09-13T09:12:54Z</time>
      </trkpt>
      <trkpt lat="43.60227" lon="2.37516">
        <ele>512.0394287</ele>
        <time>2015-09-13T09:13:00Z</time>
      </trkpt>
      <trkpt lat="43.60214" lon="2.37524">
        <ele>514.442627</ele>
        <time>2015-09-13T09:13:06Z</time>
      </trkpt>
      <trkpt lat="43.60203" lon="2.37529">
        <ele>517.3266602</ele>
        <time>2015-09-13T09:13:11Z</time>
      </trkpt>
      <trkpt lat="43.60201" lon="2.37531">
        <ele>517.807251</ele>
        <time>2015-09-13T09:13:13Z</time>
      </trkpt>
      <trkpt lat="43.60192" lon="2.37536">
        <ele>519.7298584</ele>
        <time>2015-09-13T09:13:18Z</time>
      </trkpt>
      <trkpt lat="43.60179" lon="2.37546">
        <ele>518.2878418</ele>
        <time>2015-09-13T09:13:24Z</time>
      </trkpt>
      <trkpt lat="43.60165" lon="2.37556">
        <ele>519.2492676</ele>
        <time>2015-09-13T09:13:30Z</time>
      </trkpt>
      <trkpt lat="43.60158" lon="2.37561">
        <ele>518.2878418</ele>
        <time>2015-09-13T09:13:33Z</time>
      </trkpt>
      <trkpt lat="43.60144" lon="2.37569">
        <ele>519.7298584</ele>
        <time>2015-09-13T09:13:40Z</time>
      </trkpt>
      <trkpt lat="43.60135" lon="2.37574">
        <ele>523.5751953</ele>
        <time>2015-09-13T09:13:46Z</time>
      </trkpt>
      <trkpt lat="43.60121" lon="2.37576">
        <ele>524.0557861</ele>
        <time>2015-09-13T09:13:52Z</time>
      </trkpt>
      <trkpt lat="43.60108" lon="2.37574">
        <ele>527.901001</ele>
        <time>2015-09-13T09:13:58Z</time>
      </trkpt>
      <trkpt lat="43.60092" lon="2.37569">
        <ele>531.2657471</ele>
        <time>2015-09-13T09:14:02Z</time>
      </trkpt>
      <trkpt lat="43.60072" lon="2.37565">
        <ele>529.8237305</ele>
        <time>2015-09-13T09:14:06Z</time>
      </trkpt>
      <trkpt lat="43.60061" lon="2.3756">
        <ele>529.3431396</ele>
        <time>2015-09-13T09:14:08Z</time>
      </trkpt>
      <trkpt lat="43.60035" lon="2.37543">
        <ele>524.536499</ele>
        <time>2015-09-13T09:14:13Z</time>
      </trkpt>
      <trkpt lat="43.60004" lon="2.37527">
        <ele>517.807251</ele>
        <time>2015-09-13T09:14:19Z</time>
      </trkpt>
      <trkpt lat="43.59989" lon="2.37517">
        <ele>514.442627</ele>
        <time>2015-09-13T09:14:22Z</time>
      </trkpt>
      <trkpt lat="43.59965" lon="2.37501">
        <ele>508.6746826</ele>
        <time>2015-09-13T09:14:27Z</time>
      </trkpt>
      <trkpt lat="43.59954" lon="2.3749">
        <ele>504.348877</ele>
        <time>2015-09-13T09:14:31Z</time>
      </trkpt>
      <trkpt lat="43.59939" lon="2.37474">
        <ele>498.1003418</ele>
        <time>2015-09-13T09:14:36Z</time>
      </trkpt>
      <trkpt lat="43.59924" lon="2.37455">
        <ele>493.2935791</ele>
        <time>2015-09-13T09:14:42Z</time>
      </trkpt>
      <trkpt lat="43.59916" lon="2.37444">
        <ele>489.9290771</ele>
        <time>2015-09-13T09:14:46Z</time>
      </trkpt>
      <trkpt lat="43.59905" lon="2.37429">
        <ele>484.1611328</ele>
        <time>2015-09-13T09:14:52Z</time>
      </trkpt>
      <trkpt lat="43.59891" lon="2.37413">
        <ele>479.835083</ele>
        <time>2015-09-13T09:14:57Z</time>
      </trkpt>
      <trkpt lat="43.59883" lon="2.374">
        <ele>475.5092773</ele>
        <time>2015-09-13T09:15:02Z</time>
      </trkpt>
      <trkpt lat="43.59875" lon="2.37382">
        <ele>481.7578125</ele>
        <time>2015-09-13T09:15:07Z</time>
      </trkpt>
      <trkpt lat="43.59867" lon="2.37368">
        <ele>484.6418457</ele>
        <time>2015-09-13T09:15:12Z</time>
      </trkpt>
      <trkpt lat="43.59856" lon="2.37353">
        <ele>482.2385254</ele>
        <time>2015-09-13T09:15:16Z</time>
      </trkpt>
      <trkpt lat="43.5984" lon="2.37334">
        <ele>480.315918</ele>
        <time>2015-09-13T09:15:22Z</time>
      </trkpt>
      <trkpt lat="43.59829" lon="2.37316">
        <ele>478.3931885</ele>
        <time>2015-09-13T09:15:28Z</time>
      </trkpt>
      <trkpt lat="43.5982" lon="2.37304">
        <ele>476.9512939</ele>
        <time>2015-09-13T09:15:32Z</time>
      </trkpt>
      <trkpt lat="43.59813" lon="2.37301">
        <ele>475.5092773</ele>
        <time>2015-09-13T09:15:37Z</time>
      </trkpt>
      <trkpt lat="43.59809" lon="2.37297">
        <ele>481.7578125</ele>
        <time>2015-09-13T09:16:04Z</time>
      </trkpt>
      <trkpt lat="43.59794" lon="2.37303">
        <ele>482.2385254</ele>
        <time>2015-09-13T09:16:09Z</time>
      </trkpt>
      <trkpt lat="43.5979" lon="2.37305">
        <ele>482.2385254</ele>
        <time>2015-09-13T09:16:10Z</time>
      </trkpt>
      <trkpt lat="43.59754" lon="2.37306">
        <ele>480.315918</ele>
        <time>2015-09-13T09:16:17Z</time>
      </trkpt>
      <trkpt lat="43.5972" lon="2.37307">
        <ele>478.3931885</ele>
        <time>2015-09-13T09:16:23Z</time>
      </trkpt>
      <trkpt lat="43.59673" lon="2.3731">
        <ele>474.5479736</ele>
        <time>2015-09-13T09:16:31Z</time>
      </trkpt>
      <trkpt lat="43.59624" lon="2.37317">
        <ele>470.2219238</ele>
        <time>2015-09-13T09:16:39Z</time>
      </trkpt>
      <trkpt lat="43.59618" lon="2.37318">
        <ele>470.2219238</ele>
        <time>2015-09-13T09:16:40Z</time>
      </trkpt>
      <trkpt lat="43.59559" lon="2.37331">
        <ele>467.3381348</ele>
        <time>2015-09-13T09:16:49Z</time>
      </trkpt>
      <trkpt lat="43.59522" lon="2.37337">
        <ele>465.8961182</ele>
        <time>2015-09-13T09:16:55Z</time>
      </trkpt>
      <trkpt lat="43.59494" lon="2.37331">
        <ele>465.8961182</ele>
        <time>2015-09-13T09:17:00Z</time>
      </trkpt>
      <trkpt lat="43.59465" lon="2.37332">
        <ele>465.4155273</ele>
        <time>2015-09-13T09:17:05Z</time>
      </trkpt>
      <trkpt lat="43.59424" lon="2.37363">
        <ele>462.5313721</ele>
        <time>2015-09-13T09:17:12Z</time>
      </trkpt>
      <trkpt lat="43.59392" lon="2.37402">
        <ele>457.7249756</ele>
        <time>2015-09-13T09:17:18Z</time>
      </trkpt>
      <trkpt lat="43.5937" lon="2.37443">
        <ele>453.3989258</ele>
        <time>2015-09-13T09:17:23Z</time>
      </trkpt>
      <trkpt lat="43.59352" lon="2.37465">
        <ele>450.5150146</ele>
        <time>2015-09-13T09:17:27Z</time>
      </trkpt>
      <trkpt lat="43.59347" lon="2.37467">
        <ele>450.0344238</ele>
        <time>2015-09-13T09:17:28Z</time>
      </trkpt>
      <trkpt lat="43.59306" lon="2.37473">
        <ele>448.1118164</ele>
        <time>2015-09-13T09:17:36Z</time>
      </trkpt>
      <trkpt lat="43.59293" lon="2.37473">
        <ele>448.5924072</ele>
        <time>2015-09-13T09:17:39Z</time>
      </trkpt>
      <trkpt lat="43.59266" lon="2.37462">
        <ele>451.9570313</ele>
        <time>2015-09-13T09:17:46Z</time>
      </trkpt>
      <trkpt lat="43.59252" lon="2.37456">
        <ele>450.9956055</ele>
        <time>2015-09-13T09:17:51Z</time>
      </trkpt>
      <trkpt lat="43.59234" lon="2.37449">
        <ele>451.9570313</ele>
        <time>2015-09-13T09:17:56Z</time>
      </trkpt>
      <trkpt lat="43.59217" lon="2.37442">
        <ele>451.9570313</ele>
        <time>2015-09-13T09:18:00Z</time>
      </trkpt>
      <trkpt lat="43.59209" lon="2.37435">
        <ele>450.5150146</ele>
        <time>2015-09-13T09:18:02Z</time>
      </trkpt>
      <trkpt lat="43.59184" lon="2.37413">
        <ele>446.1890869</ele>
        <time>2015-09-13T09:18:09Z</time>
      </trkpt>
      <trkpt lat="43.59176" lon="2.37408">
        <ele>444.7470703</ele>
        <time>2015-09-13T09:18:11Z</time>
      </trkpt>
      <trkpt lat="43.59146" lon="2.37396">
        <ele>443.3050537</ele>
        <time>2015-09-13T09:18:17Z</time>
      </trkpt>
      <trkpt lat="43.59127" lon="2.37385">
        <ele>443.7857666</ele>
        <time>2015-09-13T09:18:21Z</time>
      </trkpt>
      <trkpt lat="43.59113" lon="2.37364">
        <ele>441.8631592</ele>
        <time>2015-09-13T09:18:25Z</time>
      </trkpt>
      <trkpt lat="43.59109" lon="2.37349">
        <ele>437.0565186</ele>
        <time>2015-09-13T09:18:28Z</time>
      </trkpt>
      <trkpt lat="43.59101" lon="2.37329">
        <ele>434.1726074</ele>
        <time>2015-09-13T09:18:32Z</time>
      </trkpt>
      <trkpt lat="43.59087" lon="2.37306">
        <ele>434.1726074</ele>
        <time>2015-09-13T09:18:37Z</time>
      </trkpt>
      <trkpt lat="43.59082" lon="2.37291">
        <ele>436.5759277</ele>
        <time>2015-09-13T09:18:41Z</time>
      </trkpt>
      <trkpt lat="43.59078" lon="2.37284">
        <ele>436.0952148</ele>
        <time>2015-09-13T09:18:43Z</time>
      </trkpt>
      <trkpt lat="43.59067" lon="2.37263">
        <ele>437.0565186</ele>
        <time>2015-09-13T09:18:50Z</time>
      </trkpt>
      <trkpt lat="43.59053" lon="2.37239">
        <ele>436.0952148</ele>
        <time>2015-09-13T09:18:59Z</time>
      </trkpt>
      <trkpt lat="43.59044" lon="2.37225">
        <ele>436.5759277</ele>
        <time>2015-09-13T09:19:04Z</time>
      </trkpt>
      <trkpt lat="43.59038" lon="2.37216">
        <ele>435.614502</ele>
        <time>2015-09-13T09:19:09Z</time>
      </trkpt>
      <trkpt lat="43.59029" lon="2.37202">
        <ele>435.1339111</ele>
        <time>2015-09-13T09:19:13Z</time>
      </trkpt>
      <trkpt lat="43.59018" lon="2.37183">
        <ele>433.2113037</ele>
        <time>2015-09-13T09:19:17Z</time>
      </trkpt>
      <trkpt lat="43.59008" lon="2.37167">
        <ele>433.6918945</ele>
        <time>2015-09-13T09:19:20Z</time>
      </trkpt>
      <trkpt lat="43.58999" lon="2.37138">
        <ele>433.2113037</ele>
        <time>2015-09-13T09:19:25Z</time>
      </trkpt>
      <trkpt lat="43.58997" lon="2.37131">
        <ele>432.7307129</ele>
        <time>2015-09-13T09:19:26Z</time>
      </trkpt>
      <trkpt lat="43.58981" lon="2.37082">
        <ele>424.5594482</ele>
        <time>2015-09-13T09:19:31Z</time>
      </trkpt>
      <trkpt lat="43.58968" lon="2.3706">
        <ele>421.1948242</ele>
        <time>2015-09-13T09:19:35Z</time>
      </trkpt>
      <trkpt lat="43.58956" lon="2.37046">
        <ele>418.7915039</ele>
        <time>2015-09-13T09:19:38Z</time>
      </trkpt>
      <trkpt lat="43.5894" lon="2.37021">
        <ele>414.4654541</ele>
        <time>2015-09-13T09:19:43Z</time>
      </trkpt>
      <trkpt lat="43.58927" lon="2.37017">
        <ele>413.5042725</ele>
        <time>2015-09-13T09:19:46Z</time>
      </trkpt>
      <trkpt lat="43.58889" lon="2.37001">
        <ele>408.217041</ele>
        <time>2015-09-13T09:19:53Z</time>
      </trkpt>
      <trkpt lat="43.58884" lon="2.36998">
        <ele>406.2943115</ele>
        <time>2015-09-13T09:19:54Z</time>
      </trkpt>
      <trkpt lat="43.58858" lon="2.36984">
        <ele>401.0070801</ele>
        <time>2015-09-13T09:19:59Z</time>
      </trkpt>
      <trkpt lat="43.58829" lon="2.36966">
        <ele>397.1617432</ele>
        <time>2015-09-13T09:20:04Z</time>
      </trkpt>
      <trkpt lat="43.58817" lon="2.36961">
        <ele>394.7585449</ele>
        <time>2015-09-13T09:20:06Z</time>
      </trkpt>
      <trkpt lat="43.58786" lon="2.36943">
        <ele>394.7585449</ele>
        <time>2015-09-13T09:20:11Z</time>
      </trkpt>
      <trkpt lat="43.58754" lon="2.36934">
        <ele>389.9519043</ele>
        <time>2015-09-13T09:20:16Z</time>
      </trkpt>
      <trkpt lat="43.58716" lon="2.36918">
        <ele>390.913208</ele>
        <time>2015-09-13T09:20:22Z</time>
      </trkpt>
      <trkpt lat="43.58706" lon="2.36915">
        <ele>391.3937988</ele>
        <time>2015-09-13T09:20:24Z</time>
      </trkpt>
      <trkpt lat="43.58695" lon="2.36911">
        <ele>392.3553467</ele>
        <time>2015-09-13T09:20:28Z</time>
      </trkpt>
      <trkpt lat="43.58674" lon="2.36903">
        <ele>393.7972412</ele>
        <time>2015-09-13T09:20:34Z</time>
      </trkpt>
      <trkpt lat="43.58653" lon="2.3689">
        <ele>391.8745117</ele>
        <time>2015-09-13T09:20:39Z</time>
      </trkpt>
      <trkpt lat="43.58643" lon="2.36883">
        <ele>390.4326172</ele>
        <time>2015-09-13T09:20:42Z</time>
      </trkpt>
      <trkpt lat="43.58627" lon="2.36871">
        <ele>388.9906006</ele>
        <time>2015-09-13T09:20:48Z</time>
      </trkpt>
      <trkpt lat="43.58612" lon="2.36866">
        <ele>388.9906006</ele>
        <time>2015-09-13T09:20:54Z</time>
      </trkpt>
      <trkpt lat="43.58596" lon="2.36861">
        <ele>387.0679932</ele>
        <time>2015-09-13T09:20:58Z</time>
      </trkpt>
      <trkpt lat="43.58583" lon="2.36853">
        <ele>385.6259766</ele>
        <time>2015-09-13T09:21:00Z</time>
      </trkpt>
      <trkpt lat="43.58541" lon="2.36824">
        <ele>380.819458</ele>
        <time>2015-09-13T09:21:06Z</time>
      </trkpt>
      <trkpt lat="43.58511" lon="2.36804">
        <ele>373.6094971</ele>
        <time>2015-09-13T09:21:11Z</time>
      </trkpt>
      <trkpt lat="43.5849" lon="2.36792">
        <ele>369.2836914</ele>
        <time>2015-09-13T09:21:14Z</time>
      </trkpt>
      <trkpt lat="43.58458" lon="2.36771">
        <ele>369.7642822</ele>
        <time>2015-09-13T09:21:18Z</time>
      </trkpt>
      <trkpt lat="43.58427" lon="2.3676">
        <ele>369.7642822</ele>
        <time>2015-09-13T09:21:22Z</time>
      </trkpt>
      <trkpt lat="43.58402" lon="2.36761">
        <ele>376.9742432</ele>
        <time>2015-09-13T09:21:26Z</time>
      </trkpt>
      <trkpt lat="43.58394" lon="2.36764">
        <ele>380.3387451</ele>
        <time>2015-09-13T09:21:28Z</time>
      </trkpt>
      <trkpt lat="43.58384" lon="2.36765">
        <ele>380.3387451</ele>
        <time>2015-09-13T09:21:33Z</time>
      </trkpt>
      <trkpt lat="43.58383" lon="2.36764">
        <ele>380.3387451</ele>
        <time>2015-09-13T09:21:34Z</time>
      </trkpt>
      <trkpt lat="43.58371" lon="2.36757">
        <ele>381.7806396</ele>
        <time>2015-09-13T09:21:39Z</time>
      </trkpt>
      <trkpt lat="43.58352" lon="2.36744">
        <ele>381.7806396</ele>
        <time>2015-09-13T09:21:45Z</time>
      </trkpt>
      <trkpt lat="43.58348" lon="2.36742">
        <ele>382.2613525</ele>
        <time>2015-09-13T09:21:46Z</time>
      </trkpt>
      <trkpt lat="43.58332" lon="2.36708">
        <ele>380.3387451</ele>
        <time>2015-09-13T09:21:51Z</time>
      </trkpt>
      <trkpt lat="43.58325" lon="2.36692">
        <ele>379.3774414</ele>
        <time>2015-09-13T09:21:53Z</time>
      </trkpt>
      <trkpt lat="43.58317" lon="2.36658">
        <ele>376.9742432</ele>
        <time>2015-09-13T09:21:57Z</time>
      </trkpt>
      <trkpt lat="43.58315" lon="2.36616">
        <ele>371.2062988</ele>
        <time>2015-09-13T09:22:02Z</time>
      </trkpt>
      <trkpt lat="43.58314" lon="2.36586">
        <ele>364.9576416</ele>
        <time>2015-09-13T09:22:05Z</time>
      </trkpt>
      <trkpt lat="43.58316" lon="2.36548">
        <ele>359.6704102</ele>
        <time>2015-09-13T09:22:09Z</time>
      </trkpt>
      <trkpt lat="43.58323" lon="2.36509">
        <ele>352.4605713</ele>
        <time>2015-09-13T09:22:13Z</time>
      </trkpt>
      <trkpt lat="43.58319" lon="2.36447">
        <ele>346.692627</ele>
        <time>2015-09-13T09:22:19Z</time>
      </trkpt>
      <trkpt lat="43.58317" lon="2.36438">
        <ele>344.7700195</ele>
        <time>2015-09-13T09:22:20Z</time>
      </trkpt>
      <trkpt lat="43.58306" lon="2.36382">
        <ele>340.9246826</ele>
        <time>2015-09-13T09:22:26Z</time>
      </trkpt>
      <trkpt lat="43.58305" lon="2.36372">
        <ele>339.482666</ele>
        <time>2015-09-13T09:22:27Z</time>
      </trkpt>
      <trkpt lat="43.58299" lon="2.36333">
        <ele>334.6761475</ele>
        <time>2015-09-13T09:22:31Z</time>
      </trkpt>
      <trkpt lat="43.58294" lon="2.36319">
        <ele>332.2728271</ele>
        <time>2015-09-13T09:22:35Z</time>
      </trkpt>
      <trkpt lat="43.58289" lon="2.36316">
        <ele>330.3502197</ele>
        <time>2015-09-13T09:22:38Z</time>
      </trkpt>
      <trkpt lat="43.58287" lon="2.36315">
        <ele>328.4276123</ele>
        <time>2015-09-13T09:22:42Z</time>
      </trkpt>
      <trkpt lat="43.58286" lon="2.36315">
        <ele>327.9467773</ele>
        <time>2015-09-13T09:22:47Z</time>
      </trkpt>
      <trkpt lat="43.58287" lon="2.36313">
        <ele>333.2341309</ele>
        <time>2015-09-13T09:22:59Z</time>
      </trkpt>
      <trkpt lat="43.58288" lon="2.36315">
        <ele>335.6373291</ele>
        <time>2015-09-13T09:23:13Z</time>
      </trkpt>
      <trkpt lat="43.58292" lon="2.36315">
        <ele>338.5214844</ele>
        <time>2015-09-13T09:24:04Z</time>
      </trkpt>
      <trkpt lat="43.58288" lon="2.36309">
        <ele>341.8859863</ele>
        <time>2015-09-13T09:24:19Z</time>
      </trkpt>
      <trkpt lat="43.58294" lon="2.36312">
        <ele>350.5378418</ele>
        <time>2015-09-13T09:25:25Z</time>
      </trkpt>
      <trkpt lat="43.58289" lon="2.36308">
        <ele>346.2120361</ele>
        <time>2015-09-13T09:25:33Z</time>
      </trkpt>
      <trkpt lat="43.5828" lon="2.36289">
        <ele>339.9633789</ele>
        <time>2015-09-13T09:25:40Z</time>
      </trkpt>
      <trkpt lat="43.58281" lon="2.36288">
        <ele>339.0020752</ele>
        <time>2015-09-13T09:25:45Z</time>
      </trkpt>
      <trkpt lat="43.58276" lon="2.36282">
        <ele>337.0794678</ele>
        <time>2015-09-13T09:25:54Z</time>
      </trkpt>
      <trkpt lat="43.58265" lon="2.36266">
        <ele>335.1567383</ele>
        <time>2015-09-13T09:25:59Z</time>
      </trkpt>
      <trkpt lat="43.58249" lon="2.36242">
        <ele>328.9083252</ele>
        <time>2015-09-13T09:26:04Z</time>
      </trkpt>
      <trkpt lat="43.58241" lon="2.36233">
        <ele>327.4661865</ele>
        <time>2015-09-13T09:26:06Z</time>
      </trkpt>
      <trkpt lat="43.5822" lon="2.36204">
        <ele>324.1015625</ele>
        <time>2015-09-13T09:26:11Z</time>
      </trkpt>
      <trkpt lat="43.5819" lon="2.36161">
        <ele>319.7756348</ele>
        <time>2015-09-13T09:26:18Z</time>
      </trkpt>
      <trkpt lat="43.58164" lon="2.36127">
        <ele>318.8143311</ele>
        <time>2015-09-13T09:26:24Z</time>
      </trkpt>
      <trkpt lat="43.58144" lon="2.36099">
        <ele>314.9691162</ele>
        <time>2015-09-13T09:26:29Z</time>
      </trkpt>
      <trkpt lat="43.58131" lon="2.3607">
        <ele>314.4884033</ele>
        <time>2015-09-13T09:26:33Z</time>
      </trkpt>
      <trkpt lat="43.58116" lon="2.36014">
        <ele>312.5657959</ele>
        <time>2015-09-13T09:26:41Z</time>
      </trkpt>
      <trkpt lat="43.58108" lon="2.35972">
        <ele>313.0465088</ele>
        <time>2015-09-13T09:26:47Z</time>
      </trkpt>
      <trkpt lat="43.58103" lon="2.3596">
        <ele>312.5657959</ele>
        <time>2015-09-13T09:26:49Z</time>
      </trkpt>
      <trkpt lat="43.58091" lon="2.35949">
        <ele>311.1237793</ele>
        <time>2015-09-13T09:26:53Z</time>
      </trkpt>
      <trkpt lat="43.58081" lon="2.35952">
        <ele>309.2011719</ele>
        <time>2015-09-13T09:26:56Z</time>
      </trkpt>
      <trkpt lat="43.58057" lon="2.35958">
        <ele>307.2785645</ele>
        <time>2015-09-13T09:27:02Z</time>
      </trkpt>
      <trkpt lat="43.58052" lon="2.35958">
        <ele>306.3172607</ele>
        <time>2015-09-13T09:27:03Z</time>
      </trkpt>
      <trkpt lat="43.58042" lon="2.35955">
        <ele>306.3172607</ele>
        <time>2015-09-13T09:27:05Z</time>
      </trkpt>
      <trkpt lat="43.58029" lon="2.35949">
        <ele>305.8366699</ele>
        <time>2015-09-13T09:27:08Z</time>
      </trkpt>
      <trkpt lat="43.58013" lon="2.35937">
        <ele>303.4332275</ele>
        <time>2015-09-13T09:27:13Z</time>
      </trkpt>
      <trkpt lat="43.58009" lon="2.35933">
        <ele>302.4719238</ele>
        <time>2015-09-13T09:27:14Z</time>
      </trkpt>
      <trkpt lat="43.57984" lon="2.35905">
        <ele>296.2235107</ele>
        <time>2015-09-13T09:27:20Z</time>
      </trkpt>
      <trkpt lat="43.57969" lon="2.35898">
        <ele>292.8587646</ele>
        <time>2015-09-13T09:27:23Z</time>
      </trkpt>
      <trkpt lat="43.57947" lon="2.35884">
        <ele>287.0908203</ele>
        <time>2015-09-13T09:27:27Z</time>
      </trkpt>
      <trkpt lat="43.57932" lon="2.35862">
        <ele>282.7650146</ele>
        <time>2015-09-13T09:27:30Z</time>
      </trkpt>
      <trkpt lat="43.57921" lon="2.35839">
        <ele>281.322998</ele>
        <time>2015-09-13T09:27:33Z</time>
      </trkpt>
      <trkpt lat="43.57912" lon="2.35818">
        <ele>279.8808594</ele>
        <time>2015-09-13T09:27:36Z</time>
      </trkpt>
      <trkpt lat="43.579" lon="2.35783">
        <ele>278.4389648</ele>
        <time>2015-09-13T09:27:40Z</time>
      </trkpt>
      <trkpt lat="43.57897" lon="2.35754">
        <ele>276.0356445</ele>
        <time>2015-09-13T09:27:43Z</time>
      </trkpt>
      <trkpt lat="43.57891" lon="2.35742">
        <ele>272.6711426</ele>
        <time>2015-09-13T09:27:47Z</time>
      </trkpt>
      <trkpt lat="43.57888" lon="2.35733">
        <ele>272.1904297</ele>
        <time>2015-09-13T09:27:50Z</time>
      </trkpt>
      <trkpt lat="43.57887" lon="2.35722">
        <ele>267.864502</ele>
        <time>2015-09-13T09:27:52Z</time>
      </trkpt>
      <trkpt lat="43.57879" lon="2.35693">
        <ele>262.5771484</ele>
        <time>2015-09-13T09:27:56Z</time>
      </trkpt>
      <trkpt lat="43.57875" lon="2.35686">
        <ele>261.1352539</ele>
        <time>2015-09-13T09:27:57Z</time>
      </trkpt>
      <trkpt lat="43.57863" lon="2.35659">
        <ele>260.1739502</ele>
        <time>2015-09-13T09:28:01Z</time>
      </trkpt>
      <trkpt lat="43.57853" lon="2.35636">
        <ele>256.3287354</ele>
        <time>2015-09-13T09:28:06Z</time>
      </trkpt>
      <trkpt lat="43.57842" lon="2.35612">
        <ele>252.0028076</ele>
        <time>2015-09-13T09:28:09Z</time>
      </trkpt>
      <trkpt lat="43.57833" lon="2.35584">
        <ele>246.2348633</ele>
        <time>2015-09-13T09:28:12Z</time>
      </trkpt>
      <trkpt lat="43.5783" lon="2.35562">
        <ele>244.3122559</ele>
        <time>2015-09-13T09:28:14Z</time>
      </trkpt>
      <trkpt lat="43.57833" lon="2.35536">
        <ele>239.5054932</ele>
        <time>2015-09-13T09:28:18Z</time>
      </trkpt>
      <trkpt lat="43.57829" lon="2.35512">
        <ele>237.1022949</ele>
        <time>2015-09-13T09:28:21Z</time>
      </trkpt>
      <trkpt lat="43.57818" lon="2.3544">
        <ele>234.2183838</ele>
        <time>2015-09-13T09:28:27Z</time>
      </trkpt>
      <trkpt lat="43.57808" lon="2.35414">
        <ele>232.2957764</ele>
        <time>2015-09-13T09:28:30Z</time>
      </trkpt>
      <trkpt lat="43.57784" lon="2.35377">
        <ele>235.6602783</ele>
        <time>2015-09-13T09:28:36Z</time>
      </trkpt>
      <trkpt lat="43.57775" lon="2.35364">
        <ele>236.1409912</ele>
        <time>2015-09-13T09:28:39Z</time>
      </trkpt>
      <trkpt lat="43.57759" lon="2.35351">
        <ele>238.0635986</ele>
        <time>2015-09-13T09:28:44Z</time>
      </trkpt>
      <trkpt lat="43.57738" lon="2.35337">
        <ele>239.0249023</ele>
        <time>2015-09-13T09:28:51Z</time>
      </trkpt>
      <trkpt lat="43.57719" lon="2.35321">
        <ele>243.3508301</ele>
        <time>2015-09-13T09:28:58Z</time>
      </trkpt>
      <trkpt lat="43.57707" lon="2.35308">
        <ele>244.7928467</ele>
        <time>2015-09-13T09:29:03Z</time>
      </trkpt>
      <trkpt lat="43.57697" lon="2.35297">
        <ele>244.3122559</ele>
        <time>2015-09-13T09:29:08Z</time>
      </trkpt>
      <trkpt lat="43.57683" lon="2.35288">
        <ele>244.3122559</ele>
        <time>2015-09-13T09:29:12Z</time>
      </trkpt>
      <trkpt lat="43.57665" lon="2.35267">
        <ele>242.3896484</ele>
        <time>2015-09-13T09:29:16Z</time>
      </trkpt>
      <trkpt lat="43.57642" lon="2.35242">
        <ele>241.4282227</ele>
        <time>2015-09-13T09:29:21Z</time>
      </trkpt>
      <trkpt lat="43.57605" lon="2.35216">
        <ele>239.5054932</ele>
        <time>2015-09-13T09:29:27Z</time>
      </trkpt>
      <trkpt lat="43.5756" lon="2.35195">
        <ele>238.5443115</ele>
        <time>2015-09-13T09:29:33Z</time>
      </trkpt>
      <trkpt lat="43.57552" lon="2.35192">
        <ele>238.0635986</ele>
        <time>2015-09-13T09:29:34Z</time>
      </trkpt>
      <trkpt lat="43.57517" lon="2.35158">
        <ele>235.1796875</ele>
        <time>2015-09-13T09:29:39Z</time>
      </trkpt>
      <trkpt lat="43.5748" lon="2.35133">
        <ele>233.7376709</ele>
        <time>2015-09-13T09:29:44Z</time>
      </trkpt>
      <trkpt lat="43.5745" lon="2.3512">
        <ele>232.7764893</ele>
        <time>2015-09-13T09:29:48Z</time>
      </trkpt>
      <trkpt lat="43.57436" lon="2.35116">
        <ele>233.7376709</ele>
        <time>2015-09-13T09:29:51Z</time>
      </trkpt>
      <trkpt lat="43.57439" lon="2.35101">
        <ele>232.7764893</ele>
        <time>2015-09-13T09:29:55Z</time>
      </trkpt>
      <trkpt lat="43.57442" lon="2.35092">
        <ele>232.7764893</ele>
        <time>2015-09-13T09:29:57Z</time>
      </trkpt>
      <trkpt lat="43.57449" lon="2.35048">
        <ele>232.7764893</ele>
        <time>2015-09-13T09:30:05Z</time>
      </trkpt>
      <trkpt lat="43.57453" lon="2.3501">
        <ele>232.2957764</ele>
        <time>2015-09-13T09:30:12Z</time>
      </trkpt>
      <trkpt lat="43.57458" lon="2.34966">
        <ele>233.2570801</ele>
        <time>2015-09-13T09:30:20Z</time>
      </trkpt>
      <trkpt lat="43.57465" lon="2.34918">
        <ele>237.5828857</ele>
        <time>2015-09-13T09:30:29Z</time>
      </trkpt>
      <trkpt lat="43.57467" lon="2.34885">
        <ele>236.1409912</ele>
        <time>2015-09-13T09:30:35Z</time>
      </trkpt>
      <trkpt lat="43.57471" lon="2.34833">
        <ele>236.6217041</ele>
        <time>2015-09-13T09:30:45Z</time>
      </trkpt>
      <trkpt lat="43.57474" lon="2.34804">
        <ele>238.0635986</ele>
        <time>2015-09-13T09:30:51Z</time>
      </trkpt>
      <trkpt lat="43.57478" lon="2.34776">
        <ele>238.5443115</ele>
        <time>2015-09-13T09:30:56Z</time>
      </trkpt>
      <trkpt lat="43.5748" lon="2.34747">
        <ele>236.6217041</ele>
        <time>2015-09-13T09:31:01Z</time>
      </trkpt>
      <trkpt lat="43.57482" lon="2.34719">
        <ele>234.2183838</ele>
        <time>2015-09-13T09:31:05Z</time>
      </trkpt>
      <trkpt lat="43.57489" lon="2.3466">
        <ele>231.3343506</ele>
        <time>2015-09-13T09:31:14Z</time>
      </trkpt>
      <trkpt lat="43.5749" lon="2.34647">
        <ele>231.3343506</ele>
        <time>2015-09-13T09:31:16Z</time>
      </trkpt>
      <trkpt lat="43.57491" lon="2.3462">
        <ele>232.7764893</ele>
        <time>2015-09-13T09:31:20Z</time>
      </trkpt>
      <trkpt lat="43.57487" lon="2.34596">
        <ele>233.7376709</ele>
        <time>2015-09-13T09:31:24Z</time>
      </trkpt>
      <trkpt lat="43.57485" lon="2.34578">
        <ele>233.7376709</ele>
        <time>2015-09-13T09:31:27Z</time>
      </trkpt>
      <trkpt lat="43.57481" lon="2.34538">
        <ele>235.6602783</ele>
        <time>2015-09-13T09:31:34Z</time>
      </trkpt>
      <trkpt lat="43.57476" lon="2.34477">
        <ele>236.1409912</ele>
        <time>2015-09-13T09:31:44Z</time>
      </trkpt>
      <trkpt lat="43.57476" lon="2.34446">
        <ele>235.6602783</ele>
        <time>2015-09-13T09:31:49Z</time>
      </trkpt>
      <trkpt lat="43.5748" lon="2.34418">
        <ele>236.1409912</ele>
        <time>2015-09-13T09:31:54Z</time>
      </trkpt>
      <trkpt lat="43.5749" lon="2.34376">
        <ele>235.1796875</ele>
        <time>2015-09-13T09:32:01Z</time>
      </trkpt>
      <trkpt lat="43.57493" lon="2.34358">
        <ele>234.6990967</ele>
        <time>2015-09-13T09:32:04Z</time>
      </trkpt>
      <trkpt lat="43.57491" lon="2.34328">
        <ele>234.2183838</ele>
        <time>2015-09-13T09:32:09Z</time>
      </trkpt>
      <trkpt lat="43.57491" lon="2.34313">
        <ele>234.2183838</ele>
        <time>2015-09-13T09:32:12Z</time>
      </trkpt>
      <trkpt lat="43.57488" lon="2.34273">
        <ele>232.7764893</ele>
        <time>2015-09-13T09:32:20Z</time>
      </trkpt>
      <trkpt lat="43.57486" lon="2.34254">
        <ele>234.2183838</ele>
        <time>2015-09-13T09:32:24Z</time>
      </trkpt>
      <trkpt lat="43.57484" lon="2.34209">
        <ele>235.1796875</ele>
        <time>2015-09-13T09:32:33Z</time>
      </trkpt>
      <trkpt lat="43.57483" lon="2.34164">
        <ele>235.1796875</ele>
        <time>2015-09-13T09:32:42Z</time>
      </trkpt>
      <trkpt lat="43.57486" lon="2.34124">
        <ele>235.1796875</ele>
        <time>2015-09-13T09:32:49Z</time>
      </trkpt>
      <trkpt lat="43.57491" lon="2.34074">
        <ele>235.1796875</ele>
        <time>2015-09-13T09:32:58Z</time>
      </trkpt>
      <trkpt lat="43.57494" lon="2.34052">
        <ele>235.1796875</ele>
        <time>2015-09-13T09:33:02Z</time>
      </trkpt>
      <trkpt lat="43.57505" lon="2.34017">
        <ele>234.6990967</ele>
        <time>2015-09-13T09:33:08Z</time>
      </trkpt>
      <trkpt lat="43.57525" lon="2.33969">
        <ele>234.6990967</ele>
        <time>2015-09-13T09:33:16Z</time>
      </trkpt>
      <trkpt lat="43.57528" lon="2.33963">
        <ele>234.2183838</ele>
        <time>2015-09-13T09:33:17Z</time>
      </trkpt>
      <trkpt lat="43.57552" lon="2.33917">
        <ele>231.8149414</ele>
        <time>2015-09-13T09:33:24Z</time>
      </trkpt>
      <trkpt lat="43.57555" lon="2.3391">
        <ele>231.3343506</ele>
        <time>2015-09-13T09:33:25Z</time>
      </trkpt>
      <trkpt lat="43.57577" lon="2.33857">
        <ele>229.892334</ele>
        <time>2015-09-13T09:33:32Z</time>
      </trkpt>
      <trkpt lat="43.57591" lon="2.33821">
        <ele>229.4117432</ele>
        <time>2015-09-13T09:33:37Z</time>
      </trkpt>
      <trkpt lat="43.57593" lon="2.33814">
        <ele>229.4117432</ele>
        <time>2015-09-13T09:33:38Z</time>
      </trkpt>
      <trkpt lat="43.5761" lon="2.33764">
        <ele>229.892334</ele>
        <time>2015-09-13T09:33:45Z</time>
      </trkpt>
      <trkpt lat="43.57619" lon="2.33724">
        <ele>229.892334</ele>
        <time>2015-09-13T09:33:50Z</time>
      </trkpt>
      <trkpt lat="43.57621" lon="2.3366">
        <ele>229.4117432</ele>
        <time>2015-09-13T09:33:58Z</time>
      </trkpt>
      <trkpt lat="43.57622" lon="2.33612">
        <ele>228.4504395</ele>
        <time>2015-09-13T09:34:05Z</time>
      </trkpt>
      <trkpt lat="43.5762" lon="2.33585">
        <ele>228.4504395</ele>
        <time>2015-09-13T09:34:09Z</time>
      </trkpt>
      <trkpt lat="43.57618" lon="2.33534">
        <ele>227.0085449</ele>
        <time>2015-09-13T09:34:17Z</time>
      </trkpt>
      <trkpt lat="43.57617" lon="2.33504">
        <ele>227.4891357</ele>
        <time>2015-09-13T09:34:22Z</time>
      </trkpt>
      <trkpt lat="43.57617" lon="2.33498">
        <ele>227.4891357</ele>
        <time>2015-09-13T09:34:23Z</time>
      </trkpt>
      <trkpt lat="43.57618" lon="2.33455">
        <ele>227.4891357</ele>
        <time>2015-09-13T09:34:29Z</time>
      </trkpt>
      <trkpt lat="43.57625" lon="2.33407">
        <ele>224.1245117</ele>
        <time>2015-09-13T09:34:34Z</time>
      </trkpt>
      <trkpt lat="43.57629" lon="2.33356">
        <ele>223.163208</ele>
        <time>2015-09-13T09:34:39Z</time>
      </trkpt>
      <trkpt lat="43.57627" lon="2.33304">
        <ele>222.6824951</ele>
        <time>2015-09-13T09:34:44Z</time>
      </trkpt>
      <trkpt lat="43.57627" lon="2.33268">
        <ele>222.2017822</ele>
        <time>2015-09-13T09:34:48Z</time>
      </trkpt>
      <trkpt lat="43.57627" lon="2.33246">
        <ele>222.2017822</ele>
        <time>2015-09-13T09:34:51Z</time>
      </trkpt>
      <trkpt lat="43.5763" lon="2.33206">
        <ele>219.798584</ele>
        <time>2015-09-13T09:34:58Z</time>
      </trkpt>
      <trkpt lat="43.57631" lon="2.33183">
        <ele>221.2406006</ele>
        <time>2015-09-13T09:35:02Z</time>
      </trkpt>
      <trkpt lat="43.57636" lon="2.33148">
        <ele>224.6052246</ele>
        <time>2015-09-13T09:35:08Z</time>
      </trkpt>
      <trkpt lat="43.57641" lon="2.33131">
        <ele>226.0471191</ele>
        <time>2015-09-13T09:35:12Z</time>
      </trkpt>
      <trkpt lat="43.57641" lon="2.3312">
        <ele>225.5665283</ele>
        <time>2015-09-13T09:35:14Z</time>
      </trkpt>
      <trkpt lat="43.57638" lon="2.33084">
        <ele>226.0471191</ele>
        <time>2015-09-13T09:35:20Z</time>
      </trkpt>
      <trkpt lat="43.57635" lon="2.33057">
        <ele>226.0471191</ele>
        <time>2015-09-13T09:35:24Z</time>
      </trkpt>
      <trkpt lat="43.57635" lon="2.33022">
        <ele>224.1245117</ele>
        <time>2015-09-13T09:35:29Z</time>
      </trkpt>
      <trkpt lat="43.57633" lon="2.32995">
        <ele>223.163208</ele>
        <time>2015-09-13T09:35:33Z</time>
      </trkpt>
      <trkpt lat="43.57634" lon="2.32982">
        <ele>223.163208</ele>
        <time>2015-09-13T09:35:35Z</time>
      </trkpt>
      <trkpt lat="43.57632" lon="2.32961">
        <ele>222.6824951</ele>
        <time>2015-09-13T09:35:38Z</time>
      </trkpt>
      <trkpt lat="43.57628" lon="2.32917">
        <ele>222.6824951</ele>
        <time>2015-09-13T09:35:45Z</time>
      </trkpt>
      <trkpt lat="43.57626" lon="2.32899">
        <ele>222.6824951</ele>
        <time>2015-09-13T09:35:48Z</time>
      </trkpt>
      <trkpt lat="43.57625" lon="2.32869">
        <ele>222.2017822</ele>
        <time>2015-09-13T09:35:53Z</time>
      </trkpt>
      <trkpt lat="43.57624" lon="2.32847">
        <ele>222.2017822</ele>
        <time>2015-09-13T09:35:57Z</time>
      </trkpt>
      <trkpt lat="43.57621" lon="2.32785">
        <ele>223.6437988</ele>
        <time>2015-09-13T09:36:07Z</time>
      </trkpt>
      <trkpt lat="43.57617" lon="2.32733">
        <ele>223.6437988</ele>
        <time>2015-09-13T09:36:14Z</time>
      </trkpt>
      <trkpt lat="43.57615" lon="2.32685">
        <ele>224.1245117</ele>
        <time>2015-09-13T09:36:21Z</time>
      </trkpt>
      <trkpt lat="43.57614" lon="2.32636">
        <ele>223.6437988</ele>
        <time>2015-09-13T09:36:29Z</time>
      </trkpt>
      <trkpt lat="43.57604" lon="2.32583">
        <ele>222.2017822</ele>
        <time>2015-09-13T09:36:36Z</time>
      </trkpt>
      <trkpt lat="43.57592" lon="2.32522">
        <ele>221.7211914</ele>
        <time>2015-09-13T09:36:43Z</time>
      </trkpt>
      <trkpt lat="43.5758" lon="2.32461">
        <ele>221.7211914</ele>
        <time>2015-09-13T09:36:50Z</time>
      </trkpt>
      <trkpt lat="43.57566" lon="2.32388">
        <ele>219.798584</ele>
        <time>2015-09-13T09:36:58Z</time>
      </trkpt>
      <trkpt lat="43.57551" lon="2.32324">
        <ele>218.8372803</ele>
        <time>2015-09-13T09:37:05Z</time>
      </trkpt>
      <trkpt lat="43.57539" lon="2.32262">
        <ele>216.9146729</ele>
        <time>2015-09-13T09:37:12Z</time>
      </trkpt>
      <trkpt lat="43.57526" lon="2.3221">
        <ele>215.4726563</ele>
        <time>2015-09-13T09:37:18Z</time>
      </trkpt>
      <trkpt lat="43.57518" lon="2.32159">
        <ele>213.5500488</ele>
        <time>2015-09-13T09:37:24Z</time>
      </trkpt>
      <trkpt lat="43.57517" lon="2.32107">
        <ele>213.5500488</ele>
        <time>2015-09-13T09:37:30Z</time>
      </trkpt>
      <trkpt lat="43.57516" lon="2.32058">
        <ele>212.588623</ele>
        <time>2015-09-13T09:37:36Z</time>
      </trkpt>
      <trkpt lat="43.57506" lon="2.3201">
        <ele>211.1467285</ele>
        <time>2015-09-13T09:37:42Z</time>
      </trkpt>
      <trkpt lat="43.57488" lon="2.31951">
        <ele>210.6660156</ele>
        <time>2015-09-13T09:37:50Z</time>
      </trkpt>
      <trkpt lat="43.57474" lon="2.31915">
        <ele>212.588623</ele>
        <time>2015-09-13T09:37:56Z</time>
      </trkpt>
      <trkpt lat="43.57457" lon="2.31882">
        <ele>214.0306396</ele>
        <time>2015-09-13T09:38:03Z</time>
      </trkpt>
      <trkpt lat="43.57445" lon="2.31851">
        <ele>215.4726563</ele>
        <time>2015-09-13T09:38:10Z</time>
      </trkpt>
      <trkpt lat="43.5744" lon="2.31828">
        <ele>215.4726563</ele>
        <time>2015-09-13T09:38:15Z</time>
      </trkpt>
      <trkpt lat="43.57438" lon="2.31807">
        <ele>216.43396</ele>
        <time>2015-09-13T09:38:20Z</time>
      </trkpt>
      <trkpt lat="43.57437" lon="2.31788">
        <ele>217.3953857</ele>
        <time>2015-09-13T09:38:24Z</time>
      </trkpt>
      <trkpt lat="43.57431" lon="2.31751">
        <ele>214.9919434</ele>
        <time>2015-09-13T09:38:30Z</time>
      </trkpt>
      <trkpt lat="43.57427" lon="2.31736">
        <ele>214.0306396</ele>
        <time>2015-09-13T09:38:32Z</time>
      </trkpt>
      <trkpt lat="43.57421" lon="2.3172">
        <ele>213.5500488</ele>
        <time>2015-09-13T09:38:34Z</time>
      </trkpt>
      <trkpt lat="43.5741" lon="2.31701">
        <ele>211.6274414</ele>
        <time>2015-09-13T09:38:37Z</time>
      </trkpt>
      <trkpt lat="43.57369" lon="2.31647">
        <ele>209.704834</ele>
        <time>2015-09-13T09:38:46Z</time>
      </trkpt>
      <trkpt lat="43.57345" lon="2.31617">
        <ele>208.7434082</ele>
        <time>2015-09-13T09:38:51Z</time>
      </trkpt>
      <trkpt lat="43.57328" lon="2.31591">
        <ele>207.7821045</ele>
        <time>2015-09-13T09:38:55Z</time>
      </trkpt>
      <trkpt lat="43.57312" lon="2.31545">
        <ele>207.7821045</ele>
        <time>2015-09-13T09:39:01Z</time>
      </trkpt>
      <trkpt lat="43.57296" lon="2.31501">
        <ele>208.2628174</ele>
        <time>2015-09-13T09:39:07Z</time>
      </trkpt>
      <trkpt lat="43.57279" lon="2.3146">
        <ele>207.3013916</ele>
        <time>2015-09-13T09:39:12Z</time>
      </trkpt>
      <trkpt lat="43.57265" lon="2.31411">
        <ele>206.3400879</ele>
        <time>2015-09-13T09:39:17Z</time>
      </trkpt>
      <trkpt lat="43.57252" lon="2.31326">
        <ele>203.9368896</ele>
        <time>2015-09-13T09:39:25Z</time>
      </trkpt>
      <trkpt lat="43.57236" lon="2.31251">
        <ele>203.9368896</ele>
        <time>2015-09-13T09:39:33Z</time>
      </trkpt>
      <trkpt lat="43.5722" lon="2.31191">
        <ele>202.9754639</ele>
        <time>2015-09-13T09:39:40Z</time>
      </trkpt>
      <trkpt lat="43.57197" lon="2.31123">
        <ele>202.494873</ele>
        <time>2015-09-13T09:39:48Z</time>
      </trkpt>
      <trkpt lat="43.57186" lon="2.31098">
        <ele>202.0142822</ele>
        <time>2015-09-13T09:39:51Z</time>
      </trkpt>
      <trkpt lat="43.57165" lon="2.31081">
        <ele>201.5335693</ele>
        <time>2015-09-13T09:39:55Z</time>
      </trkpt>
      <trkpt lat="43.57147" lon="2.31085">
        <ele>202.0142822</ele>
        <time>2015-09-13T09:39:58Z</time>
      </trkpt>
      <trkpt lat="43.5711" lon="2.31097">
        <ele>201.5335693</ele>
        <time>2015-09-13T09:40:05Z</time>
      </trkpt>
      <trkpt lat="43.57105" lon="2.31098">
        <ele>202.0142822</ele>
        <time>2015-09-13T09:40:06Z</time>
      </trkpt>
      <trkpt lat="43.57089" lon="2.3109">
        <ele>203.9368896</ele>
        <time>2015-09-13T09:40:10Z</time>
      </trkpt>
      <trkpt lat="43.57087" lon="2.31075">
        <ele>203.9368896</ele>
        <time>2015-09-13T09:40:13Z</time>
      </trkpt>
      <trkpt lat="43.57084" lon="2.31058">
        <ele>204.4174805</ele>
        <time>2015-09-13T09:40:16Z</time>
      </trkpt>
      <trkpt lat="43.5706" lon="2.30999">
        <ele>204.4174805</ele>
        <time>2015-09-13T09:40:24Z</time>
      </trkpt>
      <trkpt lat="43.57038" lon="2.30953">
        <ele>203.9368896</ele>
        <time>2015-09-13T09:40:31Z</time>
      </trkpt>
      <trkpt lat="43.57" lon="2.30914">
        <ele>204.4174805</ele>
        <time>2015-09-13T09:40:40Z</time>
      </trkpt>
      <trkpt lat="43.56965" lon="2.30889">
        <ele>204.8980713</ele>
        <time>2015-09-13T09:40:48Z</time>
      </trkpt>
      <trkpt lat="43.56939" lon="2.30876">
        <ele>205.3787842</ele>
        <time>2015-09-13T09:40:55Z</time>
      </trkpt>
      <trkpt lat="43.56919" lon="2.3087">
        <ele>206.3400879</ele>
        <time>2015-09-13T09:41:00Z</time>
      </trkpt>
      <trkpt lat="43.56901" lon="2.30871">
        <ele>208.2628174</ele>
        <time>2015-09-13T09:41:04Z</time>
      </trkpt>
      <trkpt lat="43.56883" lon="2.30874">
        <ele>211.6274414</ele>
        <time>2015-09-13T09:41:08Z</time>
      </trkpt>
      <trkpt lat="43.56873" lon="2.30874">
        <ele>210.6660156</ele>
        <time>2015-09-13T09:41:11Z</time>
      </trkpt>
      <trkpt lat="43.56864" lon="2.30877">
        <ele>212.588623</ele>
        <time>2015-09-13T09:41:16Z</time>
      </trkpt>
      <trkpt lat="43.56862" lon="2.30882">
        <ele>212.588623</ele>
        <time>2015-09-13T09:41:18Z</time>
      </trkpt>
      <trkpt lat="43.56853" lon="2.3091">
        <ele>214.9919434</ele>
        <time>2015-09-13T09:41:24Z</time>
      </trkpt>
      <trkpt lat="43.56839" lon="2.30945">
        <ele>213.0693359</ele>
        <time>2015-09-13T09:41:31Z</time>
      </trkpt>
      <trkpt lat="43.56832" lon="2.30966">
        <ele>213.0693359</ele>
        <time>2015-09-13T09:41:35Z</time>
      </trkpt>
    </trkseg>
  </trk>
</gpx>